TU788 / TS-IMW 7700 Squawk Report (7th of December, 2021)

Aircraft A320 Reg No. TS-IMW Age 7 years old
Model A320 Jet engines 2 First flight 22-10-14
Registered 28-11-14 Rollout 10-14 Delivered 28-11-14
Construction No. 6338 Line No. N/A Series 214(SL)
ADSHEX 02A196 Airline name Tunisair Owner N/A
Airfield based Tunis-Carthage~Tunis~TS First tracked N/A

Flight history for TS-IMW

Time Lat Lon Altitude Heading Speed Vertical Rate
2021-12-07 11:50:19 GMT 50.904282 4.546187 0 255 9 0
2021-12-07 11:50:19 GMT 50.904282 4.546187 0 11 12 0
2021-12-07 11:50:20 GMT 50.904282 4.546187 0 14 13 0
2021-12-07 11:50:20 GMT 50.904282 4.546187 0 14 16 0
2021-12-07 11:50:19 GMT 50.904282 4.546187 0 11 12 0
2021-12-07 11:51:13 GMT 50.894371 4.503485 325 247 78 0
2021-12-07 11:50:49 GMT 50.898540 4.521561 325 251 126 -576
2021-12-07 11:50:43 GMT 50.899612 4.526138 400 251 125 -640
2021-12-07 11:50:33 GMT 50.901535 4.534384 500 250 125 -768
2021-12-07 11:50:29 GMT 50.902313 4.537576 525 250 124 -768
2021-12-07 11:50:23 GMT 50.903614 4.543304 625 251 125 -640
2021-12-07 11:50:19 GMT 50.904282 4.546187 650 251 125 -704
2021-12-07 11:50:16 GMT 50.904831 4.548711 675 251 125 -768
2021-12-07 11:50:13 GMT 50.905518 4.551755 750 251 125 -704
2021-12-07 11:50:10 GMT 50.906269 4.555054 775 251 126 -768
2021-12-07 11:50:07 GMT 50.906689 4.556885 775 250 124 -576
2021-12-07 11:50:01 GMT 50.907852 4.562073 875 250 124 -576
2021-12-07 11:49:58 GMT 50.908409 4.564514 900 250 123 -704
2021-12-07 11:49:52 GMT 50.909855 4.570541 975 250 122 -640
2021-12-07 11:49:48 GMT 50.910412 4.573059 1,025 250 121 -640
2021-12-07 11:49:41 GMT 50.911716 4.578552 1,125 250 121 -576
2021-12-07 11:49:37 GMT 50.912601 4.582443 1,125 250 121 -640
2021-12-07 11:49:31 GMT 50.913765 4.587479 1,200 250 122 -640
2021-12-07 11:49:28 GMT 50.914509 4.590683 1,225 250 123 -704
2021-12-07 11:49:21 GMT 50.915726 4.595923 1,300 250 124 -768
2021-12-07 11:49:16 GMT 50.916603 4.599762 1,500 250 137 -448
2021-12-07 11:49:11 GMT 50.917694 4.604459 1,425 250 127 -704
2021-12-07 11:49:06 GMT 50.918976 4.609804 1,500 250 137 -448
2021-12-07 11:49:01 GMT 50.919846 4.613590 1,525 251 140 -512
2021-12-07 11:48:58 GMT 50.920280 4.615555 1,550 250 142 -704
2021-12-07 11:48:52 GMT 50.921951 4.622869 1,650 250 149 -960
2021-12-07 11:48:48 GMT 50.922607 4.625549 1,700 251 150 -1024
2021-12-07 11:48:45 GMT 50.923370 4.629030 1,750 251 154 -1088
2021-12-07 11:48:41 GMT 50.924652 4.634746 1,850 251 156 -1088
2021-12-07 11:48:37 GMT 50.925262 4.637451 1,925 251 159 -960
2021-12-07 11:48:34 GMT 50.926117 4.640981 1,925 251 161 -896
2021-12-07 11:48:28 GMT 50.927776 4.648209 2,000 250 166 -448
2021-12-07 11:48:23 GMT 50.928955 4.653378 2,175 250 168 -512
2021-12-07 11:48:20 GMT 50.929779 4.657090 2,125 251 167 -960
2021-12-07 11:48:17 GMT 50.930477 4.660110 2,150 251 167 -896
2021-12-07 11:48:14 GMT 50.931381 4.664142 2,200 251 167 -768
2021-12-07 11:48:11 GMT 50.932159 4.667556 2,250 251 167 -576
2021-12-07 11:48:08 GMT 50.932983 4.670971 2,300 250 168 -512
2021-12-07 11:48:04 GMT 50.934013 4.675598 2,350 250 171 -576
2021-12-07 11:48:00 GMT 50.935085 4.680099 2,425 250 174 -576
2021-12-07 11:47:57 GMT 50.935921 4.683762 2,375 250 173 -576
2021-12-07 11:47:53 GMT 50.936874 4.687822 2,400 250 174 -576
2021-12-07 11:47:49 GMT 50.937923 4.692383 2,450 251 177 -576
2021-12-07 11:47:44 GMT 50.939552 4.699478 2,500 251 180 -512
2021-12-07 11:47:39 GMT 50.940765 4.704819 2,525 251 182 -512
2021-12-07 11:47:36 GMT 50.941635 4.708607 2,550 251 185 -512
2021-12-07 11:47:33 GMT 50.942532 4.712601 3,150 284 229 -832
2021-12-07 11:47:30 GMT 50.943558 4.717218 2,625 251 190 -576
2021-12-07 11:47:27 GMT 50.944580 4.721756 2,650 252 193 -576
2021-12-07 11:47:23 GMT 50.945560 4.726334 2,675 252 193 -576
2021-12-07 11:47:18 GMT 50.946716 4.731841 2,750 253 197 -576
2021-12-07 11:47:13 GMT 50.948399 4.740067 2,800 253 200 -640
2021-12-07 11:47:09 GMT 50.949783 4.746910 2,850 254 204 -704
2021-12-07 11:47:06 GMT 50.951385 4.755670 2,900 254 204 -704
2021-12-07 11:47:02 GMT 50.951385 4.755670 2,925 255 208 -576
2021-12-07 11:46:59 GMT 50.952026 4.759456 2,975 258 211 -576
2021-12-07 11:46:56 GMT 50.952850 4.764429 2,975 258 211 -576
2021-12-07 11:46:52 GMT 50.953674 4.770293 3,050 266 217 -768
2021-12-07 11:46:48 GMT 50.954269 4.776306 3,050 266 217 -768
2021-12-07 11:46:45 GMT 50.954453 4.780983 3,100 270 221 -768
2021-12-07 11:46:42 GMT 50.954361 4.787070 3,150 284 229 -832
2021-12-07 11:46:39 GMT 50.954132 4.790484 3,300 286 241 -704
2021-12-07 11:46:36 GMT 50.953400 4.796200 3,225 286 233 -704
2021-12-07 11:46:33 GMT 50.952576 4.800951 3,275 286 234 -704
2021-12-07 11:46:29 GMT 50.951523 4.806890 3,400 286 241 -704
2021-12-07 11:46:26 GMT 50.950539 4.812698 3,350 286 245 -960
2021-12-07 11:46:23 GMT 50.949646 4.817728 3,375 286 240 -640
2021-12-07 11:46:19 GMT 50.948586 4.824142 3,450 286 243 -896
2021-12-07 11:46:16 GMT 50.947842 4.828415 3,450 286 243 -896
2021-12-07 11:46:13 GMT 50.946861 4.834061 3,500 286 245 -960
2021-12-07 11:46:10 GMT 50.945847 4.840071 3,525 286 246 -960
2021-12-07 11:46:07 GMT 50.944153 4.850018 3,625 285 248 -960
2021-12-07 11:46:04 GMT 50.944153 4.850018 3,650 285 249 -1024
2021-12-07 11:46:01 GMT 50.943092 4.856415 3,700 285 252 -960
2021-12-07 11:45:58 GMT 50.942532 4.859695 3,725 285 252 -960
2021-12-07 11:45:54 GMT 50.941044 4.868546 3,825 285 253 -960
2021-12-07 11:45:50 GMT 50.939987 4.874960 3,875 286 254 -1024
2021-12-07 11:45:47 GMT 50.939228 4.879303 3,925 286 256 -1024
2021-12-07 11:45:44 GMT 50.938248 4.884907 3,975 287 256 -1024
2021-12-07 11:45:41 GMT 50.937195 4.890698 4,050 288 257 -960
2021-12-07 11:45:38 GMT 50.935970 4.897003 4,150 291 257 -768
2021-12-07 11:45:35 GMT 50.934666 4.903183 4,125 292 257 -576
2021-12-07 11:45:31 GMT 50.933411 4.908295 4,150 295 258 -64
2021-12-07 11:45:28 GMT 50.931931 4.913932 4,150 295 258 -64
2021-12-07 11:45:25 GMT 50.930695 4.918312 4,200 295 258 -64
2021-12-07 11:45:22 GMT 50.928566 4.925537 4,150 296 258 -64
2021-12-07 11:45:18 GMT 50.926846 4.931335 4,175 296 259 -128
2021-12-07 11:45:14 GMT 50.924789 4.938354 4,175 295 259 -192
2021-12-07 11:45:11 GMT 50.923233 4.943699 4,200 295 259 -192
2021-12-07 11:45:06 GMT 50.920887 4.951706 4,200 295 260 -320
2021-12-07 11:45:02 GMT 50.919025 4.958038 4,925 295 262 -576
2021-12-07 11:44:58 GMT 50.916649 4.966354 4,275 295 263 -960
2021-12-07 11:44:54 GMT 50.914902 4.972427 4,375 295 264 -960
2021-12-07 11:44:50 GMT 50.912521 4.980964 4,425 295 264 -1024
2021-12-07 11:44:47 GMT 50.911434 4.984589 4,450 295 265 -1024
2021-12-07 11:44:44 GMT 50.909592 4.991208 4,500 295 265 -1024
2021-12-07 11:44:41 GMT 50.908127 4.996330 4,575 295 265 -1024
2021-12-07 11:44:38 GMT 50.906479 5.002268 4,600 295 265 -1024
2021-12-07 11:44:35 GMT 50.905338 5.006256 4,650 294 264 -1024
2021-12-07 11:44:32 GMT 50.903320 5.013477 4,700 294 265 -1024
2021-12-07 11:44:29 GMT 50.902126 5.017853 4,775 294 265 -1024
2021-12-07 11:44:26 GMT 50.900848 5.022385 4,825 294 265 -1024
2021-12-07 11:44:23 GMT 50.899380 5.027695 4,850 294 265 -1024
2021-12-07 11:44:19 GMT 50.896957 5.036563 4,925 294 265 -960
2021-12-07 11:44:15 GMT 50.895401 5.042279 4,975 294 265 -960
2021-12-07 11:44:11 GMT 50.893433 5.049405 5,075 294 264 -960
2021-12-07 11:44:08 GMT 50.891930 5.054932 5,125 294 264 -960
2021-12-07 11:44:05 GMT 50.890442 5.060272 5,150 294 264 -960
2021-12-07 11:44:02 GMT 50.889450 5.064029 5,200 294 264 -960
2021-12-07 11:43:58 GMT 50.887180 5.072403 5,275 294 264 -1024
2021-12-07 11:43:55 GMT 50.885693 5.077896 5,300 294 264 -1024
2021-12-07 11:43:52 GMT 50.884277 5.083033 5,475 294 264 -1024
2021-12-07 11:43:49 GMT 50.882668 5.089035 5,425 294 264 -1024
2021-12-07 11:43:46 GMT 50.881210 5.094390 5,475 294 264 -1024
2021-12-07 11:43:43 GMT 50.879967 5.098877 5,525 294 265 -960
2021-12-07 11:43:40 GMT 50.878616 5.103760 5,625 294 265 -1024
2021-12-07 11:43:37 GMT 50.876381 5.111771 5,625 294 265 -1024
2021-12-07 11:43:34 GMT 50.875870 5.113678 5,625 294 265 -960
2021-12-07 11:43:31 GMT 50.874023 5.120223 5,725 295 266 -960
2021-12-07 11:43:28 GMT 50.872192 5.126607 5,775 295 267 -960
2021-12-07 11:43:25 GMT 50.871002 5.130838 5,800 295 267 -896
2021-12-07 11:43:21 GMT 50.868942 5.137890 5,875 298 269 -768
2021-12-07 11:43:18 GMT 50.867256 5.143280 5,950 301 269 -640
2021-12-07 11:43:15 GMT 50.865162 5.149460 6,000 313 273 -64
2021-12-07 11:43:11 GMT 50.863083 5.154815 6,000 309 272 -128
2021-12-07 11:43:08 GMT 50.860062 5.161347 6,000 315 274 -128
2021-12-07 11:43:05 GMT 50.858276 5.164613 6,000 318 275 -128
2021-12-07 11:43:01 GMT 50.853424 5.171814 6,000 319 278 -64
2021-12-07 11:42:57 GMT 50.847565 5.179905 6,025 319 279 -64
2021-12-07 11:42:54 GMT 50.847565 5.179905 6,025 319 281 -64
2021-12-07 11:42:50 GMT 50.844452 5.184136 6,025 319 282 -64
2021-12-07 11:42:47 GMT 50.840744 5.189333 6,050 319 296 -320
2021-12-07 11:42:43 GMT 50.836441 5.195236 6,025 319 289 -128
2021-12-07 11:42:40 GMT 50.833923 5.198686 6,025 319 293 -256
2021-12-07 11:42:37 GMT 50.830109 5.204010 6,050 319 296 -320
2021-12-07 11:42:33 GMT 50.826965 5.208336 6,100 319 300 -576
2021-12-07 11:42:29 GMT 50.822521 5.214462 6,100 319 305 -1024
2021-12-07 11:42:25 GMT 50.814838 5.225067 6,200 319 306 -1280
2021-12-07 11:42:22 GMT 50.814838 5.225067 6,250 319 309 -1472
2021-12-07 11:42:19 GMT 50.812046 5.228882 6,525 319 310 -1792
2021-12-07 11:42:16 GMT 50.808426 5.233872 6,650 319 311 -2112
2021-12-07 11:42:13 GMT 50.802246 5.242409 6,675 319 311 -1984
2021-12-07 11:42:10 GMT 50.802246 5.242409 6,650 319 311 -2240
2021-12-07 11:42:07 GMT 50.798454 5.247650 6,825 319 311 -2240
2021-12-07 11:42:04 GMT 50.795517 5.251762 6,825 319 311 -2240
2021-12-07 11:42:01 GMT 50.792263 5.256271 7,125 319 312 -2240
2021-12-07 11:41:58 GMT 50.789749 5.259781 7,125 319 312 -2240
2021-12-07 11:41:54 GMT 50.784943 5.266460 7,200 319 312 -2240
2021-12-07 11:41:51 GMT 50.781738 5.270914 7,350 318 312 -2240
2021-12-07 11:41:48 GMT 50.778809 5.275145 7,475 318 312 -2240
2021-12-07 11:41:45 GMT 50.774323 5.281455 7,575 318 312 -2240
2021-12-07 11:41:42 GMT 50.771080 5.286026 7,650 318 313 -2176
2021-12-07 11:41:38 GMT 50.767822 5.290680 7,775 319 313 -2368
2021-12-07 11:41:34 GMT 50.759628 5.302277 8,075 319 313 -2304
2021-12-07 11:41:31 GMT 50.757019 5.305951 8,100 319 313 -2368
2021-12-07 11:41:28 GMT 50.757019 5.305951 8,300 319 313 -2368
2021-12-07 11:41:25 GMT 50.752625 5.312112 8,350 319 313 -2368
2021-12-07 11:41:22 GMT 50.750366 5.315323 8,450 319 312 -2368
2021-12-07 11:41:19 GMT 50.744247 5.323915 8,600 319 313 -2368
2021-12-07 11:41:16 GMT 50.744247 5.323915 8,700 319 313 -2304
2021-12-07 11:41:13 GMT 50.741196 5.328140 8,825 318 313 -2304
2021-12-07 11:41:10 GMT 50.737751 5.333099 8,875 318 313 -2304
2021-12-07 11:41:07 GMT 50.735004 5.336914 8,975 318 313 -2304
2021-12-07 11:41:04 GMT 50.730442 5.343399 9,150 318 314 -2304
2021-12-07 11:41:01 GMT 50.727650 5.347366 9,225 318 315 -2368
2021-12-07 11:40:58 GMT 50.718010 5.361176 9,475 318 315 -2368
2021-12-07 11:40:53 GMT 50.718010 5.361176 9,650 318 315 -2368
2021-12-07 11:40:50 GMT 50.715179 5.365262 9,700 318 315 -2368
2021-12-07 11:40:47 GMT 50.713123 5.368271 9,825 318 317 -2304
2021-12-07 11:40:44 GMT 50.704929 5.380020 9,925 318 317 -2240
2021-12-07 11:40:41 GMT 50.704929 5.380020 10,325 319 321 -2176
2021-12-07 11:40:38 GMT 50.702911 5.382855 10,175 318 319 -2176
2021-12-07 11:40:35 GMT 50.698837 5.388794 10,250 318 319 -2176
2021-12-07 11:40:32 GMT 50.697052 5.391244 10,425 319 320 -2176
2021-12-07 11:40:29 GMT 50.693523 5.396271 10,425 319 321 -2176
2021-12-07 11:40:26 GMT 50.685791 5.407203 10,600 319 322 -2176
2021-12-07 11:40:23 GMT 50.685791 5.407203 11,050 319 326 -2240
2021-12-07 11:40:19 GMT 50.681141 5.413818 10,825 318 324 -2176
2021-12-07 11:40:16 GMT 50.677414 5.419081 10,950 319 325 -2176
2021-12-07 11:40:13 GMT 50.675674 5.421530 11,050 319 326 -2240
2021-12-07 11:40:10 GMT 50.671925 5.426788 11,325 319 327 -2304
2021-12-07 11:40:07 GMT 50.669086 5.430809 11,250 319 327 -2304
2021-12-07 11:40:04 GMT 50.665329 5.436209 11,425 318 328 -2304
2021-12-07 11:40:01 GMT 50.661026 5.442280 11,525 319 329 -2304
2021-12-07 11:39:58 GMT 50.658005 5.446544 11,875 319 330 -2304
2021-12-07 11:39:55 GMT 50.654572 5.451387 11,725 319 331 -2304
2021-12-07 11:39:52 GMT 50.650726 5.456808 11,875 319 330 -2304
2021-12-07 11:39:49 GMT 50.648460 5.460057 12,000 319 332 -2240
2021-12-07 11:39:46 GMT 50.644638 5.465409 12,100 319 332 -2240
2021-12-07 11:39:43 GMT 50.641525 5.469818 12,250 319 332 -2112
2021-12-07 11:39:40 GMT 50.637634 5.475311 12,350 319 333 -2112
2021-12-07 11:39:37 GMT 50.634914 5.479134 12,425 319 333 -2112
2021-12-07 11:39:34 GMT 50.631287 5.484256 12,525 319 336 -2176
2021-12-07 11:39:31 GMT 50.627609 5.489478 12,625 319 334 -2112
2021-12-07 11:39:28 GMT 50.620716 5.499177 12,750 319 334 -2048
2021-12-07 11:39:25 GMT 50.620716 5.499177 13,550 319 335 -2112
2021-12-07 11:39:22 GMT 50.616806 5.504656 12,975 319 334 -2112
2021-12-07 11:39:19 GMT 50.613876 5.508848 13,525 319 335 -2112
2021-12-07 11:39:16 GMT 50.610336 5.513801 13,525 319 335 -2112
2021-12-07 11:39:13 GMT 50.606148 5.519665 13,275 319 335 -2112
2021-12-07 11:39:10 GMT 50.602753 5.524461 13,375 319 335 -2112
2021-12-07 11:39:07 GMT 50.595718 5.534363 13,475 319 335 -2048
2021-12-07 11:39:04 GMT 50.595718 5.534363 13,575 319 335 -2048
2021-12-07 11:39:01 GMT 50.593460 5.537543 13,675 319 336 -2048
2021-12-07 11:38:58 GMT 50.590622 5.541518 13,700 319 335 -2048
2021-12-07 11:38:55 GMT 50.582497 5.552921 14,200 319 336 -2048
2021-12-07 11:38:52 GMT 50.582497 5.552921 14,100 319 339 -2304
2021-12-07 11:38:49 GMT 50.579681 5.556841 14,125 319 335 -2048
2021-12-07 11:38:46 GMT 50.575516 5.562696 14,175 319 336 -2048
2021-12-07 11:38:43 GMT 50.573189 5.566060 14,200 319 336 -2112
2021-12-07 11:38:40 GMT 50.567917 5.573465 14,425 319 336 -2112
2021-12-07 11:38:37 GMT 50.564529 5.578236 14,475 319 336 -2112
2021-12-07 11:38:33 GMT 50.560455 5.583946 14,825 319 335 -2112
2021-12-07 11:38:30 GMT 50.557034 5.588849 14,700 319 336 -2112
2021-12-07 11:38:26 GMT 50.552380 5.595381 14,900 319 336 -2176
2021-12-07 11:38:23 GMT 50.549072 5.599984 15,225 319 336 -2176
2021-12-07 11:38:20 GMT 50.545441 5.605106 15,075 319 336 -2176
2021-12-07 11:38:17 GMT 50.541916 5.610038 15,175 319 336 -2112
2021-12-07 11:38:14 GMT 50.538437 5.614881 15,350 319 337 -2112
2021-12-07 11:38:11 GMT 50.534637 5.620230 15,400 319 337 -2112
2021-12-07 11:38:08 GMT 50.532394 5.623338 15,475 319 337 -2112
2021-12-07 11:38:05 GMT 50.528046 5.629409 15,625 319 337 -2176
2021-12-07 11:38:02 GMT 50.525238 5.633314 15,775 319 337 -2176
2021-12-07 11:37:59 GMT 50.521133 5.639094 15,800 319 337 -2112
2021-12-07 11:37:56 GMT 50.517605 5.643929 15,975 319 337 -2112
2021-12-07 11:37:53 GMT 50.513306 5.649936 16,075 319 337 -2112
2021-12-07 11:37:50 GMT 50.510807 5.653431 16,225 319 338 -2176
2021-12-07 11:37:47 GMT 50.507736 5.657736 16,275 319 338 -2176
2021-12-07 11:37:44 GMT 50.503544 5.663526 16,425 319 337 -2176
2021-12-07 11:37:41 GMT 50.500149 5.668277 16,575 319 338 -2240
2021-12-07 11:37:38 GMT 50.496330 5.673696 16,575 319 338 -2240
2021-12-07 11:37:34 GMT 50.492420 5.679189 16,750 319 338 -2240
2021-12-07 11:37:31 GMT 50.489365 5.683473 16,875 319 338 -2240
2021-12-07 11:37:28 GMT 50.485764 5.688543 16,925 319 338 -2240
2021-12-07 11:37:24 GMT 50.480453 5.695966 17,150 319 339 -2176
2021-12-07 11:37:21 GMT 50.476456 5.701615 17,250 319 339 -2176
2021-12-07 11:37:18 GMT 50.474079 5.704948 17,350 319 339 -2176
2021-12-07 11:37:14 GMT 50.468811 5.712240 17,550 319 339 -2240
2021-12-07 11:37:11 GMT 50.464626 5.718087 17,625 319 339 -2240
2021-12-07 11:37:08 GMT 50.461670 5.722287 17,675 319 339 -2240
2021-12-07 11:37:04 GMT 50.456177 5.729948 17,850 319 339 -2304
2021-12-07 11:37:01 GMT 50.453705 5.733418 18,000 319 339 -2240
2021-12-07 11:36:58 GMT 50.450043 5.738622 18,050 319 339 -2240
2021-12-07 11:36:54 GMT 50.444824 5.745922 18,400 319 340 -2240
2021-12-07 11:36:51 GMT 50.441849 5.750186 18,375 319 340 -2240
2021-12-07 11:36:48 GMT 50.437134 5.756691 18,500 319 341 -2240
2021-12-07 11:36:45 GMT 50.434937 5.759799 18,600 319 341 -2240
2021-12-07 11:36:42 GMT 50.427887 5.769557 18,925 319 342 -2240
2021-12-07 11:36:39 GMT 50.427887 5.769557 18,800 319 342 -2240
2021-12-07 11:36:36 GMT 50.424042 5.774906 18,875 319 342 -2240
2021-12-07 11:36:33 GMT 50.420334 5.780110 19,000 319 342 -2240
2021-12-07 11:36:30 GMT 50.416912 5.784821 19,125 319 342 -2176
2021-12-07 11:36:27 GMT 50.412254 5.791354 19,250 319 342 -2176
2021-12-07 11:36:24 GMT 50.408672 5.796327 19,375 319 344 -2176
2021-12-07 11:36:21 GMT 50.405136 5.801287 19,525 319 344 -2176
2021-12-07 11:36:18 GMT 50.402714 5.804716 19,550 319 345 -2176
2021-12-07 11:36:15 GMT 50.398682 5.810250 19,675 319 345 -2176
2021-12-07 11:36:12 GMT 50.395752 5.814370 19,925 319 346 -2176
2021-12-07 11:36:09 GMT 50.392456 5.818923 19,925 319 346 -2176
2021-12-07 11:36:06 GMT 50.388245 5.824850 20,000 319 347 -2176
2021-12-07 11:36:03 GMT 50.385223 5.828970 20,225 319 347 -1984
2021-12-07 11:36:00 GMT 50.380188 5.835981 20,225 319 347 -1792
2021-12-07 11:35:57 GMT 50.377995 5.839011 20,250 319 347 -1664
2021-12-07 11:35:53 GMT 50.373276 5.845522 20,625 319 346 -1280
2021-12-07 11:35:50 GMT 50.369659 5.850591 20,475 319 346 -1024
2021-12-07 11:35:47 GMT 50.360870 5.862652 20,525 319 347 -960
2021-12-07 11:35:43 GMT 50.360870 5.862652 20,550 319 345 -896
2021-12-07 11:35:40 GMT 50.357346 5.867494 20,575 319 345 -960
2021-12-07 11:35:37 GMT 50.353600 5.872638 20,650 319 347 -1024
2021-12-07 11:35:34 GMT 50.349976 5.877613 20,675 319 347 -1024
2021-12-07 11:35:32 GMT 50.347549 5.880938 20,725 319 347 -1024
2021-12-07 11:35:29 GMT 50.344196 5.885480 22,650 319 348 -1088
2021-12-07 11:35:26 GMT 50.340099 5.891047 20,850 319 348 -1088
2021-12-07 11:35:23 GMT 50.336422 5.896095 20,900 320 349 -1088
2021-12-07 11:35:20 GMT 50.333488 5.900104 20,975 320 349 -1088
2021-12-07 11:35:17 GMT 50.328648 5.906636 21,000 320 350 -1024
2021-12-07 11:35:14 GMT 50.326229 5.909976 21,100 320 350 -1024
2021-12-07 11:35:11 GMT 50.322647 5.914764 21,100 320 350 -1024
2021-12-07 11:35:08 GMT 50.316639 5.922893 21,250 332 348 -1536
2021-12-07 11:35:05 GMT 50.313660 5.926901 21,200 320 350 -960
2021-12-07 11:35:02 GMT 50.310165 5.931578 21,275 320 350 -960
2021-12-07 11:34:58 GMT 50.305618 5.937677 21,325 320 349 -896
2021-12-07 11:34:55 GMT 50.303192 5.940929 21,450 321 348 -896
2021-12-07 11:34:52 GMT 50.297924 5.947761 21,525 330 348 -1344
2021-12-07 11:34:49 GMT 50.295547 5.950615 21,525 330 348 -1344
2021-12-07 11:34:46 GMT 50.291565 5.955024 21,575 330 348 -1344
2021-12-07 11:34:43 GMT 50.287216 5.959341 21,575 332 348 -1536
2021-12-07 11:34:40 GMT 50.283279 5.962685 22,175 338 352 -2048
2021-12-07 11:34:36 GMT 50.277145 5.967311 21,825 340 353 -2240
2021-12-07 11:34:33 GMT 50.270142 5.971503 21,925 344 356 -2496
2021-12-07 11:34:31 GMT 50.270142 5.971503 22,025 344 356 -2560
2021-12-07 11:34:28 GMT 50.264099 5.974466 22,150 345 357 -2560
2021-12-07 11:34:25 GMT 50.260391 5.976129 22,375 345 358 -2624
2021-12-07 11:34:22 GMT 50.254257 5.978803 22,800 344 360 -2688
2021-12-07 11:34:19 GMT 50.249313 5.981044 22,550 344 359 -2688
2021-12-07 11:34:16 GMT 50.244507 5.983212 22,800 344 360 -2688
2021-12-07 11:34:13 GMT 50.238144 5.986031 22,775 344 360 -2688
2021-12-07 11:34:08 GMT 50.227818 5.990815 23,075 344 361 -2560
2021-12-07 11:34:05 GMT 50.227818 5.990815 23,100 344 362 -2624
2021-12-07 11:34:02 GMT 50.222927 5.993042 23,250 344 362 -2560
2021-12-07 11:34:00 GMT 50.219765 5.994452 24,700 344 364 -2688
2021-12-07 11:33:57 GMT 50.214798 5.996800 23,525 344 364 -2688
2021-12-07 11:33:54 GMT 50.210175 5.998897 23,600 344 365 -2688
2021-12-07 11:33:51 GMT 50.205780 6.000848 24,075 344 366 -2688
2021-12-07 11:33:48 GMT 50.200119 6.003360 24,850 345 368 -2816
2021-12-07 11:33:45 GMT 50.189163 6.008220 24,050 345 367 -2688
2021-12-07 11:33:41 GMT 50.189163 6.008220 24,400 345 368 -3008
2021-12-07 11:33:38 GMT 50.184708 6.010190 24,400 345 368 -2880
2021-12-07 11:33:35 GMT 50.177994 6.013135 24,600 345 368 -3072
2021-12-07 11:33:31 GMT 50.166786 6.018058 24,725 345 369 -3200
2021-12-07 11:33:27 GMT 50.166786 6.018058 25,150 345 369 -3136
2021-12-07 11:33:24 GMT 50.161854 6.020211 25,225 346 370 -3072
2021-12-07 11:33:21 GMT 50.154778 6.023180 25,450 346 371 -3200
2021-12-07 11:33:18 GMT 50.151535 6.024555 25,600 346 371 -3200
2021-12-07 11:33:15 GMT 50.146088 6.026796 25,850 346 371 -3200
2021-12-07 11:33:12 GMT 50.141136 6.028822 25,725 346 370 -3264
2021-12-07 11:33:10 GMT 50.136482 6.030678 25,900 346 370 -3520
2021-12-07 11:33:07 GMT 50.133221 6.032014 27,050 346 369 -3520
2021-12-07 11:33:04 GMT 50.128197 6.034018 26,225 346 370 -3584
2021-12-07 11:33:01 GMT 50.122009 6.036554 26,325 346 369 -3584
2021-12-07 11:32:57 GMT 50.116516 6.038722 26,825 346 369 -3456
2021-12-07 11:32:54 GMT 50.111526 6.040746 26,725 346 369 -3456
2021-12-07 11:32:51 GMT 50.105896 6.043000 26,875 346 369 -3456
2021-12-07 11:32:47 GMT 50.099442 6.045661 27,150 346 369 -3520
2021-12-07 11:32:44 GMT 50.096054 6.046962 27,450 346 369 -3584
2021-12-07 11:32:41 GMT 50.090240 6.049347 27,425 346 369 -3648
2021-12-07 11:32:38 GMT 50.083557 6.051949 27,725 347 368 -3648
2021-12-07 11:32:35 GMT 50.079922 6.053318 27,900 347 368 -3648
2021-12-07 11:32:32 GMT 50.074127 6.055563 28,000 347 368 -3584
2021-12-07 11:32:30 GMT 50.071701 6.056430 28,550 348 369 -3264
2021-12-07 11:32:27 GMT 50.067627 6.057948 28,400 348 369 -3200
2021-12-07 11:32:24 GMT 50.062088 6.059972 29,050 348 373 -1920
2021-12-07 11:32:21 GMT 50.057762 6.061484 28,650 348 370 -2816
2021-12-07 11:32:18 GMT 50.051559 6.063658 29,075 348 373 -1856
2021-12-07 11:32:15 GMT 50.046310 6.065418 28,950 348 372 -2304
2021-12-07 11:32:12 GMT 50.040207 6.067489 29,025 348 373 -1792
2021-12-07 11:32:09 GMT 50.035881 6.068907 29,100 348 375 -1344
2021-12-07 11:32:06 GMT 50.032059 6.070235 29,400 348 375 -1280
2021-12-07 11:32:03 GMT 50.026012 6.072322 29,250 348 376 -1088
2021-12-07 11:32:00 GMT 50.021824 6.073806 29,350 348 377 -896
2021-12-07 11:31:57 GMT 50.017773 6.075217 29,350 348 377 -832
2021-12-07 11:31:54 GMT 50.011230 6.077463 29,475 348 378 -960
2021-12-07 11:31:51 GMT 50.005856 6.079374 29,450 348 378 -896
2021-12-07 11:31:48 GMT 50.000702 6.081222 29,525 348 378 -832
2021-12-07 11:31:45 GMT 49.995987 6.082884 29,575 348 378 -832
2021-12-07 11:31:42 GMT 49.990166 6.084941 29,600 348 378 -896
2021-12-07 11:31:39 GMT 49.985092 6.086715 29,675 348 378 -960
2021-12-07 11:31:35 GMT 49.978958 6.088883 29,700 348 378 -960
2021-12-07 11:31:32 GMT 49.972961 6.091052 29,775 348 378 -960
2021-12-07 11:31:29 GMT 49.969730 6.092216 29,800 348 379 -1024
2021-12-07 11:31:26 GMT 49.962421 6.094740 29,875 348 379 -1024
2021-12-07 11:31:23 GMT 49.958370 6.096150 30,075 348 379 -1024
2021-12-07 11:31:20 GMT 49.948746 6.099580 29,975 348 380 -1088
2021-12-07 11:31:18 GMT 49.948746 6.099580 30,050 348 380 -1088
2021-12-07 11:31:15 GMT 49.944176 6.101198 30,175 348 380 -1088
2021-12-07 11:31:12 GMT 49.939636 6.102833 30,125 348 380 -1088
2021-12-07 11:31:09 GMT 49.934967 6.104495 30,175 348 381 -1024
2021-12-07 11:31:06 GMT 49.927597 6.107097 30,225 348 382 -960
2021-12-07 11:31:03 GMT 49.924156 6.108324 30,250 348 382 -960
2021-12-07 11:31:00 GMT 49.919815 6.109844 30,275 348 382 -960
2021-12-07 11:30:58 GMT 49.916473 6.111000 30,325 348 382 -960
2021-12-07 11:30:55 GMT 49.910477 6.113097 30,350 348 382 -896
2021-12-07 11:30:52 GMT 49.904297 6.115265 30,450 348 382 -896
2021-12-07 11:30:49 GMT 49.900177 6.116710 30,500 348 382 -960
2021-12-07 11:30:46 GMT 49.895248 6.118420 30,500 348 382 -960
2021-12-07 11:30:43 GMT 49.890152 6.120180 30,550 348 381 -960
2021-12-07 11:30:40 GMT 49.884167 6.122280 30,600 348 380 -1024
2021-12-07 11:30:36 GMT 49.878159 6.124372 30,700 348 379 -960
2021-12-07 11:30:33 GMT 49.873032 6.126107 30,775 347 378 -1024
2021-12-07 11:30:30 GMT 49.866291 6.128515 30,800 346 376 -1152
2021-12-07 11:30:27 GMT 49.860611 6.130668 30,850 346 376 -1088
2021-12-07 11:30:24 GMT 49.856369 6.132395 31,000 346 375 -1152
2021-12-07 11:30:21 GMT 49.852280 6.134008 30,975 345 375 -1088
2021-12-07 11:30:18 GMT 49.846985 6.136226 31,125 345 375 -1152
2021-12-07 11:30:14 GMT 49.840302 6.139045 31,075 345 375 -1088
2021-12-07 11:30:11 GMT 49.835613 6.140986 31,250 345 374 -1088
2021-12-07 11:30:08 GMT 49.829563 6.143510 31,175 345 374 -1024
2021-12-07 11:30:04 GMT 49.822159 6.146628 31,275 345 372 -960
2021-12-07 11:30:01 GMT 49.818855 6.147964 31,350 346 372 -960
2021-12-07 11:29:58 GMT 49.813686 6.150117 31,400 346 371 -896
2021-12-07 11:29:55 GMT 49.807983 6.152488 31,400 345 370 -832
2021-12-07 11:29:52 GMT 49.803772 6.154200 31,450 345 370 -832
2021-12-07 11:29:49 GMT 49.798965 6.156247 31,500 345 370 -832
2021-12-07 11:29:46 GMT 49.793343 6.158579 31,550 346 369 -896
2021-12-07 11:29:43 GMT 49.789200 6.160287 31,600 346 369 -960
2021-12-07 11:29:40 GMT 49.783630 6.162535 31,625 346 369 -960
2021-12-07 11:29:37 GMT 49.779144 6.164369 31,650 346 369 -960
2021-12-07 11:29:33 GMT 49.773003 6.166893 31,750 346 370 -960
2021-12-07 11:29:30 GMT 49.767323 6.169269 31,800 346 370 -1024
2021-12-07 11:29:26 GMT 49.760742 6.171931 31,800 346 371 -1024
2021-12-07 11:29:23 GMT 49.755684 6.174019 31,900 346 372 -896
2021-12-07 11:29:20 GMT 49.751587 6.175727 31,950 345 372 -640
2021-12-07 11:29:17 GMT 49.744930 6.178473 31,975 345 373 -512
2021-12-07 11:29:13 GMT 49.738266 6.181183 32,000 345 373 0
2021-12-07 11:29:10 GMT 49.734283 6.182845 32,000 345 373 64
2021-12-07 11:29:07 GMT 49.730869 6.184263 32,000 345 373 64
2021-12-07 11:29:04 GMT 49.724773 6.186787 32,000 345 374 64
2021-12-07 11:29:01 GMT 49.720779 6.188411 32,000 346 374 -64
2021-12-07 11:28:58 GMT 49.714050 6.191230 32,000 345 374 0
2021-12-07 11:28:55 GMT 49.708527 6.193468 32,000 345 374 0
2021-12-07 11:28:52 GMT 49.704529 6.195133 32,000 346 374 -64
2021-12-07 11:28:49 GMT 49.699219 6.197301 32,000 346 374 -64
2021-12-07 11:28:46 GMT 49.693039 6.199831 32,000 346 374 0
2021-12-07 11:28:43 GMT 49.688461 6.201708 32,000 346 374 0
2021-12-07 11:28:39 GMT 49.681526 6.204529 32,000 346 373 0
2021-12-07 11:28:35 GMT 49.675426 6.207053 32,000 346 373 64
2021-12-07 11:28:32 GMT 49.670334 6.209155 32,000 346 373 0
2021-12-07 11:28:29 GMT 49.665161 6.211251 32,000 345 373 0
2021-12-07 11:28:26 GMT 49.661728 6.212624 32,000 345 373 64
2021-12-07 11:28:23 GMT 49.655273 6.215298 32,000 345 373 0
2021-12-07 11:28:20 GMT 49.652199 6.216629 32,000 346 373 0
2021-12-07 11:28:17 GMT 49.644794 6.219672 32,000 345 373 -64
2021-12-07 11:28:13 GMT 49.639664 6.221803 32,000 345 373 0
2021-12-07 11:28:10 GMT 49.634674 6.223827 32,000 345 373 0
2021-12-07 11:28:07 GMT 49.625011 6.227763 32,000 346 373 0
2021-12-07 11:28:04 GMT 49.625011 6.227763 32,000 346 373 0
2021-12-07 11:28:01 GMT 49.619518 6.230065 32,000 346 373 64
2021-12-07 11:27:58 GMT 49.610138 6.233946 32,000 346 373 64
2021-12-07 11:27:55 GMT 49.610138 6.233946 32,000 346 373 0
2021-12-07 11:27:52 GMT 49.605331 6.235898 32,000 346 373 0
2021-12-07 11:27:49 GMT 49.599220 6.238379 32,000 346 373 0
2021-12-07 11:27:46 GMT 49.594101 6.240457 32,000 346 373 0
2021-12-07 11:27:43 GMT 49.589165 6.242536 32,000 346 373 0
2021-12-07 11:27:39 GMT 49.583221 6.244932 32,000 346 373 -64
2021-12-07 11:27:36 GMT 49.577957 6.247101 32,000 346 373 0
2021-12-07 11:27:33 GMT 49.572735 6.249216 32,000 346 373 0
2021-12-07 11:27:30 GMT 49.566727 6.251666 32,000 346 373 0
2021-12-07 11:27:27 GMT 49.563423 6.253002 32,000 346 373 64
2021-12-07 11:27:24 GMT 49.557465 6.255452 32,000 346 373 0
2021-12-07 11:27:21 GMT 49.551739 6.257753 32,000 346 373 0
2021-12-07 11:27:18 GMT 49.547268 6.259535 32,000 346 373 0
2021-12-07 11:27:14 GMT 49.540009 6.262496 32,000 346 373 0
2021-12-07 11:27:11 GMT 49.536377 6.263989 32,000 346 372 0
2021-12-07 11:27:08 GMT 49.526276 6.268146 32,000 345 372 0
2021-12-07 11:27:05 GMT 49.526276 6.268146 32,000 345 372 0
2021-12-07 11:27:02 GMT 49.521061 6.270298 32,000 345 371 0
2021-12-07 11:26:59 GMT 49.514603 6.272977 32,000 345 372 0
2021-12-07 11:26:56 GMT 49.510960 6.274455 32,000 345 372 0
2021-12-07 11:26:53 GMT 49.504715 6.277096 32,000 345 372 0
2021-12-07 11:26:50 GMT 49.501373 6.278470 32,000 345 372 0
2021-12-07 11:26:47 GMT 49.496483 6.280542 32,000 345 371 0
2021-12-07 11:26:44 GMT 49.490009 6.283215 32,000 345 371 0
2021-12-07 11:26:41 GMT 49.486610 6.284625 32,025 345 372 -64
2021-12-07 11:26:38 GMT 49.481781 6.286637 32,000 345 371 0
2021-12-07 11:26:35 GMT 49.475159 6.289376 32,025 345 371 0
2021-12-07 11:26:32 GMT 49.471298 6.290974 32,025 345 371 0
2021-12-07 11:26:28 GMT 49.462875 6.294443 32,025 345 371 0
2021-12-07 11:26:24 GMT 49.458214 6.296428 32,025 345 371 64
2021-12-07 11:26:21 GMT 49.452576 6.298708 32,025 345 371 64
2021-12-07 11:26:18 GMT 49.447723 6.300731 32,000 345 371 64
2021-12-07 11:26:15 GMT 49.442947 6.302663 32,000 345 371 64
2021-12-07 11:26:12 GMT 49.433262 6.306746 32,000 345 371 64
2021-12-07 11:26:09 GMT 49.433262 6.306746 32,000 345 372 -64
2021-12-07 11:26:06 GMT 49.428314 6.308754 32,000 345 372 -64
2021-12-07 11:26:03 GMT 49.421856 6.311429 32,000 345 372 -64
2021-12-07 11:26:00 GMT 49.418655 6.312772 32,000 345 372 0
2021-12-07 11:25:57 GMT 49.411514 6.315730 32,000 345 372 0
2021-12-07 11:25:54 GMT 49.407288 6.317428 32,025 345 371 64
2021-12-07 11:25:51 GMT 49.403889 6.318873 32,000 345 371 64
2021-12-07 11:25:48 GMT 49.398769 6.320969 32,000 345 371 64
2021-12-07 11:25:45 GMT 49.394672 6.322632 32,000 345 371 64
2021-12-07 11:25:42 GMT 49.388062 6.325378 32,000 345 372 0
2021-12-07 11:25:39 GMT 49.383911 6.327139 32,000 345 371 0
2021-12-07 11:25:36 GMT 49.378609 6.329354 32,000 345 370 0
2021-12-07 11:25:33 GMT 49.371719 6.332173 32,000 345 371 -64
2021-12-07 11:25:30 GMT 49.369347 6.333184 32,025 345 371 -64
2021-12-07 11:25:27 GMT 49.362900 6.335872 32,025 345 370 0
2021-12-07 11:25:23 GMT 49.357407 6.338125 32,000 345 370 0
2021-12-07 11:25:20 GMT 49.352554 6.340097 32,025 345 370 0
2021-12-07 11:25:16 GMT 49.346210 6.342725 32,000 345 370 64
2021-12-07 11:25:13 GMT 49.339458 6.345544 32,000 345 370 64
2021-12-07 11:25:10 GMT 49.329590 6.349592 32,000 345 370 64
2021-12-07 11:25:07 GMT 49.329590 6.349592 32,000 345 370 0
2021-12-07 11:25:04 GMT 49.324890 6.351543 32,000 345 370 0
2021-12-07 11:25:01 GMT 49.321655 6.352844 32,000 345 370 0
2021-12-07 11:24:58 GMT 49.315533 6.355374 32,000 345 370 0
2021-12-07 11:24:54 GMT 49.309296 6.357976 32,000 345 370 0
2021-12-07 11:24:51 GMT 49.304218 6.360072 32,000 345 370 0
2021-12-07 11:24:48 GMT 49.299053 6.362168 32,000 345 370 0
2021-12-07 11:24:45 GMT 49.288467 6.366577 32,000 345 370 64
2021-12-07 11:24:42 GMT 49.288467 6.366577 32,000 345 370 64
2021-12-07 11:24:39 GMT 49.285217 6.367915 32,000 345 370 64
2021-12-07 11:24:37 GMT 49.275871 6.371781 32,000 345 370 64
2021-12-07 11:24:34 GMT 49.267864 6.375034 32,000 345 370 64
2021-12-07 11:24:30 GMT 49.267864 6.375034 32,000 345 370 64
2021-12-07 11:24:26 GMT 49.262100 6.377352 32,000 346 370 0
2021-12-07 11:24:23 GMT 49.257614 6.379254 32,000 345 370 64
2021-12-07 11:24:20 GMT 49.252270 6.381394 31,975 346 370 0
2021-12-07 11:24:16 GMT 49.245255 6.384254 31,975 346 370 0
2021-12-07 11:24:13 GMT 49.240494 6.386226 32,000 346 370 0
2021-12-07 11:24:10 GMT 49.235229 6.388339 31,975 346 370 0
2021-12-07 11:24:06 GMT 49.228729 6.391015 31,975 346 369 0
2021-12-07 11:24:03 GMT 49.225479 6.392282 31,975 345 368 0
2021-12-07 11:24:00 GMT 49.219124 6.394910 31,975 348 370 0
2021-12-07 11:23:57 GMT 49.215912 6.396211 31,975 345 368 0
2021-12-07 11:23:54 GMT 49.210136 6.398524 31,975 345 368 0
2021-12-07 11:23:51 GMT 49.205063 6.400663 32,000 345 368 0
2021-12-07 11:23:48 GMT 49.199936 6.402776 32,000 345 368 0
2021-12-07 11:23:45 GMT 49.194263 6.405102 31,975 345 368 0
2021-12-07 11:23:42 GMT 49.190094 6.406790 32,000 345 368 0
2021-12-07 11:23:39 GMT 49.186024 6.408499 31,975 346 368 0
2021-12-07 11:23:36 GMT 49.180809 6.410595 31,975 347 369 0
2021-12-07 11:23:33 GMT 49.168755 6.415221 31,975 347 369 0
2021-12-07 11:23:30 GMT 49.168755 6.415221 31,975 349 373 -64
2021-12-07 11:23:27 GMT 49.165215 6.416449 31,975 348 371 0
2021-12-07 11:23:24 GMT 49.161163 6.417776 32,000 350 372 -64
2021-12-07 11:23:21 GMT 49.149033 6.421509 31,975 350 373 -64
2021-12-07 11:23:18 GMT 49.149033 6.421509 31,975 351 374 -64
2021-12-07 11:23:15 GMT 49.146332 6.422283 31,975 351 373 0
2021-12-07 11:23:12 GMT 49.139893 6.423966 32,000 352 374 0
2021-12-07 11:23:09 GMT 49.135117 6.425100 32,000 352 375 0
2021-12-07 11:23:07 GMT 49.131466 6.425918 32,000 353 376 0
2021-12-07 11:23:04 GMT 49.126236 6.426932 32,000 354 377 -64
2021-12-07 11:23:01 GMT 49.120972 6.427988 32,000 354 378 -64
2021-12-07 11:22:58 GMT 49.115776 6.428809 32,000 357 379 -64
2021-12-07 11:22:55 GMT 49.111679 6.429459 32,000 356 379 -64
2021-12-07 11:22:51 GMT 49.102230 6.430616 32,000 357 380 0
2021-12-07 11:22:48 GMT 49.098694 6.431050 32,025 357 380 0
2021-12-07 11:22:46 GMT 49.093140 6.431509 32,025 358 381 0
2021-12-07 11:22:43 GMT 49.088150 6.431861 32,025 359 383 -64
2021-12-07 11:22:40 GMT 49.084541 6.432061 32,025 0 384 0
2021-12-07 11:22:37 GMT 49.077511 6.432278 32,025 0 386 0
2021-12-07 11:22:34 GMT 49.073822 6.432354 32,025 0 386 0
2021-12-07 11:22:31 GMT 49.068527 6.432278 32,025 1 387 64
2021-12-07 11:22:27 GMT 49.061729 6.432134 32,025 1 388 0
2021-12-07 11:22:24 GMT 49.055374 6.431791 32,025 2 390 0
2021-12-07 11:22:21 GMT 49.051804 6.431580 32,025 3 391 0
2021-12-07 11:22:18 GMT 49.043427 6.430875 32,025 3 392 0
2021-12-07 11:22:15 GMT 49.039944 6.430544 32,025 3 392 0
2021-12-07 11:22:12 GMT 49.033657 6.429893 32,025 3 392 64
2021-12-07 11:22:09 GMT 49.029144 6.429396 32,025 3 392 64
2021-12-07 11:22:06 GMT 49.022644 6.428763 32,025 3 392 0
2021-12-07 11:22:03 GMT 49.018250 6.428303 32,000 3 392 0
2021-12-07 11:22:00 GMT 49.012615 6.427725 32,000 3 392 0
2021-12-07 11:21:57 GMT 49.007030 6.427147 32,000 3 392 0
2021-12-07 11:21:54 GMT 49.001396 6.426568 32,000 3 391 0
2021-12-07 11:21:51 GMT 48.995544 6.425946 32,025 3 392 0
2021-12-07 11:21:48 GMT 48.991013 6.425453 32,000 3 392 0
2021-12-07 11:21:45 GMT 48.985428 6.424889 32,025 3 392 0
2021-12-07 11:21:42 GMT 48.981007 6.424472 32,000 3 391 0
2021-12-07 11:21:39 GMT 48.972519 6.423551 32,025 3 391 0
2021-12-07 11:21:36 GMT 48.968994 6.423199 32,000 3 391 0
2021-12-07 11:21:33 GMT 48.963501 6.422636 32,025 3 391 0
2021-12-07 11:21:30 GMT 48.957092 6.422002 32,000 3 391 0
2021-12-07 11:21:27 GMT 48.954147 6.421653 32,000 3 391 0
2021-12-07 11:21:24 GMT 48.947754 6.421016 32,000 3 391 0
2021-12-07 11:21:21 GMT 48.940834 6.420280 32,000 3 391 0
2021-12-07 11:21:18 GMT 48.936363 6.419846 32,000 3 391 0
2021-12-07 11:21:15 GMT 48.931103 6.419340 32,000 3 391 0
2021-12-07 11:21:12 GMT 48.926540 6.418834 32,000 3 391 0
2021-12-07 11:21:09 GMT 48.919739 6.418128 32,000 3 391 0
2021-12-07 11:21:07 GMT 48.916901 6.417847 32,000 3 391 0
2021-12-07 11:21:04 GMT 48.910946 6.417244 32,000 3 391 -64
2021-12-07 11:21:01 GMT 48.906509 6.416790 32,000 3 391 -64
2021-12-07 11:20:58 GMT 48.900421 6.416156 32,025 3 391 -64
2021-12-07 11:20:55 GMT 48.893303 6.415437 32,025 3 391 0
2021-12-07 11:20:52 GMT 48.889481 6.415100 32,025 3 391 0
2021-12-07 11:20:48 GMT 48.880646 6.414185 32,025 3 391 64
2021-12-07 11:20:45 GMT 48.876480 6.413762 32,025 3 391 0
2021-12-07 11:20:42 GMT 48.871902 6.413269 32,025 3 390 0
2021-12-07 11:20:39 GMT 48.866302 6.412691 32,025 3 391 0
2021-12-07 11:20:36 GMT 48.858719 6.411931 32,025 3 391 0
2021-12-07 11:20:33 GMT 48.855736 6.411607 32,000 3 391 0
2021-12-07 11:20:30 GMT 48.846313 6.410663 32,000 3 391 0
2021-12-07 11:20:27 GMT 48.844437 6.410452 32,000 3 391 0
2021-12-07 11:20:24 GMT 48.831482 6.409114 32,000 3 391 0
2021-12-07 11:20:21 GMT 48.831482 6.409114 32,000 3 391 0
2021-12-07 11:20:18 GMT 48.827728 6.408691 32,000 3 391 0
2021-12-07 11:20:15 GMT 48.823608 6.408269 32,000 3 390 0
2021-12-07 11:20:12 GMT 48.817142 6.407631 32,000 3 390 0
2021-12-07 11:20:08 GMT 48.810654 6.406931 32,000 3 390 0
2021-12-07 11:20:05 GMT 48.803364 6.406186 32,000 3 390 0
2021-12-07 11:20:02 GMT 48.798801 6.405680 32,000 3 390 0
2021-12-07 11:19:59 GMT 48.795181 6.405311 32,000 3 390 0
2021-12-07 11:19:56 GMT 48.789230 6.404677 32,000 3 390 0
2021-12-07 11:19:53 GMT 48.783646 6.404114 32,000 3 390 0
2021-12-07 11:19:50 GMT 48.776917 6.403410 32,000 3 390 0
2021-12-07 11:19:47 GMT 48.771652 6.402846 32,000 3 390 0
2021-12-07 11:19:44 GMT 48.766068 6.402283 32,000 3 390 0
2021-12-07 11:19:41 GMT 48.761810 6.401790 32,000 3 390 0
2021-12-07 11:19:38 GMT 48.752563 6.400874 32,000 3 390 0
2021-12-07 11:19:36 GMT 48.752563 6.400874 32,000 3 390 0
2021-12-07 11:19:33 GMT 48.747128 6.400331 32,000 3 390 0
2021-12-07 11:19:30 GMT 48.742218 6.399818 32,000 3 389 0
2021-12-07 11:19:27 GMT 48.736771 6.399254 32,000 3 389 0
2021-12-07 11:19:24 GMT 48.731441 6.398669 32,000 3 389 0
2021-12-07 11:19:21 GMT 48.724133 6.397946 32,000 3 389 0
2021-12-07 11:19:18 GMT 48.718826 6.397440 32,000 3 389 0
2021-12-07 11:19:15 GMT 48.710724 6.396649 32,000 3 389 0
2021-12-07 11:19:12 GMT 48.710724 6.396649 32,000 3 388 0
2021-12-07 11:19:09 GMT 48.698959 6.395451 32,000 3 388 64
2021-12-07 11:19:06 GMT 48.698959 6.395451 32,000 3 388 0
2021-12-07 11:19:03 GMT 48.692505 6.394888 31,975 3 388 64
2021-12-07 11:19:00 GMT 48.686054 6.394260 31,975 3 388 64
2021-12-07 11:18:57 GMT 48.682468 6.393898 31,975 3 388 64
2021-12-07 11:18:55 GMT 48.678314 6.393550 32,000 3 388 0
2021-12-07 11:18:52 GMT 48.674561 6.393127 31,975 4 390 0
2021-12-07 11:18:49 GMT 48.661892 6.391586 32,000 5 390 0
2021-12-07 11:18:46 GMT 48.661892 6.391586 32,000 6 392 0
2021-12-07 11:18:43 GMT 48.657852 6.390944 32,000 6 392 0
2021-12-07 11:18:40 GMT 48.652313 6.390029 31,975 8 394 64
2021-12-07 11:18:36 GMT 48.645226 6.388622 32,000 8 394 64
2021-12-07 11:18:33 GMT 48.638103 6.387104 32,000 8 396 0
2021-12-07 11:18:30 GMT 48.633682 6.386155 31,975 8 396 0
2021-12-07 11:18:26 GMT 48.626724 6.384606 31,975 8 396 0
2021-12-07 11:18:23 GMT 48.619263 6.382986 31,975 8 396 0
2021-12-07 11:18:20 GMT 48.615829 6.382212 31,975 8 396 0
2021-12-07 11:18:17 GMT 48.611290 6.381177 31,975 8 396 0
2021-12-07 11:18:14 GMT 48.604820 6.379804 31,975 8 396 -64
2021-12-07 11:18:10 GMT 48.597092 6.378069 32,000 8 396 0
2021-12-07 11:18:07 GMT 48.591019 6.376718 32,000 8 396 0
2021-12-07 11:18:04 GMT 48.588226 6.376085 32,000 8 396 0
2021-12-07 11:18:01 GMT 48.580078 6.374324 32,000 8 395 0
2021-12-07 11:17:58 GMT 48.574951 6.373197 31,975 8 395 64
2021-12-07 11:17:55 GMT 48.570648 6.372211 31,975 8 395 64
2021-12-07 11:17:51 GMT 48.561852 6.370263 31,975 8 395 0
2021-12-07 11:17:48 GMT 48.558964 6.369613 31,975 8 396 0
2021-12-07 11:17:45 GMT 48.552841 6.368267 31,975 8 396 0
2021-12-07 11:17:42 GMT 48.546535 6.366866 31,975 8 396 0
2021-12-07 11:17:39 GMT 48.541973 6.365854 31,975 8 396 0
2021-12-07 11:17:36 GMT 48.536636 6.364676 31,975 8 395 0
2021-12-07 11:17:33 GMT 48.532009 6.363686 31,975 8 395 0
2021-12-07 11:17:30 GMT 48.524277 6.362000 31,975 8 395 0
2021-12-07 11:17:27 GMT 48.520752 6.361225 31,975 8 395 0
2021-12-07 11:17:24 GMT 48.514229 6.359783 31,975 8 395 0
2021-12-07 11:17:21 GMT 48.509811 6.358760 31,975 8 395 0
2021-12-07 11:17:18 GMT 48.504128 6.357542 31,975 8 395 0
2021-12-07 11:17:15 GMT 48.498734 6.356365 32,000 8 395 0
2021-12-07 11:17:12 GMT 48.485550 6.353478 32,000 8 395 0
2021-12-07 11:17:08 GMT 48.485550 6.353478 32,000 8 395 0
2021-12-07 11:17:05 GMT 48.480972 6.352422 31,975 8 395 0
2021-12-07 11:17:02 GMT 48.476429 6.351471 32,000 8 395 0
2021-12-07 11:16:59 GMT 48.468521 6.349675 32,000 8 395 0
2021-12-07 11:16:55 GMT 48.460739 6.347985 32,000 8 395 0
2021-12-07 11:16:52 GMT 48.455566 6.346858 31,975 8 395 0
2021-12-07 11:16:48 GMT 48.450359 6.345689 31,975 8 395 0
2021-12-07 11:16:45 GMT 48.444401 6.344388 31,975 8 395 0
2021-12-07 11:16:42 GMT 48.438721 6.343159 31,975 8 395 0
2021-12-07 11:16:39 GMT 48.432129 6.341717 31,975 8 395 0
2021-12-07 11:16:36 GMT 48.428238 6.340802 32,000 8 395 -64
2021-12-07 11:16:33 GMT 48.422009 6.339473 31,975 8 395 -64
2021-12-07 11:16:29 GMT 48.416473 6.338266 32,000 8 395 0
2021-12-07 11:16:26 GMT 48.409950 6.336798 32,000 8 395 0
2021-12-07 11:16:22 GMT 48.402176 6.335136 32,000 8 396 0
2021-12-07 11:16:19 GMT 48.397289 6.334052 32,000 8 396 0
2021-12-07 11:16:16 GMT 48.391754 6.332843 32,000 8 396 -64
2021-12-07 11:16:13 GMT 48.384811 6.331305 32,000 8 396 -64
2021-12-07 11:16:09 GMT 48.379318 6.330077 32,000 8 396 -64
2021-12-07 11:16:06 GMT 48.374039 6.328900 32,000 8 396 -64
2021-12-07 11:16:03 GMT 48.368565 6.327691 32,000 8 396 -64
2021-12-07 11:15:58 GMT 48.357468 6.325308 32,000 8 396 0
2021-12-07 11:15:55 GMT 48.353760 6.324463 32,000 8 396 0
2021-12-07 11:15:52 GMT 48.347076 6.322984 32,000 8 396 0
2021-12-07 11:15:49 GMT 48.342316 6.321928 32,000 8 396 0
2021-12-07 11:15:46 GMT 48.337608 6.320897 32,000 8 396 0
2021-12-07 11:15:43 GMT 48.331928 6.319668 32,025 8 397 0
2021-12-07 11:15:40 GMT 48.325134 6.318151 32,025 8 396 0
2021-12-07 11:15:36 GMT 48.312836 6.315448 32,000 8 396 0
2021-12-07 11:15:33 GMT 48.312836 6.315448 32,025 8 396 0
2021-12-07 11:15:30 GMT 48.309036 6.314674 32,000 8 397 0
2021-12-07 11:15:27 GMT 48.302696 6.313308 32,000 8 397 0
2021-12-07 11:15:24 GMT 48.297482 6.312151 32,000 8 397 0
2021-12-07 11:15:21 GMT 48.293106 6.311212 32,000 8 397 0
2021-12-07 11:15:18 GMT 48.286743 6.309814 32,000 8 397 0
2021-12-07 11:15:15 GMT 48.280014 6.308336 32,000 8 397 0
2021-12-07 11:15:11 GMT 48.274155 6.307068 32,000 8 397 0
2021-12-07 11:15:08 GMT 48.268620 6.305863 32,000 8 397 0
2021-12-07 11:15:05 GMT 48.263168 6.304673 32,000 8 397 0
2021-12-07 11:15:02 GMT 48.257679 6.303478 32,000 8 397 0
2021-12-07 11:14:59 GMT 48.251907 6.302249 32,000 8 397 0
2021-12-07 11:14:56 GMT 48.240875 6.299814 32,000 8 397 0
2021-12-07 11:14:53 GMT 48.240875 6.299814 32,000 8 397 0
2021-12-07 11:14:50 GMT 48.237244 6.299069 32,000 8 397 0
2021-12-07 11:14:47 GMT 48.230530 6.297560 32,000 8 397 0
2021-12-07 11:14:44 GMT 48.223835 6.296106 32,000 8 397 64
2021-12-07 11:14:41 GMT 48.219692 6.295238 32,000 8 397 0
2021-12-07 11:14:37 GMT 48.213314 6.293793 32,000 8 397 0
2021-12-07 11:14:34 GMT 48.200867 6.291152 32,000 8 397 0
2021-12-07 11:14:31 GMT 48.200867 6.291152 32,000 8 397 0
2021-12-07 11:14:27 GMT 48.194458 6.289743 32,000 8 397 0
2021-12-07 11:14:24 GMT 48.182732 6.287215 32,000 8 397 0
2021-12-07 11:14:21 GMT 48.182732 6.287215 32,000 8 397 0
2021-12-07 11:14:18 GMT 48.176926 6.286011 32,000 8 397 0
2021-12-07 11:14:15 GMT 48.172115 6.284975 32,000 8 397 0
2021-12-07 11:14:12 GMT 48.165390 6.283475 32,000 8 397 0
2021-12-07 11:14:09 GMT 48.161819 6.282701 32,000 8 397 0
2021-12-07 11:14:06 GMT 48.155685 6.281364 32,000 8 397 0
2021-12-07 11:14:03 GMT 48.151169 6.280377 32,000 8 397 0
2021-12-07 11:14:00 GMT 48.145069 6.279109 32,000 8 397 0
2021-12-07 11:13:57 GMT 48.139809 6.277912 32,000 8 397 0
2021-12-07 11:13:54 GMT 48.134216 6.276695 32,000 8 397 0
2021-12-07 11:13:51 GMT 48.128544 6.275517 32,000 8 397 0
2021-12-07 11:13:47 GMT 48.121933 6.274038 32,000 8 397 0
2021-12-07 11:13:44 GMT 48.115509 6.272630 32,000 8 397 0
2021-12-07 11:13:41 GMT 48.112061 6.271889 32,000 8 397 0
2021-12-07 11:13:38 GMT 48.105545 6.270447 32,000 8 397 0
2021-12-07 11:13:34 GMT 48.099106 6.269073 32,000 8 397 0
2021-12-07 11:13:31 GMT 48.093613 6.267906 32,000 8 397 0
2021-12-07 11:13:28 GMT 48.087570 6.266602 32,000 8 397 0
2021-12-07 11:13:25 GMT 48.080826 6.265094 32,000 8 397 0
2021-12-07 11:13:22 GMT 48.074265 6.263686 32,000 8 397 0
2021-12-07 11:13:18 GMT 48.067791 6.262277 32,000 8 397 0
2021-12-07 11:13:15 GMT 48.063183 6.261292 32,000 8 397 0
2021-12-07 11:13:13 GMT 48.059227 6.260446 32,000 8 397 0
2021-12-07 11:13:10 GMT 48.055408 6.259601 32,000 8 397 0
2021-12-07 11:13:07 GMT 48.048985 6.258193 32,000 8 397 0
2021-12-07 11:13:04 GMT 48.043350 6.256989 32,000 8 397 0
2021-12-07 11:13:01 GMT 48.037067 6.255657 32,000 8 397 0
2021-12-07 11:12:57 GMT 48.030972 6.254319 32,000 8 398 0
2021-12-07 11:12:54 GMT 48.025009 6.253052 32,000 8 397 0
2021-12-07 11:12:50 GMT 48.018726 6.251714 32,000 8 397 0
2021-12-07 11:12:47 GMT 48.007462 6.249298 32,000 8 397 0
2021-12-07 11:12:44 GMT 48.007462 6.249298 32,000 8 397 0
2021-12-07 11:12:41 GMT 48.001827 6.248052 32,000 8 397 0
2021-12-07 11:12:37 GMT 47.994331 6.246502 32,000 8 397 0
2021-12-07 11:12:34 GMT 47.989075 6.245305 32,000 8 397 0
2021-12-07 11:12:31 GMT 47.983253 6.244108 32,000 8 397 0
2021-12-07 11:12:28 GMT 47.977661 6.242844 32,000 8 397 0
2021-12-07 11:12:24 GMT 47.965191 6.240164 32,000 8 397 -64
2021-12-07 11:12:21 GMT 47.965191 6.240164 32,000 8 397 0
2021-12-07 11:12:16 GMT 47.951084 6.237136 32,000 8 397 0
2021-12-07 11:12:13 GMT 47.951084 6.237136 32,000 8 397 -64
2021-12-07 11:12:10 GMT 47.945663 6.235977 32,000 8 397 0
2021-12-07 11:12:07 GMT 47.938751 6.234467 32,000 8 397 0
2021-12-07 11:12:03 GMT 47.932838 6.233192 32,000 8 397 0
2021-12-07 11:12:00 GMT 47.926414 6.231783 32,000 8 397 0
2021-12-07 11:11:57 GMT 47.922363 6.230896 32,000 8 397 0
2021-12-07 11:11:54 GMT 47.916641 6.229660 32,000 8 397 0
2021-12-07 11:11:51 GMT 47.909592 6.228149 32,000 8 397 0
2021-12-07 11:11:47 GMT 47.904160 6.226924 32,000 8 398 0
2021-12-07 11:11:43 GMT 47.896408 6.225266 32,000 8 397 0
2021-12-07 11:11:40 GMT 47.891327 6.224167 32,000 8 398 0
2021-12-07 11:11:37 GMT 47.885635 6.222910 32,000 8 398 0
2021-12-07 11:11:34 GMT 47.879700 6.221626 32,000 8 398 0
2021-12-07 11:11:32 GMT 47.874985 6.220596 32,000 8 398 0
2021-12-07 11:11:28 GMT 47.870316 6.219566 32,000 8 398 0
2021-12-07 11:11:25 GMT 47.865005 6.218468 32,000 8 398 0
2021-12-07 11:11:22 GMT 47.859516 6.217276 32,000 8 398 0
2021-12-07 11:11:19 GMT 47.848068 6.214760 32,000 8 398 0
2021-12-07 11:11:16 GMT 47.848068 6.214760 32,000 8 398 0
2021-12-07 11:11:13 GMT 47.835079 6.211994 32,000 8 398 0
2021-12-07 11:11:10 GMT 47.835079 6.211994 32,000 8 398 64
2021-12-07 11:11:06 GMT 47.827675 6.210374 32,000 8 398 64
2021-12-07 11:11:03 GMT 47.824448 6.209679 32,000 8 398 -64
2021-12-07 11:11:01 GMT 47.820648 6.208855 32,000 8 398 0
2021-12-07 11:10:58 GMT 47.815521 6.207756 32,000 8 398 0
2021-12-07 11:10:55 GMT 47.802887 6.205009 32,000 8 398 0
2021-12-07 11:10:52 GMT 47.802887 6.205009 32,000 8 398 0
2021-12-07 11:10:49 GMT 47.798218 6.203979 32,000 8 398 0
2021-12-07 11:10:46 GMT 47.785454 6.201148 32,000 8 398 -64
2021-12-07 11:10:42 GMT 47.785454 6.201148 32,000 8 398 -64
2021-12-07 11:10:39 GMT 47.781143 6.200134 32,000 8 398 -64
2021-12-07 11:10:36 GMT 47.774918 6.198761 32,000 8 397 0
2021-12-07 11:10:33 GMT 47.768097 6.197250 32,000 8 398 -64
2021-12-07 11:10:30 GMT 47.762550 6.196007 32,000 8 398 0
2021-12-07 11:10:25 GMT 47.754410 6.194229 32,000 8 397 0
2021-12-07 11:10:22 GMT 47.748413 6.192856 32,000 8 397 0
2021-12-07 11:10:19 GMT 47.743744 6.191852 32,000 8 397 0
2021-12-07 11:10:16 GMT 47.738342 6.190655 32,000 8 397 0
2021-12-07 11:10:13 GMT 47.732666 6.189354 32,000 8 397 0
2021-12-07 11:10:09 GMT 47.725342 6.187706 32,000 8 397 0
2021-12-07 11:10:04 GMT 47.716183 6.185655 32,000 8 397 0
2021-12-07 11:10:01 GMT 47.712227 6.184810 32,000 8 398 0
2021-12-07 11:09:58 GMT 47.700668 6.182213 32,000 8 398 0
2021-12-07 11:09:55 GMT 47.700668 6.182213 32,000 8 398 0
2021-12-07 11:09:52 GMT 47.695236 6.181007 32,000 8 398 0
2021-12-07 11:09:49 GMT 47.688080 6.179466 32,000 8 398 0
2021-12-07 11:09:45 GMT 47.682175 6.178093 32,000 8 398 0
2021-12-07 11:09:42 GMT 47.676590 6.176857 32,000 8 398 0
2021-12-07 11:09:39 GMT 47.671051 6.175621 32,000 8 398 0
2021-12-07 11:09:35 GMT 47.664276 6.174176 32,000 8 398 0
2021-12-07 11:09:32 GMT 47.652687 6.171570 32,000 8 398 0
2021-12-07 11:09:29 GMT 47.652687 6.171570 32,000 8 398 0
2021-12-07 11:09:26 GMT 47.640015 6.168755 32,000 8 398 0
2021-12-07 11:09:23 GMT 47.640015 6.168755 32,000 8 398 0
2021-12-07 11:09:20 GMT 47.631180 6.166832 32,000 8 398 0
2021-12-07 11:09:17 GMT 47.631180 6.166832 32,000 8 398 0
2021-12-07 11:09:13 GMT 47.623398 6.165115 32,000 8 398 0
2021-12-07 11:09:11 GMT 47.615204 6.163330 32,000 8 399 0
2021-12-07 11:09:08 GMT 47.615204 6.163330 32,000 8 398 0
2021-12-07 11:09:05 GMT 47.608658 6.161888 32,000 8 399 0
2021-12-07 11:09:02 GMT 47.603386 6.160795 32,000 8 399 0
2021-12-07 11:08:59 GMT 47.598038 6.159622 32,000 8 399 0
2021-12-07 11:08:56 GMT 47.594055 6.158730 32,000 8 399 0
2021-12-07 11:08:53 GMT 47.586071 6.156992 32,000 8 399 0
2021-12-07 11:08:50 GMT 47.582253 6.156147 32,000 8 399 0
2021-12-07 11:08:46 GMT 47.572586 6.153992 32,000 8 399 0
2021-12-07 11:08:43 GMT 47.568512 6.153099 32,000 8 398 0
2021-12-07 11:08:41 GMT 47.563797 6.152069 32,000 8 398 0
2021-12-07 11:08:38 GMT 47.558304 6.150902 32,000 8 398 0
2021-12-07 11:08:34 GMT 47.553902 6.149949 32,000 8 398 0
2021-12-07 11:08:31 GMT 47.547043 6.148430 32,000 8 397 0
2021-12-07 11:08:27 GMT 47.540131 6.146988 32,000 8 397 0
2021-12-07 11:08:24 GMT 47.535004 6.145889 32,000 8 397 0
2021-12-07 11:08:21 GMT 47.529091 6.144597 32,000 8 397 0
2021-12-07 11:08:18 GMT 47.521957 6.143074 32,000 8 397 0
2021-12-07 11:08:15 GMT 47.517265 6.142062 32,000 8 397 0
2021-12-07 11:08:12 GMT 47.513260 6.141151 32,000 8 397 0
2021-12-07 11:08:10 GMT 47.509586 6.140371 32,000 8 396 0
2021-12-07 11:08:07 GMT 47.503300 6.139033 32,000 8 396 0
2021-12-07 11:08:04 GMT 47.498226 6.137907 32,000 8 396 0
2021-12-07 11:08:01 GMT 47.493477 6.136850 32,000 8 396 0
2021-12-07 11:07:57 GMT 47.486526 6.135384 32,000 8 396 0
2021-12-07 11:07:54 GMT 47.478241 6.133530 32,000 8 396 0
2021-12-07 11:07:51 GMT 47.473553 6.132554 32,000 8 395 0
2021-12-07 11:07:48 GMT 47.468994 6.131538 32,000 8 395 0
2021-12-07 11:07:44 GMT 47.460796 6.129737 32,000 8 395 0
2021-12-07 11:07:41 GMT 47.457138 6.128998 32,000 8 395 0
2021-12-07 11:07:38 GMT 47.449997 6.127419 32,000 8 395 0
2021-12-07 11:07:35 GMT 47.444641 6.126251 32,000 8 395 0
2021-12-07 11:07:32 GMT 47.440594 6.125371 32,000 8 394 0
2021-12-07 11:07:29 GMT 47.435146 6.124174 32,000 8 394 0
2021-12-07 11:07:26 GMT 47.429096 6.122836 32,000 8 394 0
2021-12-07 11:07:22 GMT 47.422485 6.121427 32,000 8 394 0
2021-12-07 11:07:19 GMT 47.415344 6.119865 32,000 8 394 0
2021-12-07 11:07:15 GMT 47.410660 6.118892 32,000 8 395 64
2021-12-07 11:07:12 GMT 47.398697 6.116286 32,000 8 395 64
2021-12-07 11:07:09 GMT 47.398697 6.116286 32,000 8 396 128
2021-12-07 11:07:06 GMT 47.386002 6.113548 31,975 7 399 704
2021-12-07 11:07:02 GMT 47.386002 6.113548 31,975 8 398 192
2021-12-07 11:07:00 GMT 47.374969 6.111214 31,950 7 400 1664
2021-12-07 11:06:57 GMT 47.374969 6.111214 31,950 8 398 320
2021-12-07 11:06:54 GMT 47.371399 6.110458 31,925 7 399 704
2021-12-07 11:06:51 GMT 47.365368 6.109173 31,900 7 399 1280
2021-12-07 11:06:48 GMT 47.360291 6.108187 31,800 7 399 1472
2021-12-07 11:06:45 GMT 47.355591 6.107201 31,575 7 399 1536
2021-12-07 11:06:42 GMT 47.349304 6.105934 31,775 7 399 1408
2021-12-07 11:06:39 GMT 47.343750 6.104828 31,675 7 400 1728
2021-12-07 11:06:36 GMT 47.332169 6.102562 31,575 7 400 1728
2021-12-07 11:06:33 GMT 47.332169 6.102562 31,475 7 400 1664
2021-12-07 11:06:30 GMT 47.328690 6.101875 31,100 7 401 1600
2021-12-07 11:06:27 GMT 47.321915 6.100571 31,350 7 401 1600
2021-12-07 11:06:24 GMT 47.314529 6.099173 31,250 7 401 1600
2021-12-07 11:06:21 GMT 47.301910 6.096794 31,150 7 401 1472
2021-12-07 11:06:17 GMT 47.301910 6.096794 31,075 7 401 1408
2021-12-07 11:06:12 GMT 47.294235 6.095370 30,975 7 401 1344
2021-12-07 11:06:09 GMT 47.287949 6.094185 30,650 7 401 1280
2021-12-07 11:06:06 GMT 47.284225 6.093468 30,850 7 401 1280
2021-12-07 11:06:03 GMT 47.277969 6.092331 30,775 7 400 1280
2021-12-07 11:06:00 GMT 47.274960 6.091778 30,750 7 400 1280
2021-12-07 11:05:58 GMT 47.269188 6.090722 30,625 6 399 1344
2021-12-07 11:05:54 GMT 47.262627 6.089595 30,550 6 399 1344
2021-12-07 11:05:51 GMT 47.256912 6.088554 30,525 6 399 1344
2021-12-07 11:05:48 GMT 47.249729 6.087271 30,350 6 399 1280
2021-12-07 11:05:44 GMT 47.242996 6.086151 30,375 6 398 1280
2021-12-07 11:05:41 GMT 47.238323 6.085299 30,325 6 398 1280
2021-12-07 11:05:38 GMT 47.231873 6.084229 30,225 6 398 1408
2021-12-07 11:05:35 GMT 47.225510 6.083199 30,175 6 398 1408
2021-12-07 11:05:31 GMT 47.220154 6.082306 30,100 6 398 1408
2021-12-07 11:05:27 GMT 47.211914 6.081001 29,975 6 398 1472
2021-12-07 11:05:24 GMT 47.206669 6.080158 29,900 5 398 1472
2021-12-07 11:05:21 GMT 47.201157 6.079353 29,850 5 398 1536
2021-12-07 11:05:19 GMT 47.198547 6.078941 29,725 5 397 1600
2021-12-07 11:05:14 GMT 47.188889 6.077568 29,600 5 397 1728
2021-12-07 11:05:11 GMT 47.183167 6.076744 29,575 5 397 1728
2021-12-07 11:05:09 GMT 47.179459 6.076263 29,525 5 397 1728
2021-12-07 11:05:05 GMT 47.172134 6.075302 29,400 5 398 1728
2021-12-07 11:05:02 GMT 47.159279 6.073468 29,250 5 399 1664
2021-12-07 11:04:59 GMT 47.155090 6.072834 29,225 5 400 1600
2021-12-07 11:04:56 GMT 47.155090 6.072834 29,150 6 401 1600
2021-12-07 11:04:53 GMT 47.150528 6.072059 29,025 8 404 1600
2021-12-07 11:04:50 GMT 47.144985 6.071073 28,800 9 406 1344
2021-12-07 11:04:47 GMT 47.137482 6.069534 28,800 9 405 1536
2021-12-07 11:04:44 GMT 47.132538 6.068436 28,800 9 405 1536
2021-12-07 11:04:41 GMT 47.127811 6.067270 28,750 9 405 1408
2021-12-07 11:04:39 GMT 47.123932 6.066307 28,700 10 405 1216
2021-12-07 11:04:35 GMT 47.116745 6.064453 28,525 9 403 1280
2021-12-07 11:04:31 GMT 47.107002 6.061988 28,500 9 403 1216
2021-12-07 11:04:27 GMT 47.101601 6.060580 28,500 9 403 1216
2021-12-07 11:04:24 GMT 47.094635 6.058823 28,400 9 403 1280
2021-12-07 11:04:21 GMT 47.090927 6.057861 28,350 9 402 1280
2021-12-07 11:04:18 GMT 47.085434 6.056488 28,275 9 402 1344
2021-12-07 11:04:15 GMT 47.079895 6.055046 28,125 9 401 1408
2021-12-07 11:04:12 GMT 47.074879 6.053819 28,100 9 401 1344
2021-12-07 11:04:09 GMT 47.068817 6.052299 28,075 9 401 1344
2021-12-07 11:04:05 GMT 47.061676 6.050583 27,950 9 400 1600
2021-12-07 11:04:02 GMT 47.056351 6.049241 27,850 9 400 1600
2021-12-07 11:03:59 GMT 47.050301 6.047762 27,825 9 400 1600
2021-12-07 11:03:53 GMT 47.040024 6.045296 27,675 9 400 1536
2021-12-07 11:03:50 GMT 47.027164 6.042269 27,500 9 400 1536
2021-12-07 11:03:43 GMT 47.020844 6.040764 27,400 9 399 1536
2021-12-07 11:03:40 GMT 47.016270 6.039663 27,350 9 399 1600
2021-12-07 11:03:37 GMT 47.011414 6.038567 27,225 8 398 1600
2021-12-07 11:03:33 GMT 47.002678 6.036565 27,150 8 397 1664
2021-12-07 11:03:30 GMT 46.998257 6.035579 27,025 8 397 1600
2021-12-07 11:03:27 GMT 46.992783 6.034378 27,025 8 397 1600
2021-12-07 11:03:24 GMT 46.988113 6.033348 26,875 8 397 1600
2021-12-07 11:03:21 GMT 46.981567 6.031906 26,775 8 395 1472
2021-12-07 11:03:17 GMT 46.972885 6.030086 26,700 8 395 1408
2021-12-07 11:03:12 GMT 46.966187 6.028679 26,625 8 394 1408
2021-12-07 11:03:09 GMT 46.958908 6.027168 26,525 7 394 1536
2021-12-07 11:03:06 GMT 46.955101 6.026424 26,450 7 393 2048
2021-12-07 11:03:03 GMT 46.948814 6.025156 26,300 7 393 2048
2021-12-07 11:03:00 GMT 46.943802 6.024216 26,275 7 393 2176
2021-12-07 11:02:57 GMT 46.939274 6.023254 26,050 7 394 2432
2021-12-07 11:02:54 GMT 46.933685 6.022198 26,050 7 395 2752
2021-12-07 11:02:51 GMT 46.926796 6.020860 25,825 7 396 2816
2021-12-07 11:02:48 GMT 46.921509 6.019821 25,750 7 397 2816
2021-12-07 11:02:43 GMT 46.913910 6.018448 25,550 7 399 2496
2021-12-07 11:02:40 GMT 46.907200 6.017127 25,400 7 399 2112
2021-12-07 11:02:38 GMT 46.903564 6.016457 25,325 6 396 1664
2021-12-07 11:02:35 GMT 46.897568 6.015358 25,100 7 398 1728
2021-12-07 11:02:30 GMT 46.888996 6.013747 25,050 7 399 1664
2021-12-07 11:02:27 GMT 46.884155 6.012886 25,050 7 399 1664
2021-12-07 11:02:23 GMT 46.877171 6.011634 24,875 6 397 1728
2021-12-07 11:02:19 GMT 46.869873 6.010345 24,825 6 397 1728
2021-12-07 11:02:17 GMT 46.865753 6.009588 24,750 6 396 1664
2021-12-07 11:02:09 GMT 46.851059 6.006976 24,550 6 395 1664
2021-12-07 11:02:06 GMT 46.843746 6.005676 24,425 6 394 1600
2021-12-07 11:02:02 GMT 46.836548 6.004430 24,325 6 393 1536
2021-12-07 11:01:58 GMT 46.831833 6.003548 24,150 6 392 1280
2021-12-07 11:01:54 GMT 46.822769 6.001952 23,975 6 389 256
2021-12-07 11:01:50 GMT 46.815903 6.000813 24,075 6 390 1088
2021-12-07 11:01:48 GMT 46.812286 6.000143 24,025 6 389 192
2021-12-07 11:01:44 GMT 46.806610 5.999205 23,975 6 389 320
2021-12-07 11:01:40 GMT 46.797291 5.997711 23,975 6 389 192
2021-12-07 11:01:37 GMT 46.793377 5.997093 23,975 6 389 320
2021-12-07 11:01:34 GMT 46.788254 5.996258 23,950 6 389 320
2021-12-07 11:01:31 GMT 46.780670 5.995102 23,925 6 389 512
2021-12-07 11:01:28 GMT 46.776993 5.994553 23,900 6 389 960
2021-12-07 11:01:25 GMT 46.770519 5.993523 23,800 6 389 1088
2021-12-07 11:01:18 GMT 46.758682 5.991702 23,675 6 390 1664
2021-12-07 11:01:14 GMT 46.751202 5.990501 23,600 6 390 1856
2021-12-07 11:01:11 GMT 46.746643 5.989759 23,525 6 390 2240
2021-12-07 11:01:08 GMT 46.741104 5.988889 23,225 6 390 2240
2021-12-07 11:01:03 GMT 46.732067 5.987480 23,225 6 390 2176
2021-12-07 11:01:00 GMT 46.726044 5.986544 23,050 6 390 2112
2021-12-07 11:00:57 GMT 46.722565 5.986008 23,025 6 390 2048
2021-12-07 11:00:54 GMT 46.716473 5.985077 22,925 6 390 1920
2021-12-07 11:00:51 GMT 46.711304 5.984266 22,825 6 389 1856
2021-12-07 11:00:48 GMT 46.704884 5.983292 22,725 6 389 1792
2021-12-07 11:00:44 GMT 46.698303 5.982257 22,625 6 388 1728
2021-12-07 11:00:40 GMT 46.690018 5.980984 22,400 6 386 1728
2021-12-07 11:00:37 GMT 46.685143 5.980202 22,350 6 381 1792
2021-12-07 11:00:32 GMT 46.669876 5.977867 22,250 6 384 1728
2021-12-07 11:00:29 GMT 46.669876 5.977867 22,150 6 383 1728
2021-12-07 11:00:26 GMT 46.666718 5.977366 22,100 5 383 1728
2021-12-07 11:00:22 GMT 46.658562 5.976151 21,975 6 381 1728
2021-12-07 11:00:19 GMT 46.653255 5.975327 21,875 6 380 1856
2021-12-07 11:00:16 GMT 46.649532 5.974709 21,825 6 380 1984
2021-12-07 11:00:12 GMT 46.640625 5.973347 21,625 6 379 2240
2021-12-07 11:00:07 GMT 46.633053 5.972237 21,425 6 379 2368
2021-12-07 11:00:04 GMT 46.627934 5.971413 21,250 6 379 2240
2021-12-07 11:00:01 GMT 46.621925 5.970520 21,225 6 379 2240
2021-12-07 10:59:58 GMT 46.616528 5.969696 21,125 6 378 2240
2021-12-07 10:59:54 GMT 46.610104 5.968666 20,850 6 378 2368
2021-12-07 10:59:51 GMT 46.604965 5.967854 20,850 6 378 2368
2021-12-07 10:59:47 GMT 46.598969 5.966983 20,725 6 378 2496
2021-12-07 10:59:44 GMT 46.592552 5.965919 20,400 6 378 2432
2021-12-07 10:59:40 GMT 46.586269 5.964958 20,425 6 378 2432
2021-12-07 10:59:37 GMT 46.580311 5.964066 20,275 6 377 2240
2021-12-07 10:59:33 GMT 46.573975 5.963098 20,150 5 376 2112
2021-12-07 10:59:30 GMT 46.568623 5.962280 20,050 5 375 2048
2021-12-07 10:59:25 GMT 46.560013 5.960976 19,875 5 374 1984
2021-12-07 10:59:21 GMT 46.551178 5.959614 19,700 6 372 1984
2021-12-07 10:59:16 GMT 46.544952 5.958676 19,575 6 371 2048
2021-12-07 10:59:13 GMT 46.539158 5.957817 19,425 6 370 2240
2021-12-07 10:59:10 GMT 46.534176 5.957062 19,350 6 370 2304
2021-12-07 10:59:07 GMT 46.529148 5.956306 19,200 6 369 2368
2021-12-07 10:59:04 GMT 46.523235 5.955345 19,025 6 369 2432
2021-12-07 10:59:00 GMT 46.517464 5.954453 18,975 6 369 2368
2021-12-07 10:58:56 GMT 46.510666 5.953451 18,800 6 368 2304
2021-12-07 10:58:53 GMT 46.505447 5.952647 18,425 6 367 2240
2021-12-07 10:58:50 GMT 46.500473 5.951843 18,575 6 367 2240
2021-12-07 10:58:46 GMT 46.493584 5.950813 18,425 6 366 2240
2021-12-07 10:58:43 GMT 46.488419 5.950035 18,225 5 364 2240
2021-12-07 10:58:40 GMT 46.482967 5.949165 18,200 5 363 2176
2021-12-07 10:58:36 GMT 46.476543 5.948204 18,050 6 362 1920
2021-12-07 10:58:33 GMT 46.470154 5.947221 17,950 5 361 1728
2021-12-07 10:58:29 GMT 46.465137 5.946487 17,875 5 358 1728
2021-12-07 10:58:26 GMT 46.455048 5.944943 17,750 5 357 1728
2021-12-07 10:58:23 GMT 46.455048 5.944943 17,675 5 356 1920
2021-12-07 10:58:20 GMT 46.449417 5.944139 17,575 5 355 2112
2021-12-07 10:58:15 GMT 46.442234 5.943054 17,400 5 354 2496
2021-12-07 10:58:12 GMT 46.437489 5.942299 17,275 6 353 2816
2021-12-07 10:58:09 GMT 46.431992 5.941475 17,100 6 354 2944
2021-12-07 10:58:05 GMT 46.425842 5.940522 16,925 5 354 2816
2021-12-07 10:58:02 GMT 46.420403 5.939690 16,700 6 353 2688
2021-12-07 10:57:59 GMT 46.416229 5.939048 16,650 6 353 2688
2021-12-07 10:57:55 GMT 46.409786 5.938042 16,475 6 352 2688
2021-12-07 10:57:51 GMT 46.403595 5.937106 16,250 6 352 2752
2021-12-07 10:57:48 GMT 46.398010 5.936235 16,150 6 352 2752
2021-12-07 10:57:45 GMT 46.393169 5.935501 16,025 6 351 2752
2021-12-07 10:57:42 GMT 46.388420 5.934814 15,825 6 351 2880
2021-12-07 10:57:38 GMT 46.382858 5.933957 15,725 6 352 3008
2021-12-07 10:57:35 GMT 46.376968 5.933029 15,525 6 352 3008
2021-12-07 10:57:31 GMT 46.371521 5.932205 15,350 6 352 3072
2021-12-07 10:57:28 GMT 46.366634 5.931381 15,200 6 351 3008
2021-12-07 10:57:22 GMT 46.356216 5.929737 14,900 6 350 2368
2021-12-07 10:57:19 GMT 46.350174 5.928799 14,775 6 348 2112
2021-12-07 10:57:14 GMT 46.343903 5.927794 14,650 6 347 1856
2021-12-07 10:57:10 GMT 46.335480 5.926521 14,500 6 342 1408
2021-12-07 10:57:07 GMT 46.332512 5.926025 14,450 6 342 1408
2021-12-07 10:57:04 GMT 46.327103 5.925181 14,375 6 337 1152
2021-12-07 10:57:00 GMT 46.317150 5.923622 14,275 6 330 1152
2021-12-07 10:56:57 GMT 46.317150 5.923622 14,250 6 329 1152
2021-12-07 10:56:54 GMT 46.312168 5.922867 14,200 6 326 1152
2021-12-07 10:56:48 GMT 46.303162 5.921430 14,075 5 318 1088
2021-12-07 10:56:44 GMT 46.297211 5.920559 14,000 6 314 1088
2021-12-07 10:56:39 GMT 46.289886 5.919420 13,875 5 306 1024
2021-12-07 10:56:35 GMT 46.284485 5.918616 13,825 5 301 960
2021-12-07 10:56:32 GMT 46.280048 5.917992 13,800 5 298 1024
2021-12-07 10:56:28 GMT 46.273956 5.917076 13,725 5 292 1024
2021-12-07 10:56:24 GMT 46.269196 5.916406 13,650 5 288 1024
2021-12-07 10:56:20 GMT 46.263802 5.915588 13,550 5 280 1088
2021-12-07 10:56:17 GMT 46.259857 5.915066 13,525 5 279 1088
2021-12-07 10:56:14 GMT 46.255966 5.914463 13,475 5 275 1152
2021-12-07 10:56:10 GMT 46.250858 5.913734 13,300 5 260 1152
2021-12-07 10:56:07 GMT 46.247314 5.913257 13,300 5 260 1152
2021-12-07 10:56:03 GMT 46.243011 5.912654 13,250 5 261 1152
2021-12-07 10:55:59 GMT 46.237545 5.911880 13,125 5 251 1152
2021-12-07 10:55:56 GMT 46.233994 5.911381 13,075 5 249 1152
2021-12-07 10:55:53 GMT 46.231075 5.910919 13,075 5 248 1216
2021-12-07 10:55:50 GMT 46.227951 5.910511 13,025 5 245 1216
2021-12-07 10:55:47 GMT 46.222836 5.909752 12,925 5 239 1280
2021-12-07 10:55:43 GMT 46.219940 5.909305 12,875 6 234 1344
2021-12-07 10:55:39 GMT 46.212315 5.908035 12,725 6 227 1408
2021-12-07 10:55:36 GMT 46.212315 5.908035 12,700 6 225 1472
2021-12-07 10:55:33 GMT 46.209183 5.907496 12,625 6 221 1856
2021-12-07 10:55:29 GMT 46.205143 5.906731 12,450 6 217 2496
2021-12-07 10:55:26 GMT 46.202259 5.906181 11,850 355 210 2624
2021-12-07 10:55:23 GMT 46.198769 5.905632 12,200 4 215 2880
2021-12-07 10:55:19 GMT 46.195087 5.905289 11,975 358 212 2688
2021-12-07 10:55:16 GMT 46.191830 5.905220 11,825 351 208 2624
2021-12-07 10:55:13 GMT 46.188992 5.905563 11,750 351 208 2624
2021-12-07 10:55:09 GMT 46.185173 5.906456 11,475 346 206 2560
2021-12-07 10:55:05 GMT 46.181961 5.907692 11,425 341 204 2752
2021-12-07 10:55:02 GMT 46.179382 5.908836 11,300 340 203 2880
2021-12-07 10:54:59 GMT 46.176636 5.910377 11,150 339 202 3072
2021-12-07 10:54:56 GMT 46.173534 5.912086 10,950 338 203 3392
2021-12-07 10:54:52 GMT 46.170418 5.913940 10,550 305 201 2752
2021-12-07 10:54:48 GMT 46.166428 5.916674 10,500 328 203 3072
2021-12-07 10:54:45 GMT 46.164825 5.918080 10,375 325 203 3072
2021-12-07 10:54:42 GMT 46.162270 5.920738 10,225 319 202 3008
2021-12-07 10:54:38 GMT 46.159378 5.924511 9,975 308 201 2752
2021-12-07 10:54:35 GMT 46.157776 5.927191 9,900 307 201 2752
2021-12-07 10:54:32 GMT 46.155846 5.930901 9,725 300 200 2816
2021-12-07 10:54:29 GMT 46.154076 5.935364 9,550 294 200 3264
2021-12-07 10:54:26 GMT 46.153107 5.938311 9,400 287 203 4096
2021-12-07 10:54:21 GMT 46.151779 5.943202 9,150 286 204 4288
2021-12-07 10:54:18 GMT 46.150818 5.947998 8,750 280 208 4608
2021-12-07 10:54:14 GMT 46.150024 5.954521 8,500 274 215 4224
2021-12-07 10:54:11 GMT 46.149811 5.957805 8,350 266 219 3328
2021-12-07 10:54:08 GMT 46.149765 5.961892 8,100 266 219 3392
2021-12-07 10:54:05 GMT 46.149979 5.966263 8,025 262 221 3008
2021-12-07 10:54:01 GMT 46.150585 5.971207 7,875 255 220 2560
2021-12-07 10:53:58 GMT 46.151562 5.976151 7,650 245 219 2432
2021-12-07 10:53:55 GMT 46.152740 5.980247 7,600 238 217 2432
2021-12-07 10:53:51 GMT 46.154869 5.985489 7,450 235 216 2560
2021-12-07 10:53:45 GMT 46.158546 5.992012 7,175 227 212 3136
2021-12-07 10:53:41 GMT 46.161339 5.996201 6,950 227 212 3392
2021-12-07 10:53:36 GMT 46.164597 6.001081 6,525 227 212 3392
2021-12-07 10:53:31 GMT 46.167671 6.005676 6,400 227 211 3328
2021-12-07 10:53:28 GMT 46.170364 6.009722 6,175 227 210 3392
2021-12-07 10:53:25 GMT 46.172279 6.012680 6,025 227 210 3456
2021-12-07 10:53:20 GMT 46.175079 6.016756 5,775 227 210 3328
2021-12-07 10:53:15 GMT 46.178982 6.022705 5,475 227 207 2368
2021-12-07 10:53:11 GMT 46.181305 6.026135 5,375 226 205 1792
2021-12-07 10:53:06 GMT 46.184875 6.031561 5,300 227 192 1024
2021-12-07 10:53:03 GMT 46.187035 6.034790 5,225 227 186 1344
2021-12-07 10:53:00 GMT 46.187965 6.036163 5,200 227 186 1344
2021-12-07 10:52:55 GMT 46.192154 6.042547 5,025 227 176 1472
2021-12-07 10:52:50 GMT 46.193832 6.045090 4,950 227 173 1472
2021-12-07 10:52:46 GMT 46.196625 6.049278 4,825 227 166 1408
2021-12-07 10:52:43 GMT 46.197697 6.050858 4,775 227 163 1408
2021-12-07 10:52:40 GMT 46.199158 6.053132 4,725 227 157 1408
2021-12-07 10:52:37 GMT 46.201035 6.055945 4,650 227 154 1472
2021-12-07 10:52:34 GMT 46.202362 6.057955 4,575 227 152 1536
2021-12-07 10:52:30 GMT 46.204308 6.060883 4,475 227 147 2048
2021-12-07 10:52:26 GMT 46.206028 6.063423 4,325 227 147 2368
2021-12-07 10:52:23 GMT 46.207443 6.065592 4,050 224 142 2624
2021-12-07 10:52:20 GMT 46.209229 6.068272 4,075 226 146 2304
2021-12-07 10:52:15 GMT 46.211472 6.071621 3,725 226 145 2368
2021-12-07 10:52:10 GMT 46.213898 6.075171 3,675 226 144 2368
2021-12-07 10:52:04 GMT 46.217155 6.079903 3,400 225 143 2368
2021-12-07 10:52:00 GMT 46.218658 6.082071 3,275 225 142 2432
2021-12-07 10:51:57 GMT 46.220181 6.084229 3,150 225 142 2496
2021-12-07 10:51:54 GMT 46.221252 6.085670 3,050 224 142 2560
2021-12-07 10:51:49 GMT 46.223534 6.088829 2,825 224 143 2944
2021-12-07 10:51:44 GMT 46.226074 6.092388 2,550 224 146 3328
2021-12-07 10:51:37 GMT 46.229965 6.097680 2,125 224 152 2944
2021-12-07 10:51:32 GMT 46.232285 6.100845 1,900 224 152 2304
2021-12-07 10:51:29 GMT 46.233490 6.102570 1,800 225 152 2112
2021-12-07 10:51:23 GMT 46.236938 6.107437 1,575 225 149 2112
2021-12-07 10:51:19 GMT 46.238708 6.109978 1,425 225 149 2240
2021-12-07 10:51:09 GMT 46.243408 6.116776 1,325 226 125 64
2021-12-07 10:50:59 GMT 46.246948 6.121994 0 225 86
2021-12-07 10:50:48 GMT 46.249207 6.125324 0 225 30
2021-12-07 10:50:39 GMT 46.249870 6.126286 0 247 14
2021-12-07 10:50:29 GMT 46.249866 6.127156 0 323 15
2021-12-07 10:50:18 GMT 46.249111 6.127195 0 16 20
2021-12-07 10:50:08 GMT 46.248253 6.126818 0 16 21
2021-12-07 10:49:58 GMT 46.247429 6.126050 0 45 22
2021-12-07 10:49:48 GMT 46.246750 6.125050 0 45 21
2021-12-07 10:49:38 GMT 46.246101 6.124091 0 45 20
2021-12-07 10:49:27 GMT 46.245449 6.123119 0 45 21
2021-12-07 10:49:17 GMT 46.244785 6.122148 0 45 21
2021-12-07 10:49:07 GMT 46.244076 6.121127 0 45 22
2021-12-07 10:48:57 GMT 46.243385 6.120106 0 45 23
2021-12-07 10:48:47 GMT 46.242641 6.119007 0 45 23
2021-12-07 10:48:37 GMT 46.241920 6.117943 0 45 21
2021-12-07 10:48:27 GMT 46.241261 6.116990 0 45 19
2021-12-07 10:48:17 GMT 46.240677 6.116136 0 45 19
2021-12-07 10:48:06 GMT 46.239990 6.115131 0 45 22
2021-12-07 10:47:56 GMT 46.239315 6.114143 0 45 19
2021-12-07 10:47:46 GMT 46.238743 6.113291 0 45 17
2021-12-07 10:47:36 GMT 46.238209 6.112501 0 45 15
2021-12-07 10:47:25 GMT 46.237690 6.111748 0 45 14
2021-12-07 10:47:16 GMT 46.237324 6.111197 0 45 12
2021-12-07 10:47:06 GMT 46.236923 6.110676 0 357 11
2021-12-07 10:46:56 GMT 46.236523 6.110944 0 315 12
2021-12-07 10:46:45 GMT 46.236168 6.111480 0 323 9
2021-12-07 10:46:35 GMT 46.235836 6.111714 0 30 9
2021-12-07 10:46:25 GMT 46.235493 6.111279 0 45 13
2021-12-07 10:46:15 GMT 46.235046 6.110643 0 45 13
2021-12-07 10:46:05 GMT 46.234646 6.110046 0 45 11
2021-12-07 10:45:55 GMT 46.234314 6.109571 0 45 10
2021-12-07 10:45:44 GMT 46.234032 6.109154 0 50 7
2021-12-07 10:45:35 GMT 46.233833 6.108793 0 118 7
2021-12-07 10:45:24 GMT 46.234039 6.108415 0 135 6
2021-12-07 10:45:13 GMT 46.234200 6.108214 0 135 0
2021-12-07 10:45:03 GMT 46.234203 6.108192 0 135 0
2021-12-07 10:44:53 GMT 46.234200 6.108197 0 135 0
2021-12-07 10:44:43 GMT 46.234203 6.108192 0 135 0
2021-12-07 10:44:29 GMT 46.234200 6.108197 0 135 0
2021-12-07 10:44:19 GMT 46.234203 6.108192 0 135 0
2021-12-07 10:43:59 GMT 46.234200 6.108197 0 135 0
2021-12-07 10:43:49 GMT 46.234203 6.108192 0 135 0
2021-12-07 10:43:39 GMT 46.234200 6.108197 0 135 0
2021-12-07 10:43:23 GMT 46.234203 6.108192 0 135 0
2021-12-07 10:43:18 GMT 46.234200 6.108197 0 135 0
2021-12-07 10:43:08 GMT 46.234203 6.108192 0 135 0
2021-12-07 10:42:28 GMT 46.234200 6.108197 0 135 0
2021-12-07 10:41:58 GMT 46.234203 6.108192 0 135 0
2021-12-07 10:41:48 GMT 46.234200 6.108197 0 135 0
2021-12-07 10:40:58 GMT 46.234203 6.108192 0 135 0
2021-12-07 10:40:38 GMT 46.234200 6.108197 0 135 0
2021-12-07 10:40:18 GMT 46.234203 6.108192 0 135 0
2021-12-07 10:39:48 GMT 46.234200 6.108197 0 135 0
2021-12-07 10:39:38 GMT 46.234203 6.108210 0 135 0
2021-12-07 10:39:29 GMT 46.234200 6.108197 0 135 0
2021-12-07 10:39:19 GMT 46.234203 6.108210 0 135 0
2021-12-07 10:38:54 GMT 46.234200 6.108197 0 135 0
2021-12-07 10:38:34 GMT 46.234203 6.108192 0 135 0
2021-12-07 10:38:24 GMT 46.234200 6.108197 0 135 0
2021-12-07 10:38:04 GMT 46.234203 6.108192 0 135 0
2021-12-07 10:37:54 GMT 46.234200 6.108197 0 135 0
We lost coverage of the aircraft here for a total of 86 minutes
2021-12-07 09:11:56 GMT 46.234200 6.108197 0 135 0 0
2021-12-07 09:11:46 GMT 46.234203 6.108192 0 135 2 0
2021-12-07 09:11:36 GMT 46.234299 6.108055 0 135 6 0
2021-12-07 09:11:25 GMT 46.234497 6.107780 0 137 5 0
2021-12-07 09:11:16 GMT 46.234623 6.107523 0 177 6 0
2021-12-07 09:11:05 GMT 46.234940 6.107695 0 225 13 0
2021-12-07 09:10:55 GMT 46.235321 6.108261 0 225 13 0
2021-12-07 09:10:45 GMT 46.235733 6.108851 0 225 12 0
2021-12-07 09:10:35 GMT 46.236126 6.109428 0 225 12 0
2021-12-07 09:10:25 GMT 46.236477 6.109956 0 225 11 0
2021-12-07 09:10:15 GMT 46.236835 6.110476 0 225 11 0
2021-12-07 09:10:05 GMT 46.237206 6.110870 0 188 10 0
2021-12-07 09:09:54 GMT 46.237625 6.110888 0 171 8 0
2021-12-07 09:09:44 GMT 46.238091 6.110760 0 168 16 0
2021-12-07 09:09:34 GMT 46.238964 6.110733 0 196 21 0
2021-12-07 09:09:24 GMT 46.239826 6.111540 0 225 32 0
2021-12-07 09:09:14 GMT 46.241032 6.113305 0 225 55 0
2021-12-07 09:09:03 GMT 46.243538 6.116982 0 225 98 0
2021-12-07 09:08:53 GMT 46.246857 6.121863 1,225 226 128 -64
2021-12-07 09:08:43 GMT 46.251183 6.128242 1,325 226 128 -704
2021-12-07 09:08:33 GMT 46.255417 6.134457 1,450 226 127 -640
2021-12-07 09:08:23 GMT 46.259563 6.140465 1,550 226 127 -704
2021-12-07 09:08:17 GMT 46.261917 6.143970 1,625 227 126 -704
2021-12-07 09:08:13 GMT 46.263657 6.146650 1,675 226 126 -704
2021-12-07 09:08:06 GMT 46.266640 6.151039 1,775 225 127 -640
2021-12-07 09:08:03 GMT 46.267849 6.152756 1,800 225 127 -640
2021-12-07 09:07:58 GMT 46.270203 6.156162 1,875 226 130 -576
2021-12-07 09:07:52 GMT 46.272133 6.159004 1,925 226 130 -704
2021-12-07 09:07:47 GMT 46.274506 6.162506 2,075 226 132 -704
2021-12-07 09:07:43 GMT 46.276321 6.165253 2,025 225 132 -704
2021-12-07 09:07:36 GMT 46.278992 6.169091 2,125 226 134 -768
2021-12-07 09:07:32 GMT 46.280884 6.171913 2,175 226 135 -832
2021-12-07 09:07:26 GMT 46.283478 6.175723 2,250 226 138 -832
2021-12-07 09:07:22 GMT 46.285172 6.178269 2,300 226 143 -640
2021-12-07 09:07:15 GMT 46.288925 6.183762 2,400 226 152 -832
2021-12-07 09:07:12 GMT 46.290115 6.185504 2,425 226 152 -768
2021-12-07 09:07:05 GMT 46.293365 6.190260 2,550 226 158 -960
2021-12-07 09:07:02 GMT 46.295105 6.192806 2,575 226 159 -960
2021-12-07 09:06:56 GMT 46.298767 6.198165 2,675 226 164 -896
2021-12-07 09:06:52 GMT 46.300484 6.200752 2,725 226 167 -832
2021-12-07 09:06:47 GMT 46.303463 6.205147 2,800 226 171 -1216
2021-12-07 09:06:41 GMT 46.306183 6.209151 2,900 226 172 -1152
2021-12-07 09:06:36 GMT 46.309048 6.213387 3,025 226 172 -1088
2021-12-07 09:06:31 GMT 46.311749 6.217300 3,100 226 172 -960
2021-12-07 09:06:21 GMT 46.317307 6.225564 3,225 226 176 -896
2021-12-07 09:06:15 GMT 46.320965 6.231033 3,325 226 181 -1472
2021-12-07 09:06:11 GMT 46.323296 6.234467 3,450 226 183 -1984
2021-12-07 09:06:05 GMT 46.326782 6.239631 3,650 226 185 -2048
2021-12-07 09:06:01 GMT 46.329163 6.243115 3,800 226 186 -2048
2021-12-07 09:05:57 GMT 46.331951 6.247238 3,950 226 185 -1984
2021-12-07 09:05:51 GMT 46.335388 6.252226 4,150 226 184 -1792
2021-12-07 09:05:45 GMT 46.338795 6.257263 4,325 226 183 -1856
2021-12-07 09:05:41 GMT 46.341385 6.261135 4,475 226 183 -2304
2021-12-07 09:05:36 GMT 46.344894 6.266258 4,675 226 185 -1792
2021-12-07 09:05:31 GMT 46.347408 6.269966 4,800 226 190 -1344
2021-12-07 09:05:28 GMT 46.349304 6.272724 4,875 226 193 -1152
2021-12-07 09:05:24 GMT 46.351643 6.276215 4,925 227 197 -1088
2021-12-07 09:05:20 GMT 46.353924 6.279579 4,975 226 204 -1024
2021-12-07 09:05:15 GMT 46.357838 6.285484 5,050 227 215 -768
2021-12-07 09:05:12 GMT 46.359924 6.288601 5,125 227 220 -1472
2021-12-07 09:05:08 GMT 46.362671 6.292754 5,175 227 222 -1600
2021-12-07 09:05:05 GMT 46.364773 6.295921 5,300 226 228 -1280
2021-12-07 09:05:01 GMT 46.367004 6.299286 5,350 226 224 -1536
2021-12-07 09:04:58 GMT 46.369949 6.303607 5,450 226 226 -1344
2021-12-07 09:04:55 GMT 46.372082 6.306839 5,500 225 229 -1344
2021-12-07 09:04:50 GMT 46.375305 6.311445 5,600 223 230 -1728
2021-12-07 09:04:47 GMT 46.377621 6.314529 5,700 220 230 -2112
2021-12-07 09:04:44 GMT 46.380322 6.317619 5,825 215 231 -2304
2021-12-07 09:04:40 GMT 46.384048 6.321158 6,000 208 231 -2304
2021-12-07 09:04:37 GMT 46.387115 6.323369 6,100 200 231 -2048
2021-12-07 09:04:34 GMT 46.389633 6.324575 6,175 192 232 -1728
2021-12-07 09:04:30 GMT 46.394379 6.325859 6,300 184 235 -1600
2021-12-07 09:04:24 GMT 46.400391 6.325981 6,500 179 238 -1664
2021-12-07 09:04:21 GMT 46.403824 6.325981 6,575 179 240 -1472
2021-12-07 09:04:18 GMT 46.408585 6.325914 6,650 179 241 -1280
2021-12-07 09:04:14 GMT 46.412441 6.325859 6,725 179 244 -1088
2021-12-07 09:04:10 GMT 46.416550 6.325847 6,775 179 248 -896
2021-12-07 09:04:04 GMT 46.422962 6.325790 6,950 179 260 -1088
2021-12-07 09:04:01 GMT 46.428036 6.325722 6,925 179 258 -1024
2021-12-07 09:03:57 GMT 46.432022 6.325713 6,975 179 264 -1408
2021-12-07 09:03:54 GMT 46.435410 6.325646 7,025 179 263 -1280
2021-12-07 09:03:50 GMT 46.440094 6.325584 7,250 179 266 -2176
2021-12-07 09:03:47 GMT 46.444145 6.325516 7,225 178 266 -2240
2021-12-07 09:03:44 GMT 46.447769 6.325445 7,325 178 267 -2304
2021-12-07 09:03:40 GMT 46.456192 6.325177 7,575 178 269 -2112
2021-12-07 09:03:37 GMT 46.456192 6.325177 7,600 178 271 -2176
2021-12-07 09:03:32 GMT 46.463184 6.324898 7,875 178 272 -2368
2021-12-07 09:03:28 GMT 46.467178 6.324776 7,900 178 272 -2304
2021-12-07 09:03:23 GMT 46.473175 6.324575 8,100 178 273 -2368
2021-12-07 09:03:19 GMT 46.479290 6.324348 8,275 178 275 -1920
2021-12-07 09:03:09 GMT 46.491161 6.324005 8,500 178 285 -1024
2021-12-07 09:03:06 GMT 46.494884 6.323868 8,525 178 286 -1216
2021-12-07 09:02:59 GMT 46.505501 6.323593 8,750 178 293 -1344
2021-12-07 09:02:51 GMT 46.516205 6.323235 8,875 178 307 -896
2021-12-07 09:02:48 GMT 46.519226 6.323168 8,875 178 307 -896
2021-12-07 09:02:45 GMT 46.524166 6.322975 8,925 178 314 -960
2021-12-07 09:02:39 GMT 46.534550 6.322701 9,025 179 321 -832
2021-12-07 09:02:36 GMT 46.537537 6.322632 9,050 179 324 -768
2021-12-07 09:02:29 GMT 46.547974 6.322431 9,150 179 336 -896
2021-12-07 09:02:26 GMT 46.552704 6.322357 9,200 179 341 -960
2021-12-07 09:02:21 GMT 46.561874 6.322220 9,275 179 350 -1088
2021-12-07 09:02:18 GMT 46.565460 6.322163 9,325 179 353 -1088
2021-12-07 09:02:15 GMT 46.569321 6.322083 9,375 178 368 -1152
2021-12-07 09:02:08 GMT 46.581612 6.321808 9,550 178 370 -1216
2021-12-07 09:02:05 GMT 46.586014 6.321694 9,575 178 372 -1216
2021-12-07 09:01:58 GMT 46.599060 6.321225 9,775 177 385 -1088
2021-12-07 09:01:55 GMT 46.604702 6.320984 9,800 177 388 -896
2021-12-07 09:01:48 GMT 46.617085 6.319954 9,825 175 400 -128
2021-12-07 09:01:45 GMT 46.622818 6.319349 9,875 173 406 -64
2021-12-07 09:01:38 GMT 46.635635 6.317340 9,850 172 409 448
2021-12-07 09:01:35 GMT 46.641293 6.316246 9,825 171 411 -64
2021-12-07 09:01:27 GMT 46.655865 6.312813 9,775 169 417 896
2021-12-07 09:01:24 GMT 46.662277 6.311110 9,750 169 418 832
2021-12-07 09:01:17 GMT 46.674576 6.307800 9,775 169 415 -192
2021-12-07 09:01:14 GMT 46.681419 6.305946 9,750 169 418 448
2021-12-07 09:01:09 GMT 46.690750 6.303406 9,850 169 425 -1216
2021-12-07 09:01:04 GMT 46.699947 6.300865 9,850 169 429 -2240
2021-12-07 09:00:58 GMT 46.711166 6.297707 10,800 168 432 -3392
2021-12-07 09:00:55 GMT 46.719219 6.295235 10,400 167 432 -4544
2021-12-07 09:00:47 GMT 46.733326 6.290359 11,025 165 432 -4864
2021-12-07 09:00:44 GMT 46.739330 6.288094 11,250 164 436 -3968
2021-12-07 09:00:41 GMT 46.746323 6.285252 11,475 163 439 -3200
2021-12-07 09:00:37 GMT 46.752598 6.282532 11,725 161 450 -1536
2021-12-07 09:00:34 GMT 46.758278 6.279854 11,725 161 448 -1664
2021-12-07 09:00:30 GMT 46.766693 6.275739 11,800 159 455 -1216
2021-12-07 09:00:27 GMT 46.772461 6.272657 11,875 158 456 -1024
2021-12-07 09:00:24 GMT 46.778412 6.269308 11,925 158 457 -896
2021-12-07 09:00:20 GMT 46.786514 6.264552 12,100 158 456 -704
2021-12-07 09:00:17 GMT 46.792282 6.261202 12,025 158 456 -704
2021-12-07 09:00:14 GMT 46.798637 6.257538 12,050 158 456 -832
2021-12-07 09:00:07 GMT 46.812000 6.249779 12,250 158 454 -1472
2021-12-07 09:00:03 GMT 46.818466 6.245995 12,275 158 453 -1600
2021-12-07 08:59:59 GMT 46.826385 6.241373 12,975 158 470 -4096
2021-12-07 08:59:56 GMT 46.833599 6.237144 12,525 158 451 -2112
2021-12-07 08:59:53 GMT 46.838116 6.234535 12,800 158 449 -2496
2021-12-07 08:59:47 GMT 46.850967 6.226970 12,800 158 449 -2624
2021-12-07 08:59:44 GMT 46.858459 6.222588 13,075 158 451 -3136
2021-12-07 08:59:42 GMT 46.858459 6.222588 13,075 158 451 -3136
2021-12-07 08:59:40 GMT 46.862366 6.220338 13,175 158 455 -3520
2021-12-07 08:59:39 GMT 46.864471 6.219066 13,250 158 455 -3520
2021-12-07 08:59:38 GMT 46.867676 6.217232 13,300 158 455 -3520
2021-12-07 08:59:36 GMT 46.871201 6.215103 13,450 158 459 -3968
2021-12-07 08:59:33 GMT 46.877777 6.211290 13,675 157 461 -4224
2021-12-07 08:59:31 GMT 46.881866 6.208855 13,825 157 463 -4544
2021-12-07 08:59:30 GMT 46.883972 6.207619 13,900 158 464 -4480
2021-12-07 08:59:28 GMT 46.888184 6.205147 14,225 158 467 -4288
2021-12-07 08:59:25 GMT 46.893185 6.202205 14,225 158 469 -4160
2021-12-07 08:59:24 GMT 46.895279 6.200958 14,325 158 470 -4160
2021-12-07 08:59:23 GMT 46.897190 6.199810 14,375 158 470 -4096
2021-12-07 08:59:21 GMT 46.901241 6.197486 14,525 158 474 -4096
2021-12-07 08:59:20 GMT 46.907318 6.193886 14,725 158 475 -4160
2021-12-07 08:59:16 GMT 46.911804 6.191277 14,900 158 478 -4864
2021-12-07 08:59:14 GMT 46.916565 6.188461 15,050 158 478 -4864
2021-12-07 08:59:12 GMT 46.920792 6.186007 15,250 158 481 -5312
2021-12-07 08:59:11 GMT 46.922840 6.184810 15,350 158 481 -5312
2021-12-07 08:59:08 GMT 46.930988 6.180021 15,825 158 483 -5120
2021-12-07 08:59:05 GMT 46.936897 6.176570 15,925 158 485 -5120
2021-12-07 08:59:02 GMT 46.940689 6.174385 16,100 158 486 -5184
2021-12-07 08:59:00 GMT 46.945652 6.171429 16,500 158 489 -5248
2021-12-07 08:58:57 GMT 46.954029 6.166640 16,650 158 489 -5184
2021-12-07 08:58:56 GMT 46.954029 6.166640 16,650 158 492 -4992
2021-12-07 08:58:55 GMT 46.956070 6.165390 16,725 158 492 -4992
2021-12-07 08:58:54 GMT 46.958359 6.164085 16,825 158 492 -4992
2021-12-07 08:58:51 GMT 46.964813 6.160378 17,075 158 494 -4928
2021-12-07 08:58:49 GMT 46.969208 6.157837 17,250 158 497 -5120
2021-12-07 08:58:48 GMT 46.970352 6.157150 17,300 158 497 -5120
2021-12-07 08:58:47 GMT 46.972790 6.155724 17,375 158 498 -5312
2021-12-07 08:58:44 GMT 46.979031 6.152132 17,650 158 499 -5376
2021-12-07 08:58:42 GMT 46.982193 6.150231 17,775 158 499 -5440
2021-12-07 08:58:41 GMT 46.984955 6.148636 17,900 158 500 -5504
2021-12-07 08:58:40 GMT 46.988342 6.146645 18,050 158 501 -5504
2021-12-07 08:58:38 GMT 46.992462 6.144241 18,225 158 503 -5568
2021-12-07 08:58:37 GMT 46.994484 6.143048 18,300 158 503 -5568
2021-12-07 08:58:34 GMT 47.000256 6.139738 18,550 158 504 -5568
2021-12-07 08:58:33 GMT 47.003311 6.137924 18,675 158 506 -5440
2021-12-07 08:58:31 GMT 47.007477 6.135452 18,850 158 507 -5376
2021-12-07 08:58:30 GMT 47.013664 6.131850 19,075 158 509 -5312
2021-12-07 08:58:28 GMT 47.013664 6.131850 19,100 158 510 -5376
2021-12-07 08:58:27 GMT 47.016178 6.130371 19,200 158 510 -5376
2021-12-07 08:58:26 GMT 47.018459 6.129033 19,300 158 511 -5376
2021-12-07 08:58:25 GMT 47.020981 6.127556 19,400 158 511 -5440
2021-12-07 08:58:22 GMT 47.026512 6.124385 19,650 158 513 -5632
2021-12-07 08:58:19 GMT 47.032837 6.120689 19,900 158 514 -5760
2021-12-07 08:58:17 GMT 47.038193 6.117599 20,150 158 516 -5824
2021-12-07 08:58:13 GMT 47.047462 6.112272 20,550 158 519 -5632
2021-12-07 08:58:11 GMT 47.050858 6.110300 20,700 158 519 -5632
2021-12-07 08:58:10 GMT 47.053326 6.108891 20,800 158 519 -5632
2021-12-07 08:58:09 GMT 47.055561 6.107553 20,900 158 521 -5632
2021-12-07 08:58:08 GMT 47.057751 6.106356 20,975 158 521 -5632
2021-12-07 08:58:06 GMT 47.060680 6.104666 21,100 158 522 -5504
2021-12-07 08:58:05 GMT 47.062962 6.103328 21,200 158 523 -5312
2021-12-07 08:58:04 GMT 47.065430 6.101919 21,300 158 525 -5056
2021-12-07 08:58:02 GMT 47.070366 6.099032 21,475 158 527 -4736
2021-12-07 08:58:01 GMT 47.072433 6.097824 21,550 158 528 -4608
2021-12-07 08:57:59 GMT 47.077377 6.095009 21,700 158 536 -3776
2021-12-07 08:57:56 GMT 47.083118 6.091708 21,850 158 536 -3776
2021-12-07 08:57:55 GMT 47.086704 6.089595 21,950 158 536 -3776
2021-12-07 08:57:53 GMT 47.090378 6.087456 22,025 158 536 -3776
2021-12-07 08:57:52 GMT 47.092476 6.086215 22,100 158 536 -3776
2021-12-07 08:57:49 GMT 47.101273 6.081139 22,450 158 539 -3520
2021-12-07 08:57:45 GMT 47.110474 6.075783 22,725 158 539 -3200
2021-12-07 08:57:41 GMT 47.117615 6.071594 22,725 158 540 -3136
2021-12-07 08:57:40 GMT 47.119995 6.070221 22,775 158 541 -3008
2021-12-07 08:57:39 GMT 47.122238 6.068848 22,825 158 541 -2816
2021-12-07 08:57:38 GMT 47.127640 6.065689 22,925 158 542 -2688
2021-12-07 08:57:36 GMT 47.130325 6.064101 22,975 157 543 -2496
2021-12-07 08:57:34 GMT 47.134094 6.061847 23,050 157 543 -2496
2021-12-07 08:57:33 GMT 47.136375 6.060509 23,100 157 543 -2496
2021-12-07 08:57:32 GMT 47.139774 6.058467 23,150 157 543 -2432
2021-12-07 08:57:30 GMT 47.144348 6.055733 23,250 157 543 -2432
2021-12-07 08:57:29 GMT 47.146664 6.054382 23,275 158 543 -2304
2021-12-07 08:57:27 GMT 47.158859 6.047129 23,450 158 542 -2112
2021-12-07 08:57:24 GMT 47.158859 6.047129 23,475 159 542 -2304
2021-12-07 08:57:21 GMT 47.164673 6.043785 23,575 160 542 -2432
2021-12-07 08:57:20 GMT 47.168262 6.041847 23,650 161 540 -2624
2021-12-07 08:57:17 GMT 47.175659 6.038017 23,800 163 539 -2752
2021-12-07 08:57:15 GMT 47.179367 6.036301 23,875 163 538 -2944
2021-12-07 08:57:14 GMT 47.181717 6.035227 23,925 163 538 -2944
2021-12-07 08:57:13 GMT 47.183853 6.034309 23,975 164 537 -3072
2021-12-07 08:57:12 GMT 47.186600 6.033211 24,050 165 535 -3200
2021-12-07 08:57:11 GMT 47.190098 6.031776 24,125 166 534 -3264
2021-12-07 08:57:09 GMT 47.194054 6.030297 24,225 166 533 -3392
2021-12-07 08:57:08 GMT 47.196487 6.029434 24,275 167 532 -3456
2021-12-07 08:57:07 GMT 47.199966 6.028267 24,375 169 528 -3776
2021-12-07 08:57:05 GMT 47.203583 6.027100 24,450 169 528 -3776
2021-12-07 08:57:04 GMT 47.206192 6.026344 24,525 169 528 -3776
2021-12-07 08:57:03 GMT 47.208893 6.025589 24,600 171 526 -4288
2021-12-07 08:57:01 GMT 47.213425 6.024422 24,725 171 526 -4288
2021-12-07 08:57:00 GMT 47.215935 6.023818 24,775 172 526 -4544
2021-12-07 08:56:59 GMT 47.223660 6.022198 25,000 173 525 -5056
2021-12-07 08:56:57 GMT 47.223660 6.022198 25,025 173 525 -5376
2021-12-07 08:56:55 GMT 47.230453 6.021194 25,275 176 524 -6016
2021-12-07 08:56:53 GMT 47.233658 6.020782 25,425 176 523 -5952
2021-12-07 08:56:52 GMT 47.235905 6.020508 25,525 177 523 -5760
2021-12-07 08:56:50 GMT 47.240326 6.020226 25,700 178 523 -5696
2021-12-07 08:56:47 GMT 47.247574 6.019821 25,975 181 522 -5760
2021-12-07 08:56:45 GMT 47.252701 6.019753 26,175 182 521 -5888
2021-12-07 08:56:43 GMT 47.257877 6.019874 26,400 183 520 -5888
2021-12-07 08:56:40 GMT 47.264999 6.020297 26,675 184 519 -5696
2021-12-07 08:56:39 GMT 47.267578 6.020508 26,775 185 519 -5504
2021-12-07 08:56:37 GMT 47.272522 6.021057 26,950 186 520 -5312
2021-12-07 08:56:36 GMT 47.274994 6.021400 27,050 189 518 -4672
2021-12-07 08:56:35 GMT 47.279476 6.021987 27,200 189 518 -4672
2021-12-07 08:56:31 GMT 47.287205 6.023466 27,450 190 515 -4608
2021-12-07 08:56:28 GMT 47.294312 6.025040 27,675 191 514 -4480
2021-12-07 08:56:25 GMT 47.301361 6.026962 27,875 193 511 -4352
2021-12-07 08:56:21 GMT 47.310902 6.030156 28,350 197 501 -5056
2021-12-07 08:56:18 GMT 47.315369 6.031837 28,350 197 501 -5056
2021-12-07 08:56:16 GMT 47.320255 6.033889 28,775 199 496 -5248
2021-12-07 08:56:13 GMT 47.326492 6.036644 28,775 200 491 -5184
2021-12-07 08:56:12 GMT 47.328682 6.037692 28,875 200 491 -5184
2021-12-07 08:56:10 GMT 47.334549 6.040695 29,100 202 485 -5248
2021-12-07 08:56:08 GMT 47.338577 6.042892 29,500 202 485 -5248
2021-12-07 08:56:05 GMT 47.343952 6.046002 29,500 203 483 -5248
2021-12-07 08:56:04 GMT 47.346188 6.047410 29,600 206 471 -5440
2021-12-07 08:56:02 GMT 47.350422 6.050086 29,800 206 471 -5440
2021-12-07 08:56:00 GMT 47.354519 6.052903 29,975 206 471 -5440
2021-12-07 08:55:59 GMT 47.356194 6.054101 30,075 207 469 -5248
2021-12-07 08:55:57 GMT 47.360184 6.056900 30,250 208 466 -4864
2021-12-07 08:55:55 GMT 47.365414 6.060932 30,450 209 463 -4352
2021-12-07 08:55:52 GMT 47.370255 6.064796 30,775 211 459 -3840
2021-12-07 08:55:49 GMT 47.374008 6.068024 30,775 212 456 -3520
2021-12-07 08:55:48 GMT 47.376755 6.070496 30,875 213 454 -3264
2021-12-07 08:55:47 GMT 47.379593 6.073036 30,950 214 452 -2880
2021-12-07 08:55:45 GMT 47.381611 6.074946 31,000 214 451 -2752
2021-12-07 08:55:44 GMT 47.383438 6.076675 31,050 215 450 -2560
2021-12-07 08:55:42 GMT 47.386917 6.080158 31,125 216 446 -2112
2021-12-07 08:55:41 GMT 47.392685 6.086151 31,225 217 446 -2048
2021-12-07 08:55:39 GMT 47.392685 6.086151 31,250 218 444 -2048
2021-12-07 08:55:37 GMT 47.395340 6.089104 31,325 221 439 -2048
2021-12-07 08:55:34 GMT 47.400513 6.095215 31,425 221 438 -2048
2021-12-07 08:55:33 GMT 47.402023 6.097137 31,450 222 437 -2048
2021-12-07 08:55:32 GMT 47.403492 6.098961 31,500 222 437 -2112
2021-12-07 08:55:31 GMT 47.405121 6.101004 31,525 223 436 -2112
2021-12-07 08:55:29 GMT 47.408340 6.105240 31,600 224 434 -2112
2021-12-07 08:55:28 GMT 47.409668 6.107162 31,625 225 431 -2112
2021-12-07 08:55:26 GMT 47.412094 6.110596 31,675 227 430 -2112
2021-12-07 08:55:25 GMT 47.413605 6.112793 31,725 227 428 -2112
2021-12-07 08:55:24 GMT 47.415115 6.115059 31,750 228 427 -2176
2021-12-07 08:55:22 GMT 47.417953 6.119453 31,825 229 425 -2176
2021-12-07 08:55:20 GMT 47.420105 6.122955 31,900 229 425 -2176
2021-12-07 08:55:19 GMT 47.422211 6.126457 31,950 231 422 -2176
2021-12-07 08:55:18 GMT 47.423584 6.128860 32,000 231 422 -2176
2021-12-07 08:55:17 GMT 47.424774 6.130989 32,025 233 421 -2176
2021-12-07 08:55:14 GMT 47.428253 6.137512 32,125 234 418 -2112
2021-12-07 08:55:13 GMT 47.431332 6.143752 32,300 236 416 -2112
2021-12-07 08:55:11 GMT 47.431332 6.143752 32,300 237 415 -2176
2021-12-07 08:55:08 GMT 47.435009 6.151569 32,325 238 414 -2112
2021-12-07 08:55:07 GMT 47.437057 6.156217 32,400 240 412 -2112
2021-12-07 08:55:04 GMT 47.439514 6.162369 32,550 242 409 -2048
2021-12-07 08:55:01 GMT 47.441437 6.167381 32,550 242 409 -2112
2021-12-07 08:54:59 GMT 47.443314 6.172531 32,625 245 406 -2112
2021-12-07 08:54:58 GMT 47.444180 6.175021 32,650 245 406 -2112
2021-12-07 08:54:56 GMT 47.445950 6.180443 32,725 247 404 -2112
2021-12-07 08:54:55 GMT 47.447670 6.185796 32,800 248 403 -2176
2021-12-07 08:54:53 GMT 47.448441 6.188393 32,825 249 402 -2176
2021-12-07 08:54:51 GMT 47.449814 6.193402 32,900 250 401 -2112
2021-12-07 08:54:50 GMT 47.450417 6.195655 32,925 250 401 -2112
2021-12-07 08:54:48 GMT 47.451691 6.200821 33,000 252 399 -2176
2021-12-07 08:54:47 GMT 47.452332 6.203430 33,025 254 398 -2176
2021-12-07 08:54:45 GMT 47.453476 6.208443 33,100 254 398 -2176
2021-12-07 08:54:44 GMT 47.455212 6.216924 33,225 256 395 -2112
2021-12-07 08:54:42 GMT 47.455212 6.216924 33,225 256 395 -2112
2021-12-07 08:54:41 GMT 47.455723 6.219811 33,250 257 394 -2112
2021-12-07 08:54:40 GMT 47.456188 6.222417 33,275 258 392 -2112
2021-12-07 08:54:38 GMT 47.456909 6.226982 33,350 259 392 -2048
2021-12-07 08:54:36 GMT 47.457726 6.232417 33,425 264 385 -2176
2021-12-07 08:54:34 GMT 47.459106 6.244766 33,600 264 385 -2176
2021-12-07 08:54:31 GMT 47.459106 6.244766 33,600 264 385 -2176
2021-12-07 08:54:29 GMT 47.459793 6.252594 33,750 266 382 -2176
2021-12-07 08:54:26 GMT 47.460068 6.257469 33,925 267 379 -2112
2021-12-07 08:54:23 GMT 47.460434 6.265297 33,925 269 376 -2112
2021-12-07 08:54:21 GMT 47.460564 6.272841 34,025 272 370 -2112
2021-12-07 08:54:20 GMT 47.460564 6.275306 34,050 272 370 -2112
2021-12-07 08:54:18 GMT 47.460518 6.278194 34,100 273 369 -2112
2021-12-07 08:54:16 GMT 47.460331 6.285799 34,275 274 365 -2048
2021-12-07 08:54:13 GMT 47.460007 6.292208 34,475 281 355 -2176
2021-12-07 08:54:10 GMT 47.459335 6.300316 34,475 281 355 -2176
2021-12-07 08:54:07 GMT 47.458611 6.307350 34,525 283 351 -2304
2021-12-07 08:54:05 GMT 47.458282 6.309814 34,550 283 351 -2304
2021-12-07 08:54:04 GMT 47.457962 6.312126 34,575 285 350 -2368
2021-12-07 08:54:01 GMT 47.456909 6.319061 34,700 287 348 -2496
2021-12-07 08:54:00 GMT 47.456451 6.321533 34,750 288 347 -2496
2021-12-07 08:53:57 GMT 47.455215 6.327850 34,875 289 345 -2688
2021-12-07 08:53:55 GMT 47.454254 6.332314 34,975 291 343 -2880
2021-12-07 08:53:52 GMT 47.451904 6.341365 35,450 295 340 -3200
2021-12-07 08:53:48 GMT 47.449448 6.349480 35,450 298 338 -2880
2021-12-07 08:53:45 GMT 47.447388 6.355522 35,625 299 337 -2688
2021-12-07 08:53:42 GMT 47.443295 6.365943 35,725 304 338 -1728
2021-12-07 08:53:39 GMT 47.443295 6.365943 35,725 304 338 -1728
2021-12-07 08:53:38 GMT 47.442444 6.367882 35,750 305 337 -1600
2021-12-07 08:53:35 GMT 47.439709 6.373901 35,825 307 340 -1472
2021-12-07 08:53:34 GMT 47.438313 6.376859 35,875 307 340 -1472
2021-12-07 08:53:33 GMT 47.437290 6.378831 35,875 308 341 -1472
2021-12-07 08:53:30 GMT 47.434914 6.383550 36,075 309 342 -1600
2021-12-07 08:53:26 GMT 47.430222 6.392189 36,075 312 344 -1408
2021-12-07 08:53:23 GMT 47.427280 6.397071 36,175 316 347 -1024
2021-12-07 08:53:20 GMT 47.424068 6.402001 36,175 316 347 -1024
2021-12-07 08:53:18 GMT 47.421646 6.405452 36,225 319 349 -832
2021-12-07 08:53:17 GMT 47.420391 6.407142 36,225 321 352 -896
2021-12-07 08:53:15 GMT 47.417877 6.410452 36,250 324 356 -1088
2021-12-07 08:53:12 GMT 47.414291 6.414818 36,300 324 357 -1152
2021-12-07 08:53:11 GMT 47.412941 6.416368 36,325 325 358 -1152
2021-12-07 08:53:08 GMT 47.409622 6.419998 36,375 326 359 -1152
2021-12-07 08:53:05 GMT 47.403351 6.426247 36,425 329 364 -704
2021-12-07 08:53:02 GMT 47.401722 6.427777 36,425 330 366 -512
2021-12-07 08:52:59 GMT 47.397308 6.431671 36,425 332 371 -64
2021-12-07 08:52:57 GMT 47.392593 6.435516 36,575 340 385 -2048
2021-12-07 08:52:54 GMT 47.384731 6.441017 36,575 340 385 -2048
2021-12-07 08:52:51 GMT 47.383148 6.442003 36,600 340 385 -2048
2021-12-07 08:52:48 GMT 47.379684 6.444031 36,675 342 388 -2176
2021-12-07 08:52:46 GMT 47.376389 6.445885 36,750 343 390 -2240
2021-12-07 08:52:44 GMT 47.372723 6.447707 36,850 344 390 -2304
2021-12-07 08:52:40 GMT 47.366669 6.450383 37,000 351 399 -2496
2021-12-07 08:52:37 GMT 47.358940 6.453130 37,250 351 399 -2496
2021-12-07 08:52:34 GMT 47.354919 6.454330 37,325 352 401 -2432
2021-12-07 08:52:31 GMT 47.349213 6.455735 37,400 353 402 -2432
2021-12-07 08:52:28 GMT 47.343441 6.456792 37,475 355 404 -2368
2021-12-07 08:52:25 GMT 47.337994 6.457566 37,600 357 407 -2048
2021-12-07 08:52:22 GMT 47.333817 6.457970 37,675 358 409 -1856
2021-12-07 08:52:19 GMT 47.324306 6.458482 37,800 359 410 -1280
2021-12-07 08:52:15 GMT 47.316628 6.458905 37,875 359 407 -128
2021-12-07 08:52:12 GMT 47.314812 6.458975 37,900 359 410 -768
2021-12-07 08:52:09 GMT 47.307919 6.459327 37,975 359 408 -64
2021-12-07 08:52:06 GMT 47.302231 6.459549 37,950 359 409 -128
2021-12-07 08:52:04 GMT 47.296783 6.459824 37,950 359 409 -64
2021-12-07 08:52:01 GMT 47.292091 6.460102 37,950 359 409 -64
2021-12-07 08:51:58 GMT 47.286255 6.460373 37,950 359 409 -64
2021-12-07 08:51:55 GMT 47.282085 6.460595 37,975 359 408 0
2021-12-07 08:51:52 GMT 47.276138 6.460854 37,975 359 408 -64
2021-12-07 08:51:49 GMT 47.270584 6.461158 37,975 359 408 -64
2021-12-07 08:51:46 GMT 47.264488 6.461440 37,975 359 408 -64
2021-12-07 08:51:43 GMT 47.256992 6.461792 37,975 359 408 -64
2021-12-07 08:51:40 GMT 47.251919 6.462074 37,975 359 408 -64
2021-12-07 08:51:37 GMT 47.248306 6.462227 37,975 359 408 -64
2021-12-07 08:51:33 GMT 47.240189 6.462637 38,000 359 407 -128
2021-12-07 08:51:30 GMT 47.234390 6.462914 38,000 359 407 -128
2021-12-07 08:51:27 GMT 47.229618 6.463130 38,000 359 407 -128
2021-12-07 08:51:24 GMT 47.222305 6.463463 38,000 359 407 -64
2021-12-07 08:51:21 GMT 47.218399 6.463693 38,000 359 407 -64
2021-12-07 08:51:18 GMT 47.209625 6.464149 38,000 359 407 -64
2021-12-07 08:51:14 GMT 47.204807 6.464327 38,000 359 407 -64
2021-12-07 08:51:11 GMT 47.198227 6.464699 38,025 359 407 -64
2021-12-07 08:51:08 GMT 47.191635 6.465042 38,025 359 407 -64
2021-12-07 08:51:05 GMT 47.185905 6.465313 38,025 359 407 -64
2021-12-07 08:51:02 GMT 47.181530 6.465525 38,025 359 407 0
2021-12-07 08:50:59 GMT 47.176712 6.465797 38,025 359 407 0
2021-12-07 08:50:56 GMT 47.171219 6.466003 38,025 359 407 -64
2021-12-07 08:50:54 GMT 47.166367 6.466278 38,025 358 407 0
2021-12-07 08:50:51 GMT 47.161469 6.466510 38,050 358 407 -128
2021-12-07 08:50:48 GMT 47.155151 6.466896 38,050 358 408 0
2021-12-07 08:50:45 GMT 47.148743 6.467239 38,050 358 408 -64
2021-12-07 08:50:41 GMT 47.142147 6.467567 38,050 359 408 0
2021-12-07 08:50:38 GMT 47.135788 6.467926 38,050 359 408 0
2021-12-07 08:50:35 GMT 47.130203 6.468201 38,050 359 408 0
2021-12-07 08:50:32 GMT 47.126175 6.468407 38,050 359 408 -64
2021-12-07 08:50:29 GMT 47.118778 6.468764 38,050 359 408 0
2021-12-07 08:50:25 GMT 47.111237 6.469187 38,050 359 409 0
2021-12-07 08:50:21 GMT 47.104111 6.469505 38,050 359 409 0
2021-12-07 08:50:18 GMT 47.097366 6.469820 38,050 359 409 0
2021-12-07 08:50:15 GMT 47.093491 6.470055 38,050 359 409 0
2021-12-07 08:50:12 GMT 47.080399 6.470741 38,050 359 410 0
2021-12-07 08:50:09 GMT 47.080399 6.470741 38,050 359 410 0
2021-12-07 08:50:06 GMT 47.076042 6.470947 38,050 359 410 0
2021-12-07 08:50:03 GMT 47.070923 6.471153 38,050 359 410 0
2021-12-07 08:50:00 GMT 47.063427 6.471511 38,050 359 410 0
2021-12-07 08:49:57 GMT 47.059387 6.471703 38,050 359 410 0
2021-12-07 08:49:54 GMT 47.051331 6.472046 38,050 359 410 0
2021-12-07 08:49:51 GMT 47.047485 6.472252 38,050 359 411 0
2021-12-07 08:49:48 GMT 47.043411 6.472426 38,050 359 408 128
2021-12-07 08:49:45 GMT 47.036942 6.472708 38,050 359 411 0
2021-12-07 08:49:42 GMT 47.028793 6.473130 38,050 359 411 64
2021-12-07 08:49:39 GMT 47.023346 6.473342 38,050 359 411 0
2021-12-07 08:49:36 GMT 47.019562 6.473557 38,050 359 411 64
2021-12-07 08:49:34 GMT 47.015900 6.473694 38,050 359 411 64
2021-12-07 08:49:31 GMT 47.008896 6.474037 38,050 359 411 64
2021-12-07 08:49:28 GMT 47.003189 6.474328 38,050 359 411 64
2021-12-07 08:49:24 GMT 46.994476 6.474724 38,025 359 411 64
2021-12-07 08:49:20 GMT 46.988525 6.474962 38,025 359 411 0
2021-12-07 08:49:16 GMT 46.980099 6.475384 38,025 359 411 0
2021-12-07 08:49:13 GMT 46.974888 6.475595 38,025 359 411 0
2021-12-07 08:49:09 GMT 46.969254 6.475877 38,000 359 407 64
2021-12-07 08:49:06 GMT 46.954834 6.476509 38,025 359 410 0
2021-12-07 08:49:03 GMT 46.954834 6.476509 38,025 359 410 0
2021-12-07 08:48:59 GMT 46.947281 6.476921 38,025 359 409 0
2021-12-07 08:48:56 GMT 46.944351 6.477058 38,025 359 410 0
2021-12-07 08:48:51 GMT 46.932896 6.477567 38,025 359 409 0
2021-12-07 08:48:48 GMT 46.926426 6.477849 38,025 359 409 0
2021-12-07 08:48:45 GMT 46.922840 6.478060 38,025 359 409 0
2021-12-07 08:48:42 GMT 46.916603 6.478342 38,000 359 407 128
2021-12-07 08:48:39 GMT 46.911850 6.478500 38,000 359 408 128
2021-12-07 08:48:36 GMT 46.906174 6.478764 38,025 359 407 128
2021-12-07 08:48:33 GMT 46.899399 6.479118 38,000 359 407 128
2021-12-07 08:48:30 GMT 46.894638 6.479324 38,000 358 405 0
2021-12-07 08:48:27 GMT 46.887909 6.479668 38,000 359 407 128
2021-12-07 08:48:24 GMT 46.883690 6.479821 38,000 359 407 64
2021-12-07 08:48:21 GMT 46.876801 6.480173 38,000 359 407 64
2021-12-07 08:48:18 GMT 46.870239 6.480492 38,000 359 407 64
2021-12-07 08:48:15 GMT 46.863811 6.480835 38,000 359 406 64
2021-12-07 08:48:12 GMT 46.859997 6.480972 38,000 359 406 0
2021-12-07 08:48:09 GMT 46.854538 6.481264 38,000 358 406 0
2021-12-07 08:48:05 GMT 46.848587 6.481599 38,000 358 405 0
2021-12-07 08:48:02 GMT 46.842041 6.481934 38,000 358 404 0
2021-12-07 08:47:59 GMT 46.833710 6.482403 38,000 358 403 -64
2021-12-07 08:47:55 GMT 46.827805 6.482737 38,000 358 403 -64
2021-12-07 08:47:52 GMT 46.822769 6.483005 38,000 358 403 0
2021-12-07 08:47:49 GMT 46.817261 6.483307 38,000 359 403 0
2021-12-07 08:47:46 GMT 46.812187 6.483582 38,000 359 402 0
2021-12-07 08:47:44 GMT 46.808556 6.483719 38,000 359 402 0
2021-12-07 08:47:41 GMT 46.803452 6.484010 38,000 359 402 0
2021-12-07 08:47:38 GMT 46.797661 6.484268 38,000 359 402 -64
2021-12-07 08:47:35 GMT 46.789654 6.484680 38,000 359 402 0
2021-12-07 08:47:31 GMT 46.783127 6.485015 38,000 359 402 0
2021-12-07 08:47:28 GMT 46.778412 6.485216 38,000 359 402 -64
2021-12-07 08:47:25 GMT 46.773056 6.485484 38,000 359 402 -64
2021-12-07 08:47:23 GMT 46.769032 6.485641 38,000 359 402 -64
2021-12-07 08:47:20 GMT 46.763493 6.485916 38,000 359 402 64
2021-12-07 08:47:17 GMT 46.759163 6.486122 38,000 359 402 64
2021-12-07 08:47:14 GMT 46.745430 6.486740 38,000 359 402 0
2021-12-07 08:47:10 GMT 46.745430 6.486740 38,000 359 402 0
2021-12-07 08:47:07 GMT 46.740589 6.486946 38,000 359 402 0
2021-12-07 08:47:04 GMT 46.731651 6.487358 38,000 359 402 64
2021-12-07 08:47:01 GMT 46.726410 6.487561 38,000 359 402 0
2021-12-07 08:46:58 GMT 46.722668 6.487701 38,000 359 402 0
2021-12-07 08:46:55 GMT 46.716846 6.487907 38,000 359 402 0
2021-12-07 08:46:50 GMT 46.708000 6.488319 38,000 358 402 0
2021-12-07 08:46:46 GMT 46.699760 6.488800 38,000 357 400 0
2021-12-07 08:46:43 GMT 46.692638 6.489418 38,000 356 400 0
2021-12-07 08:46:40 GMT 46.689285 6.489771 38,000 354 398 0
2021-12-07 08:46:37 GMT 46.683609 6.490517 38,000 355 399 0
2021-12-07 08:46:34 GMT 46.679466 6.491135 38,000 353 396 64
2021-12-07 08:46:31 GMT 46.672256 6.492384 38,000 352 396 64
2021-12-07 08:46:28 GMT 46.667496 6.493255 38,000 352 396 64
2021-12-07 08:46:25 GMT 46.661171 6.494568 38,000 352 396 64
2021-12-07 08:46:21 GMT 46.654266 6.496001 37,975 353 396 64
2021-12-07 08:46:18 GMT 46.649826 6.496872 37,975 353 397 64
2021-12-07 08:46:15 GMT 46.644516 6.497877 37,975 353 396 0
2021-12-07 08:46:12 GMT 46.637104 6.499237 38,000 353 396 -64
2021-12-07 08:46:08 GMT 46.631844 6.500198 38,000 353 395 -64
2021-12-07 08:46:05 GMT 46.626396 6.501160 38,000 353 395 0
2021-12-07 08:46:01 GMT 46.616852 6.502876 38,000 353 393 -64
2021-12-07 08:45:58 GMT 46.613251 6.503571 38,000 353 393 -64
2021-12-07 08:45:55 GMT 46.607758 6.504576 38,000 353 391 -64
2021-12-07 08:45:51 GMT 46.601677 6.505692 38,025 353 390 -64
2021-12-07 08:45:48 GMT 46.594666 6.506988 38,025 353 389 0
2021-12-07 08:45:45 GMT 46.589951 6.507792 38,000 353 388 64
2021-12-07 08:45:42 GMT 46.584171 6.508850 38,000 353 388 64
2021-12-07 08:45:38 GMT 46.576912 6.510223 38,000 353 388 64
2021-12-07 08:45:35 GMT 46.571823 6.511141 38,000 353 387 64
2021-12-07 08:45:31 GMT 46.565552 6.512283 38,000 353 386 64
2021-12-07 08:45:28 GMT 46.560432 6.513245 38,000 353 386 64
2021-12-07 08:45:25 GMT 46.554062 6.514424 38,000 353 386 64
2021-12-07 08:45:21 GMT 46.547882 6.515495 38,000 353 386 64
2021-12-07 08:45:18 GMT 46.542042 6.516609 37,975 354 386 0
2021-12-07 08:45:15 GMT 46.536026 6.517639 37,975 354 386 0
2021-12-07 08:45:12 GMT 46.529987 6.518738 37,975 354 386 0
2021-12-07 08:45:08 GMT 46.523422 6.519905 37,975 354 386 0
2021-12-07 08:45:05 GMT 46.518173 6.520855 37,975 354 386 0
2021-12-07 08:45:00 GMT 46.509598 6.522377 37,975 354 385 0
2021-12-07 08:44:57 GMT 46.504616 6.523201 37,975 354 385 0
2021-12-07 08:44:54 GMT 46.499222 6.524204 37,975 354 385 0
2021-12-07 08:44:52 GMT 46.495678 6.524849 37,975 354 385 0
2021-12-07 08:44:49 GMT 46.490276 6.525810 37,975 353 384 64
2021-12-07 08:44:45 GMT 46.482315 6.527184 37,975 353 384 64
2021-12-07 08:44:40 GMT 46.472729 6.528900 37,975 353 384 64
2021-12-07 08:44:36 GMT 46.467327 6.529861 37,975 354 384 64
2021-12-07 08:44:33 GMT 46.460575 6.531029 37,950 354 384 64
2021-12-07 08:44:30 GMT 46.451706 6.532578 37,975 354 384 0
2021-12-07 08:44:27 GMT 46.451706 6.532578 37,975 354 384 64
2021-12-07 08:44:24 GMT 46.446285 6.533569 37,950 354 383 0
2021-12-07 08:44:20 GMT 46.439301 6.534722 37,950 354 383 0
2021-12-07 08:44:17 GMT 46.431992 6.535973 37,950 354 383 64
2021-12-07 08:44:14 GMT 46.423569 6.537415 37,950 354 383 0
2021-12-07 08:44:11 GMT 46.423569 6.537415 37,950 354 383 0
2021-12-07 08:44:08 GMT 46.418884 6.538205 37,950 354 382 0
2021-12-07 08:44:05 GMT 46.411423 6.539545 37,950 353 383 0
2021-12-07 08:44:02 GMT 46.407322 6.540230 37,950 353 383 0
2021-12-07 08:43:59 GMT 46.402618 6.541054 37,975 353 383 -64
2021-12-07 08:43:56 GMT 46.396008 6.542290 37,975 353 383 -64
2021-12-07 08:43:53 GMT 46.390423 6.543320 37,975 353 382 0
2021-12-07 08:43:50 GMT 46.387161 6.543899 37,975 353 382 -64
2021-12-07 08:43:47 GMT 46.380974 6.545036 37,975 353 382 0
2021-12-07 08:43:44 GMT 46.375664 6.545998 37,975 353 382 0
2021-12-07 08:43:38 GMT 46.364910 6.547989 37,975 353 382 0
2021-12-07 08:43:35 GMT 46.360657 6.548789 37,975 353 382 0
2021-12-07 08:43:32 GMT 46.355137 6.549774 37,975 353 382 0
2021-12-07 08:43:29 GMT 46.349361 6.550804 37,975 353 382 0
2021-12-07 08:43:26 GMT 46.344955 6.551603 37,975 353 383 -64
2021-12-07 08:43:23 GMT 46.339493 6.552658 37,975 353 382 0
2021-12-07 08:43:19 GMT 46.333099 6.553814 37,975 353 383 0
2021-12-07 08:43:16 GMT 46.327560 6.554819 37,975 353 383 0
2021-12-07 08:43:13 GMT 46.321655 6.555890 37,975 353 383 0
2021-12-07 08:43:08 GMT 46.311996 6.557632 37,975 353 383 -64
2021-12-07 08:43:04 GMT 46.304905 6.558907 37,975 353 383 -64
2021-12-07 08:43:00 GMT 46.294006 6.560915 37,975 353 382 0
2021-12-07 08:42:57 GMT 46.294006 6.560915 37,975 353 382 0
2021-12-07 08:42:53 GMT 46.286865 6.562187 37,975 353 382 0
2021-12-07 08:42:50 GMT 46.280560 6.563301 37,975 354 382 0
2021-12-07 08:42:46 GMT 46.274555 6.564331 37,975 354 383 0
2021-12-07 08:42:43 GMT 46.269745 6.565135 37,975 353 383 0
2021-12-07 08:42:40 GMT 46.258118 6.567212 37,975 353 383 0
2021-12-07 08:42:37 GMT 46.258118 6.567212 37,975 353 383 0
2021-12-07 08:42:33 GMT 46.251976 6.568314 37,975 353 383 0
2021-12-07 08:42:30 GMT 46.246353 6.569288 37,975 353 383 0
2021-12-07 08:42:27 GMT 46.240540 6.570360 37,975 353 383 0
2021-12-07 08:42:24 GMT 46.235962 6.571164 37,975 353 383 -64
2021-12-07 08:42:21 GMT 46.228745 6.572433 37,975 353 383 -64
2021-12-07 08:42:17 GMT 46.222740 6.573532 37,975 353 384 0
2021-12-07 08:42:13 GMT 46.216415 6.574647 38,000 354 384 -64
2021-12-07 08:42:10 GMT 46.208820 6.576004 37,975 354 384 0
2021-12-07 08:42:07 GMT 46.205471 6.576553 38,000 354 384 0
2021-12-07 08:42:04 GMT 46.200439 6.577461 38,000 354 384 0
2021-12-07 08:41:59 GMT 46.191177 6.579025 38,000 354 385 -64
2021-12-07 08:41:56 GMT 46.185684 6.579987 38,000 354 385 -64
2021-12-07 08:41:52 GMT 46.178562 6.581291 38,000 353 385 -64
2021-12-07 08:41:47 GMT 46.170044 6.582820 38,000 353 386 -64
2021-12-07 08:41:44 GMT 46.164734 6.583758 38,025 353 385 -64
2021-12-07 08:41:41 GMT 46.159332 6.584763 38,025 353 385 -64
2021-12-07 08:41:38 GMT 46.154449 6.585617 38,025 353 385 -64
2021-12-07 08:41:35 GMT 46.145050 6.587309 38,025 353 385 -64
2021-12-07 08:41:32 GMT 46.145050 6.587309 38,025 354 385 -64
2021-12-07 08:41:28 GMT 46.136295 6.588913 38,025 354 385 -64
2021-12-07 08:41:25 GMT 46.131500 6.589787 38,025 354 386 0
2021-12-07 08:41:22 GMT 46.124496 6.590993 38,025 354 386 0
2021-12-07 08:41:18 GMT 46.118649 6.592003 38,025 354 386 0
2021-12-07 08:41:15 GMT 46.113529 6.592896 38,025 354 386 0
2021-12-07 08:41:12 GMT 46.109116 6.593673 38,025 354 386 -64
2021-12-07 08:41:08 GMT 46.101566 6.594955 38,025 354 386 -64
2021-12-07 08:41:05 GMT 46.095558 6.596054 38,050 354 386 -64
2021-12-07 08:41:02 GMT 46.090988 6.596821 38,050 354 386 -64
2021-12-07 08:40:58 GMT 46.083084 6.598251 38,050 354 386 -64
2021-12-07 08:40:54 GMT 46.076054 6.599487 38,050 354 386 0
2021-12-07 08:40:51 GMT 46.072220 6.600171 38,050 354 386 0
2021-12-07 08:40:48 GMT 46.066040 6.601242 38,050 354 387 0
2021-12-07 08:40:45 GMT 46.060692 6.602165 38,050 354 387 64
2021-12-07 08:40:42 GMT 46.055008 6.603185 38,050 354 387 64
2021-12-07 08:40:39 GMT 46.050613 6.603922 38,050 354 387 64
2021-12-07 08:40:36 GMT 46.037796 6.606200 38,050 354 387 64
2021-12-07 08:40:33 GMT 46.037796 6.606200 38,050 354 387 64
2021-12-07 08:40:30 GMT 46.033676 6.606870 38,025 354 388 64
2021-12-07 08:40:26 GMT 46.026337 6.608208 38,050 354 388 0
2021-12-07 08:40:23 GMT 46.019852 6.609348 38,050 354 388 0
2021-12-07 08:40:20 GMT 46.015350 6.610130 38,050 353 388 0
2021-12-07 08:40:17 GMT 46.010742 6.610956 38,025 353 388 64
2021-12-07 08:40:14 GMT 46.006210 6.611760 38,050 353 388 64
2021-12-07 08:40:11 GMT 45.998314 6.613152 38,025 353 388 64
2021-12-07 08:40:06 GMT 45.989914 6.614640 38,050 353 388 64
2021-12-07 08:40:03 GMT 45.986023 6.615349 38,025 353 388 0
2021-12-07 08:40:00 GMT 45.980621 6.616315 38,050 353 388 0
2021-12-07 08:39:57 GMT 45.973251 6.617588 38,050 354 388 64
2021-12-07 08:39:54 GMT 45.970287 6.618095 38,025 354 388 64
2021-12-07 08:39:51 GMT 45.964283 6.619194 38,025 354 388 64
2021-12-07 08:39:48 GMT 45.958881 6.620087 38,025 354 388 64
2021-12-07 08:39:45 GMT 45.952644 6.621185 38,025 353 387 0
2021-12-07 08:39:42 GMT 45.947205 6.622143 38,025 353 387 0
2021-12-07 08:39:38 GMT 45.941193 6.623245 38,025 353 387 0
2021-12-07 08:39:35 GMT 45.936218 6.624086 38,025 353 387 0
2021-12-07 08:39:32 GMT 45.931183 6.625031 38,025 354 387 0
2021-12-07 08:39:29 GMT 45.922852 6.626498 38,025 354 387 0
2021-12-07 08:39:26 GMT 45.919872 6.627022 38,025 354 387 0
2021-12-07 08:39:22 GMT 45.912052 6.628395 38,025 354 387 0
2021-12-07 08:39:20 GMT 45.910172 6.628708 38,025 354 387 0
2021-12-07 08:39:16 GMT 45.896084 6.631142 38,025 354 386 0
2021-12-07 08:39:13 GMT 45.896084 6.631142 38,025 354 386 0
2021-12-07 08:39:10 GMT 45.890636 6.632103 38,000 354 386 0
2021-12-07 08:39:07 GMT 45.884903 6.633063 38,000 354 386 0
2021-12-07 08:39:04 GMT 45.880116 6.633888 38,000 354 386 0
2021-12-07 08:39:01 GMT 45.875881 6.634644 38,000 354 386 0
2021-12-07 08:38:57 GMT 45.867828 6.636077 38,000 354 385 0
2021-12-07 08:38:53 GMT 45.859497 6.637484 38,000 353 384 0
2021-12-07 08:38:50 GMT 45.856049 6.638145 38,000 354 382 64
2021-12-07 08:38:47 GMT 45.850845 6.639025 38,000 353 384 0
2021-12-07 08:38:44 GMT 45.844131 6.640205 38,000 353 384 64
2021-12-07 08:38:40 GMT 45.838963 6.641098 38,000 354 383 64
2021-12-07 08:38:36 GMT 45.831985 6.642307 38,000 354 383 0
2021-12-07 08:38:33 GMT 45.825851 6.643379 38,000 354 383 0
2021-12-07 08:38:30 GMT 45.820862 6.644250 38,000 354 383 0
2021-12-07 08:38:27 GMT 45.813313 6.645561 38,000 354 383 -64
2021-12-07 08:38:24 GMT 45.808914 6.646327 38,000 354 383 0
2021-12-07 08:38:21 GMT 45.802700 6.647415 38,000 354 382 64
2021-12-07 08:38:16 GMT 45.795624 6.648651 38,000 354 381 0
2021-12-07 08:38:13 GMT 45.790459 6.649544 38,000 354 381 0
2021-12-07 08:38:10 GMT 45.785431 6.650413 38,000 354 379 64
2021-12-07 08:38:06 GMT 45.772953 6.652565 38,000 354 380 0
2021-12-07 08:38:03 GMT 45.772953 6.652565 38,000 353 380 0
2021-12-07 08:37:59 GMT 45.767349 6.653494 38,000 353 380 0
2021-12-07 08:37:56 GMT 45.760941 6.654633 38,000 353 379 0
2021-12-07 08:37:53 GMT 45.755768 6.655571 38,025 353 379 0
2021-12-07 08:37:48 GMT 45.745766 6.657303 38,000 354 379 0
2021-12-07 08:37:44 GMT 45.740433 6.658251 38,000 354 379 64
2021-12-07 08:37:41 GMT 45.734547 6.659294 38,000 354 379 0
2021-12-07 08:37:38 GMT 45.728394 6.660327 38,000 354 379 0
2021-12-07 08:37:34 GMT 45.722912 6.661285 38,000 354 378 64
2021-12-07 08:37:31 GMT 45.718117 6.662109 38,000 354 378 0
2021-12-07 08:37:28 GMT 45.711830 6.663208 38,000 354 378 64
2021-12-07 08:37:24 GMT 45.705685 6.664307 38,000 354 378 64
2021-12-07 08:37:21 GMT 45.699726 6.665337 38,000 354 378 0
2021-12-07 08:37:18 GMT 45.695892 6.666022 38,000 354 377 0
2021-12-07 08:37:15 GMT 45.689716 6.667122 38,000 354 377 0
2021-12-07 08:37:12 GMT 45.685204 6.667877 38,000 354 377 0
2021-12-07 08:37:09 GMT 45.679642 6.668835 38,000 354 377 64
2021-12-07 08:37:05 GMT 45.672260 6.670143 38,000 354 375 0
2021-12-07 08:37:02 GMT 45.667278 6.671036 38,000 354 375 0
2021-12-07 08:36:57 GMT 45.658157 6.672615 38,000 354 374 0
2021-12-07 08:36:52 GMT 45.649521 6.674060 38,000 354 369 0
2021-12-07 08:36:49 GMT 45.645260 6.674812 38,000 354 371 0
2021-12-07 08:36:46 GMT 45.639114 6.675911 38,000 354 370 0
2021-12-07 08:36:43 GMT 45.633774 6.676807 38,000 354 369 0
2021-12-07 08:36:40 GMT 45.629478 6.677559 38,000 353 367 192
2021-12-07 08:36:37 GMT 45.623707 6.678589 38,000 353 367 128
2021-12-07 08:36:32 GMT 45.615280 6.680031 37,975 354 366 128
2021-12-07 08:36:28 GMT 45.609833 6.680992 37,975 354 365 64
2021-12-07 08:36:25 GMT 45.603745 6.682032 37,975 354 365 -64
2021-12-07 08:36:22 GMT 45.599918 6.682709 37,975 354 365 -64
2021-12-07 08:36:19 GMT 45.594635 6.683573 37,975 354 365 -64
2021-12-07 08:36:16 GMT 45.588776 6.684578 37,975 354 365 -128
2021-12-07 08:36:11 GMT 45.581112 6.685936 37,975 354 365 -64
2021-12-07 08:36:07 GMT 45.572205 6.687458 38,000 354 365 -128
2021-12-07 08:36:04 GMT 45.569286 6.687996 38,000 354 364 -128
2021-12-07 08:36:01 GMT 45.563793 6.688889 38,000 354 364 -64
2021-12-07 08:35:58 GMT 45.559326 6.689713 38,000 354 364 -64
2021-12-07 08:35:54 GMT 45.552521 6.690875 38,000 354 365 0
2021-12-07 08:35:50 GMT 45.546432 6.691947 38,000 354 365 0
2021-12-07 08:35:46 GMT 45.538795 6.693286 38,000 354 365 0
2021-12-07 08:35:43 GMT 45.532150 6.694401 38,000 354 365 0
2021-12-07 08:35:40 GMT 45.529633 6.694859 38,000 354 365 0
2021-12-07 08:35:36 GMT 45.521805 6.696167 38,000 354 366 0
2021-12-07 08:35:31 GMT 45.513519 6.697671 38,000 353 366 64
2021-12-07 08:35:27 GMT 45.507465 6.698713 38,000 354 369 0
2021-12-07 08:35:24 GMT 45.501480 6.699698 38,000 354 367 0
2021-12-07 08:35:21 GMT 45.496490 6.700614 38,000 354 367 0
2021-12-07 08:35:17 GMT 45.490753 6.701593 38,000 354 369 0
2021-12-07 08:35:14 GMT 45.485092 6.702576 38,000 354 367 -64
2021-12-07 08:35:10 GMT 45.479050 6.703622 38,000 353 368 -64
2021-12-07 08:35:06 GMT 45.472923 6.704675 38,000 354 369 0
2021-12-07 08:35:03 GMT 45.467102 6.705649 38,000 353 368 -64
2021-12-07 08:35:00 GMT 45.461746 6.706630 38,000 354 369 0
2021-12-07 08:34:56 GMT 45.455048 6.707756 38,000 354 369 0
2021-12-07 08:34:53 GMT 45.450027 6.708657 38,000 353 368 64
2021-12-07 08:34:50 GMT 45.445038 6.709565 38,000 353 371 0
2021-12-07 08:34:47 GMT 45.440247 6.710369 38,000 353 369 0
2021-12-07 08:34:44 GMT 45.434235 6.711469 38,000 353 370 0
2021-12-07 08:34:40 GMT 45.427231 6.712712 38,000 353 371 0
2021-12-07 08:34:37 GMT 45.423065 6.713383 38,000 353 372 -64
2021-12-07 08:34:34 GMT 45.416107 6.714674 38,000 353 373 0
2021-12-07 08:34:30 GMT 45.410404 6.715661 38,000 354 376 0
2021-12-07 08:34:26 GMT 45.403931 6.716766 38,000 354 375 0
2021-12-07 08:34:23 GMT 45.398758 6.717682 38,000 354 378 0
2021-12-07 08:34:20 GMT 45.392574 6.718743 38,000 354 377 0
2021-12-07 08:34:17 GMT 45.388153 6.719479 38,000 354 378 0
2021-12-07 08:34:14 GMT 45.383778 6.720216 38,000 354 379 0
2021-12-07 08:34:11 GMT 45.378433 6.721148 38,000 354 382 0
2021-12-07 08:34:07 GMT 45.368454 6.722848 38,000 354 383 64
2021-12-07 08:34:03 GMT 45.363144 6.723764 38,000 354 384 0
2021-12-07 08:33:59 GMT 45.356781 6.724810 38,000 354 390 0
2021-12-07 08:33:56 GMT 45.351841 6.725643 38,000 354 390 0
2021-12-07 08:33:52 GMT 45.344147 6.726968 38,000 354 389 64
2021-12-07 08:33:49 GMT 45.339111 6.727818 38,000 354 390 0
2021-12-07 08:33:45 GMT 45.330196 6.729327 38,000 354 393 0
2021-12-07 08:33:39 GMT 45.321213 6.730826 38,000 354 395 0
2021-12-07 08:33:36 GMT 45.315170 6.731807 38,000 354 394 64
2021-12-07 08:33:32 GMT 45.308174 6.733011 38,000 354 395 64
2021-12-07 08:33:29 GMT 45.302635 6.733882 38,000 354 395 64
2021-12-07 08:33:25 GMT 45.296120 6.735021 38,000 354 395 64
2021-12-07 08:33:20 GMT 45.284618 6.736964 38,000 354 395 64
2021-12-07 08:33:16 GMT 45.277313 6.738216 38,000 354 395 0
2021-12-07 08:33:12 GMT 45.271725 6.739174 37,975 353 396 0
2021-12-07 08:33:06 GMT 45.260971 6.741093 38,000 353 395 0
2021-12-07 08:33:03 GMT 45.253990 6.742323 38,000 353 394 -64
2021-12-07 08:32:58 GMT 45.247238 6.743513 38,000 353 391 -64
2021-12-07 08:32:55 GMT 45.240860 6.744601 38,025 353 391 -64
2021-12-07 08:32:51 GMT 45.234577 6.745739 38,025 353 390 -64
2021-12-07 08:32:47 GMT 45.227234 6.746979 38,025 353 390 -64
2021-12-07 08:32:44 GMT 45.221741 6.747960 38,025 353 390 -128
2021-12-07 08:32:41 GMT 45.216156 6.749006 38,025 353 390 -64
2021-12-07 08:32:38 GMT 45.211300 6.749893 38,025 354 395 128
2021-12-07 08:32:35 GMT 45.205063 6.750965 38,025 353 392 -64
2021-12-07 08:32:32 GMT 45.199711 6.751903 38,000 354 393 -64
2021-12-07 08:32:28 GMT 45.192867 6.753108 38,025 354 396 128
2021-12-07 08:32:25 GMT 45.186676 6.754172 38,025 354 397 -64
2021-12-07 08:32:22 GMT 45.181087 6.755118 38,000 354 404 0
2021-12-07 08:32:18 GMT 45.174545 6.756199 38,000 354 402 128
2021-12-07 08:32:15 GMT 45.167953 6.757246 38,000 354 404 0
2021-12-07 08:32:11 GMT 45.162415 6.758161 37,975 354 405 64
2021-12-07 08:32:08 GMT 45.156052 6.759208 38,025 354 407 0
2021-12-07 08:32:02 GMT 45.144360 6.761214 38,025 354 412 -192
2021-12-07 08:31:57 GMT 45.136070 6.762621 38,025 354 413 -256
2021-12-07 08:31:53 GMT 45.128761 6.763894 38,050 354 414 -192
2021-12-07 08:31:50 GMT 45.121490 6.765093 38,050 353 415 -64
2021-12-07 08:31:46 GMT 45.113400 6.766506 38,025 354 416 64
2021-12-07 08:31:42 GMT 45.105907 6.767779 38,050 354 416 0
2021-12-07 08:31:38 GMT 45.097046 6.769344 38,050 354 415 0
2021-12-07 08:31:35 GMT 45.091461 6.770259 38,050 354 415 0
2021-12-07 08:31:32 GMT 45.086014 6.771175 38,050 354 414 0
2021-12-07 08:31:27 GMT 45.077789 6.772535 38,050 354 415 0
2021-12-07 08:31:24 GMT 45.073013 6.773333 38,050 354 415 0
2021-12-07 08:31:21 GMT 45.067200 6.774379 38,050 354 415 0
2021-12-07 08:31:17 GMT 45.059261 6.775684 38,050 354 415 -64
2021-12-07 08:31:14 GMT 45.051533 6.777024 38,050 354 415 64
2021-12-07 08:31:11 GMT 45.047928 6.777649 38,050 354 415 64
2021-12-07 08:31:08 GMT 45.043259 6.778434 38,050 354 415 0
2021-12-07 08:31:05 GMT 45.036346 6.779611 38,050 354 415 0
2021-12-07 08:31:01 GMT 45.028152 6.781049 38,050 354 415 0
2021-12-07 08:30:57 GMT 45.022160 6.782048 38,050 354 415 0
2021-12-07 08:30:53 GMT 45.013916 6.783404 38,050 354 415 128
2021-12-07 08:30:49 GMT 45.006332 6.784661 38,050 354 416 64
2021-12-07 08:30:46 GMT 45.000607 6.785665 38,025 353 416 64
2021-12-07 08:30:43 GMT 44.995483 6.786536 38,050 353 415 128
2021-12-07 08:30:40 GMT 44.971481 6.790728 38,025 353 414 0
2021-12-07 08:30:32 GMT 44.971481 6.790728 38,025 353 414 0
2021-12-07 08:30:28 GMT 44.966721 6.791578 38,025 353 414 0
2021-12-07 08:30:23 GMT 44.956009 6.793436 38,025 354 413 -64
2021-12-07 08:30:20 GMT 44.950375 6.794374 38,025 354 412 0
2021-12-07 08:30:17 GMT 44.944603 6.795379 38,025 354 412 64
2021-12-07 08:30:12 GMT 44.935013 6.797054 38,025 354 409 64
2021-12-07 08:30:09 GMT 44.929146 6.797991 38,025 354 409 64
2021-12-07 08:30:06 GMT 44.923141 6.799033 38,000 354 408 64
2021-12-07 08:30:03 GMT 44.917694 6.799949 38,000 354 407 0
2021-12-07 08:29:56 GMT 44.905174 6.802011 38,000 354 404 64
2021-12-07 08:29:53 GMT 44.899429 6.802957 38,000 354 404 0
2021-12-07 08:29:50 GMT 44.894760 6.803741 38,000 354 404 0
2021-12-07 08:29:45 GMT 44.884369 6.805442 38,000 354 402 0
2021-12-07 08:29:42 GMT 44.879929 6.806226 38,000 354 402 0
2021-12-07 08:29:39 GMT 44.874775 6.807102 38,000 354 402 0
2021-12-07 08:29:36 GMT 44.867512 6.808308 38,000 354 394 0
2021-12-07 08:29:30 GMT 44.856667 6.810117 38,025 354 398 0
2021-12-07 08:29:26 GMT 44.850056 6.811255 38,025 354 397 64
2021-12-07 08:29:22 GMT 44.842117 6.812570 38,000 354 396 0
2021-12-07 08:29:17 GMT 44.834553 6.813868 38,000 354 394 64
2021-12-07 08:29:14 GMT 44.828156 6.814989 38,000 354 394 64
2021-12-07 08:29:11 GMT 44.822636 6.815878 38,000 354 393 64
2021-12-07 08:29:05 GMT 44.811928 6.817686 38,000 354 388 64
2021-12-07 08:29:01 GMT 44.804626 6.818913 38,000 354 391 -64
2021-12-07 08:28:57 GMT 44.796101 6.820366 38,000 354 390 -64
2021-12-07 08:28:52 GMT 44.787094 6.821856 38,000 354 389 64
2021-12-07 08:28:48 GMT 44.780365 6.822968 38,000 354 388 64
2021-12-07 08:28:40 GMT 44.767517 6.825189 38,000 354 388 -64
2021-12-07 08:28:34 GMT 44.756195 6.827087 38,000 342 372 -192
2021-12-07 08:28:31 GMT 44.751434 6.827872 38,000 341 381 64
2021-12-07 08:28:25 GMT 44.740723 6.829834 38,000 348 377 128
2021-12-07 08:28:21 GMT 44.733490 6.831403 38,000 343 373 -64
2021-12-07 08:28:17 GMT 44.726273 6.833228 38,000 349 377 128
2021-12-07 08:28:11 GMT 44.716919 6.836046 38,000 341 371 -64
2021-12-07 08:28:08 GMT 44.711422 6.837917 38,000 344 374 -64
2021-12-07 08:28:04 GMT 44.704624 6.840530 38,000 343 373 -64
2021-12-07 08:28:00 GMT 44.697689 6.843411 38,025 343 373 -128
2021-12-07 08:27:57 GMT 44.692520 6.845688 38,025 341 371 0
2021-12-07 08:27:53 GMT 44.686146 6.848703 38,025 341 380 -128
2021-12-07 08:27:50 GMT 44.682095 6.850779 38,000 341 371 64
2021-12-07 08:27:46 GMT 44.676178 6.853768 38,000 341 371 -64
2021-12-07 08:27:42 GMT 44.668900 6.857431 38,000 340 374 64
2021-12-07 08:27:39 GMT 44.663361 6.860243 38,000 340 381 -128
2021-12-07 08:27:32 GMT 44.653290 6.865409 38,000 340 376 128
2021-12-07 08:27:29 GMT 44.646652 6.868809 38,000 341 381 64
2021-12-07 08:27:26 GMT 44.642338 6.871010 38,000 340 377 64
2021-12-07 08:27:22 GMT 44.636333 6.874092 38,000 340 379 -64
2021-12-07 08:27:18 GMT 44.629864 6.877441 38,000 341 381 64
2021-12-07 08:27:12 GMT 44.619507 6.882738 38,000 341 381 64
2021-12-07 08:27:09 GMT 44.614197 6.885420 38,000 341 354 -64
2021-12-07 08:27:01 GMT 44.601654 6.891710 38,000 341 381 64
2021-12-07 08:26:56 GMT 44.590805 6.897191 37,975 340 382 128
2021-12-07 08:26:51 GMT 44.584946 6.900199 37,975 340 382 -64
2021-12-07 08:26:48 GMT 44.579224 6.903076 37,975 340 382 -64
2021-12-07 08:26:41 GMT 44.568146 6.908766 38,000 340 378 -128
2021-12-07 08:26:38 GMT 44.562317 6.911740 38,000 340 377 128
2021-12-07 08:26:34 GMT 44.556931 6.914520 38,000 340 377 128
2021-12-07 08:26:31 GMT 44.551758 6.917136 37,975 340 376 128
2021-12-07 08:26:28 GMT 44.535095 6.925637 38,000 341 373 128
2021-12-07 08:26:21 GMT 44.535095 6.925637 38,000 341 369 64
2021-12-07 08:26:18 GMT 44.531799 6.927338 38,000 341 371 -64
2021-12-07 08:26:15 GMT 44.526031 6.930150 38,000 341 370 -192
2021-12-07 08:26:10 GMT 44.518707 6.933812 38,000 341 368 0
2021-12-07 08:26:07 GMT 44.512344 6.936951 38,025 341 367 -256
2021-12-07 08:26:01 GMT 44.501953 6.942117 37,975 341 366 -128
2021-12-07 08:25:57 GMT 44.497238 6.944536 37,975 340 366 128
2021-12-07 08:25:53 GMT 44.489822 6.948329 37,975 340 364 -64
2021-12-07 08:25:50 GMT 44.485428 6.950553 37,975 340 364 0
2021-12-07 08:25:47 GMT 44.480347 6.953169 37,975 341 362 -192
2021-12-07 08:25:42 GMT 44.472843 6.957025 38,000 341 360 -64
2021-12-07 08:25:39 GMT 44.462135 6.962384 38,000 341 358 -128
2021-12-07 08:25:36 GMT 44.462135 6.962384 38,000 341 356 64
2021-12-07 08:25:30 GMT 44.454071 6.966444 38,000 341 356 0
2021-12-07 08:25:27 GMT 44.449722 6.968667 38,000 341 354 -64
2021-12-07 08:25:24 GMT 44.445049 6.971026 38,000 340 353 64
2021-12-07 08:25:20 GMT 44.437775 6.974683 38,000 340 353 64
2021-12-07 08:25:17 GMT 44.435043 6.976117 38,000 341 352 64
2021-12-07 08:25:14 GMT 44.429642 6.978797 38,000 341 352 64
2021-12-07 08:25:09 GMT 44.422009 6.982749 38,000 341 351 0
2021-12-07 08:25:06 GMT 44.416931 6.985295 38,000 341 351 -64
2021-12-07 08:24:59 GMT 44.406326 6.990640 38,000 341 350 64
2021-12-07 08:24:56 GMT 44.401058 6.993334 38,000 341 350 64
2021-12-07 08:24:48 GMT 44.391220 6.998291 38,000 341 350 -64
2021-12-07 08:24:45 GMT 44.386551 7.000645 38,025 341 350 -64
2021-12-07 08:24:39 GMT 44.375130 7.006330 38,025 341 352 -64
2021-12-07 08:24:35 GMT 44.369961 7.008942 38,025 341 353 -64
2021-12-07 08:24:32 GMT 44.365814 7.010978 38,025 341 354 64
2021-12-07 08:24:29 GMT 44.361816 7.012962 38,025 341 355 0
2021-12-07 08:24:26 GMT 44.353764 7.016981 38,000 341 357 64
2021-12-07 08:24:21 GMT 44.347664 7.019996 38,000 341 359 64
2021-12-07 08:24:18 GMT 44.343891 7.021871 37,950 341 362 128
2021-12-07 08:24:15 GMT 44.338306 7.024685 37,975 341 362 64
2021-12-07 08:24:11 GMT 44.332115 7.027767 37,950 341 369 128
2021-12-07 08:24:08 GMT 44.326767 7.030465 37,950 341 366 128
2021-12-07 08:24:04 GMT 44.322144 7.032819 37,950 341 370 64
2021-12-07 08:24:01 GMT 44.316101 7.035872 37,975 341 371 64
2021-12-07 08:23:57 GMT 44.310932 7.038418 37,975 341 371 -128
2021-12-07 08:23:54 GMT 44.305389 7.041255 37,975 341 371 -128
2021-12-07 08:23:47 GMT 44.289001 7.049495 38,000 341 369 0
2021-12-07 08:23:44 GMT 44.289001 7.049495 38,000 341 369 64
2021-12-07 08:23:40 GMT 44.283325 7.052307 37,975 341 369 64
2021-12-07 08:23:37 GMT 44.278069 7.054897 37,975 341 369 64
2021-12-07 08:23:33 GMT 44.270947 7.058448 37,975 341 369 64
2021-12-07 08:23:30 GMT 44.265919 7.060926 37,975 341 369 64
2021-12-07 08:23:27 GMT 44.261078 7.063359 37,975 341 369 64
2021-12-07 08:23:23 GMT 44.256271 7.065778 37,975 341 369 64
2021-12-07 08:23:19 GMT 44.249588 7.069048 37,975 341 369 0
2021-12-07 08:23:16 GMT 44.244781 7.071468 37,975 341 369 0
2021-12-07 08:23:13 GMT 44.238464 7.074607 37,975 341 369 0
2021-12-07 08:23:09 GMT 44.234169 7.076803 37,975 341 369 0
2021-12-07 08:23:06 GMT 44.228577 7.079577 37,975 341 369 -64
2021-12-07 08:23:03 GMT 44.222626 7.082564 37,975 341 369 -64
2021-12-07 08:22:57 GMT 44.214710 7.086584 38,000 341 369 -128
2021-12-07 08:22:54 GMT 44.207794 7.090105 38,000 341 369 -64
2021-12-07 08:22:46 GMT 44.194794 7.096645 38,000 341 368 0
2021-12-07 08:22:42 GMT 44.188969 7.099588 38,000 341 368 -64
2021-12-07 08:22:37 GMT 44.182434 7.102853 38,000 341 368 0
2021-12-07 08:22:31 GMT 44.172638 7.107643 38,000 341 368 -64
2021-12-07 08:22:27 GMT 44.167007 7.110454 38,000 341 368 -64
2021-12-07 08:22:24 GMT 44.161736 7.113059 38,000 341 369 -64
2021-12-07 08:22:21 GMT 44.156158 7.115883 38,025 341 369 -64
2021-12-07 08:22:18 GMT 44.150803 7.118566 38,025 340 369 -64
2021-12-07 08:22:15 GMT 44.146957 7.120546 38,025 340 369 -64
2021-12-07 08:22:11 GMT 44.140411 7.123849 38,025 340 369 -128
2021-12-07 08:22:07 GMT 44.134083 7.127053 38,025 340 369 -128
2021-12-07 08:22:04 GMT 44.129974 7.129169 38,050 340 369 -128
2021-12-07 08:22:01 GMT 44.124165 7.132089 38,050 340 370 -64
2021-12-07 08:21:55 GMT 44.114994 7.136732 38,050 341 370 -64
2021-12-07 08:21:51 GMT 44.107910 7.140283 38,050 341 370 0
2021-12-07 08:21:47 GMT 44.102055 7.143206 38,050 341 370 0
2021-12-07 08:21:43 GMT 44.089672 7.149353 38,050 341 371 64
2021-12-07 08:21:37 GMT 44.085575 7.151380 38,050 341 371 64
2021-12-07 08:21:33 GMT 44.069641 7.159317 38,050 341 372 64
2021-12-07 08:21:27 GMT 44.069641 7.159317 38,050 341 372 64
2021-12-07 08:21:24 GMT 44.064812 7.161713 38,050 341 372 64
2021-12-07 08:21:21 GMT 44.058529 7.164786 38,025 341 373 128
2021-12-07 08:21:16 GMT 44.052151 7.167925 38,025 341 374 128
2021-12-07 08:21:10 GMT 44.040882 7.173418 38,025 341 374 128
2021-12-07 08:21:07 GMT 44.036182 7.175773 38,000 341 374 128
2021-12-07 08:21:01 GMT 44.026566 7.180460 38,000 341 374 192
2021-12-07 08:20:55 GMT 44.016678 7.185378 37,975 341 374 128
2021-12-07 08:20:51 GMT 44.011139 7.188125 37,975 341 374 128
2021-12-07 08:20:48 GMT 44.006531 7.190356 37,975 341 374 128
2021-12-07 08:20:44 GMT 43.999546 7.193821 37,950 341 373 0
2021-12-07 08:20:40 GMT 43.993835 7.196620 37,950 341 373 -128
2021-12-07 08:20:36 GMT 43.987198 7.199877 37,950 341 373 -128
2021-12-07 08:20:33 GMT 43.982483 7.202177 37,950 341 372 -128
2021-12-07 08:20:30 GMT 43.977493 7.204668 37,975 341 372 -64
2021-12-07 08:20:26 GMT 43.971039 7.207862 37,975 341 370 -64
2021-12-07 08:20:23 GMT 43.966076 7.210301 37,975 341 370 -64
2021-12-07 08:20:20 GMT 43.959652 7.213505 37,975 341 369 64
2021-12-07 08:20:16 GMT 43.954624 7.215990 37,975 341 367 64
2021-12-07 08:20:13 GMT 43.948837 7.218912 37,950 341 367 64
2021-12-07 08:20:09 GMT 43.942753 7.221941 37,950 341 366 0
2021-12-07 08:20:04 GMT 43.935863 7.225342 37,950 341 366 -192
2021-12-07 08:19:59 GMT 43.925949 7.230345 37,975 341 366 -192
2021-12-07 08:19:55 GMT 43.920685 7.232964 37,975 340 365 -192
2021-12-07 08:19:52 GMT 43.916107 7.235264 38,000 340 365 -192
2021-12-07 08:19:49 GMT 43.910538 7.238094 38,025 340 365 -192
2021-12-07 08:19:44 GMT 43.903656 7.241523 38,025 341 365 -128
2021-12-07 08:19:39 GMT 43.895874 7.245420 38,050 341 365 -128
2021-12-07 08:19:35 GMT 43.888916 7.248869 38,050 341 366 0
2021-12-07 08:19:29 GMT 43.879257 7.253659 38,050 341 367 0
2021-12-07 08:19:25 GMT 43.872597 7.256927 38,050 341 368 0
2021-12-07 08:19:19 GMT 43.863464 7.261452 38,050 341 370 0
2021-12-07 08:19:15 GMT 43.856491 7.264906 38,050 341 370 0
2021-12-07 08:19:11 GMT 43.850922 7.267648 38,025 341 372 0
2021-12-07 08:19:08 GMT 43.843872 7.271161 38,050 341 372 0
2021-12-07 08:19:05 GMT 43.840523 7.272753 38,050 341 372 0
2021-12-07 08:19:01 GMT 43.830505 7.277676 38,050 341 373 64
2021-12-07 08:18:58 GMT 43.830505 7.277676 38,050 341 373 64
2021-12-07 08:18:55 GMT 43.823364 7.281189 38,000 341 372 64
2021-12-07 08:18:49 GMT 43.813988 7.285767 38,025 341 373 64
2021-12-07 08:18:44 GMT 43.807114 7.289173 38,000 341 372 64
2021-12-07 08:18:41 GMT 43.801418 7.291914 38,025 341 374 0
2021-12-07 08:18:37 GMT 43.796021 7.294595 38,025 341 374 0
2021-12-07 08:18:34 GMT 43.790714 7.297211 38,025 341 374 0
2021-12-07 08:18:29 GMT 43.782707 7.301134 38,025 341 374 64
2021-12-07 08:18:26 GMT 43.776749 7.304077 38,025 341 373 64
2021-12-07 08:18:24 GMT 43.773651 7.305589 38,000 341 372 64
2021-12-07 08:18:20 GMT 43.767296 7.308720 38,000 341 373 0
2021-12-07 08:18:16 GMT 43.760685 7.311990 38,000 341 373 64
2021-12-07 08:18:14 GMT 43.757336 7.313625 38,000 341 373 64
2021-12-07 08:18:08 GMT 43.746674 7.318856 38,000 341 372 64
2021-12-07 08:18:03 GMT 43.740948 7.321668 38,000 341 372 64
2021-12-07 08:17:57 GMT 43.730301 7.326859 38,000 341 372 0
2021-12-07 08:17:53 GMT 43.724422 7.329777 38,000 341 372 0
2021-12-07 08:17:48 GMT 43.714367 7.334682 38,000 341 372 -64
2021-12-07 08:17:44 GMT 43.708500 7.337559 38,000 341 372 0
2021-12-07 08:17:36 GMT 43.696911 7.343249 38,000 341 371 -64
2021-12-07 08:17:33 GMT 43.691231 7.346061 38,025 341 371 -64
2021-12-07 08:17:27 GMT 43.679825 7.351685 38,025 341 370 -64
2021-12-07 08:17:23 GMT 43.675507 7.353814 38,025 341 370 -64
2021-12-07 08:17:16 GMT 43.663857 7.359597 38,025 341 370 -64
2021-12-07 08:17:13 GMT 43.659157 7.361886 38,025 341 370 0
2021-12-07 08:17:06 GMT 43.647099 7.367772 38,025 341 370 0
2021-12-07 08:17:03 GMT 43.642910 7.369864 38,025 341 370 0
2021-12-07 08:16:56 GMT 43.630325 7.376042 38,025 341 370 0
2021-12-07 08:16:52 GMT 43.625313 7.378496 38,025 341 370 64
2021-12-07 08:16:45 GMT 43.614418 7.383859 38,025 341 370 64
2021-12-07 08:16:42 GMT 43.609066 7.386475 38,025 341 370 64
2021-12-07 08:16:36 GMT 43.599792 7.391052 38,000 341 370 64
2021-12-07 08:16:33 GMT 43.592926 7.394374 38,000 341 370 64
2021-12-07 08:16:26 GMT 43.582947 7.399164 38,000 341 370 64
2021-12-07 08:16:24 GMT 43.579742 7.400697 38,000 341 370 64
2021-12-07 08:16:20 GMT 43.574295 7.403316 37,975 341 370 128
2021-12-07 08:16:16 GMT 43.566971 7.406893 38,000 340 369 64
2021-12-07 08:16:14 GMT 43.564468 7.408120 38,000 340 369 64
2021-12-07 08:16:11 GMT 43.556835 7.412109 37,975 339 367 64
2021-12-07 08:16:05 GMT 43.550270 7.415706 37,975 338 366 64
2021-12-07 08:16:03 GMT 43.546921 7.417624 37,975 337 365 64
2021-12-07 08:16:00 GMT 43.541885 7.420626 37,975 336 364 0
2021-12-07 08:15:55 GMT 43.534836 7.424905 37,975 336 364 64
2021-12-07 08:15:52 GMT 43.524296 7.431401 38,000 336 360 64
2021-12-07 08:15:49 GMT 43.524296 7.431401 37,975 336 364 0
2021-12-07 08:15:44 GMT 43.517166 7.435764 37,975 336 363 0
2021-12-07 08:15:41 GMT 43.512379 7.438725 37,975 336 363 -64
2021-12-07 08:15:35 GMT 43.503952 7.443891 37,975 336 362 -64
2021-12-07 08:15:32 GMT 43.497849 7.447645 37,975 336 361 -64
2021-12-07 08:15:28 GMT 43.493382 7.450431 37,975 336 360 -64
2021-12-07 08:15:24 GMT 43.485306 7.455437 37,975 336 360 -64
2021-12-07 08:15:21 GMT 43.482239 7.457290 37,975 336 360 -64
2021-12-07 08:15:18 GMT 43.478394 7.459717 37,975 336 359 -64
2021-12-07 08:15:12 GMT 43.468338 7.465929 38,000 336 359 -64
2021-12-07 08:15:09 GMT 43.462784 7.469362 38,000 336 359 -64
2021-12-07 08:15:03 GMT 43.454605 7.474431 38,000 336 359 -64
2021-12-07 08:14:58 GMT 43.447128 7.479007 38,000 336 360 -64
2021-12-07 08:14:54 GMT 43.442734 7.481753 38,000 336 360 -64
2021-12-07 08:14:51 GMT 43.437332 7.485075 38,000 336 360 -64
2021-12-07 08:14:48 GMT 43.431793 7.488425 38,025 336 360 -64
2021-12-07 08:14:45 GMT 43.427746 7.490910 38,025 336 360 0
2021-12-07 08:14:41 GMT 43.419525 7.495933 38,000 336 360 64
2021-12-07 08:14:38 GMT 43.416550 7.497786 38,000 336 360 64
2021-12-07 08:14:34 GMT 43.412109 7.500532 38,000 336 360 64
2021-12-07 08:14:32 GMT 43.406563 7.503924 38,000 336 361 -64
2021-12-07 08:14:28 GMT 43.401443 7.507063 38,000 336 361 -64
2021-12-07 08:14:25 GMT 43.397488 7.509482 38,000 336 361 0
2021-12-07 08:14:21 GMT 43.391373 7.513243 38,000 336 361 -64
2021-12-07 08:14:18 GMT 43.385971 7.516501 38,025 336 360 -64
2021-12-07 08:14:14 GMT 43.381424 7.519291 38,000 336 361 0
2021-12-07 08:14:11 GMT 43.376221 7.522505 38,000 336 361 0
2021-12-07 08:14:08 GMT 43.371231 7.525507 38,000 336 361 0
2021-12-07 08:14:05 GMT 43.366482 7.528447 38,025 336 361 0
2021-12-07 08:14:02 GMT 43.360107 7.532342 38,025 336 361 -64
2021-12-07 08:13:59 GMT 43.358055 7.533613 38,025 336 361 -64
2021-12-07 08:13:55 GMT 43.351227 7.537771 38,000 337 360 0
2021-12-07 08:13:49 GMT 43.342667 7.542945 38,025 336 360 0
2021-12-07 08:13:45 GMT 43.335480 7.547280 38,025 336 360 -64
2021-12-07 08:13:41 GMT 43.330719 7.550226 38,025 336 360 0
2021-12-07 08:13:38 GMT 43.324493 7.554016 38,025 336 359 0
2021-12-07 08:13:35 GMT 43.320419 7.556486 38,025 337 359 0
2021-12-07 08:13:29 GMT 43.312016 7.561667 38,025 337 359 64
2021-12-07 08:13:25 GMT 43.305405 7.565656 38,025 337 358 64
2021-12-07 08:13:23 GMT 43.302612 7.567408 38,025 337 358 64
2021-12-07 08:13:19 GMT 43.296700 7.570953 38,000 337 357 64
2021-12-07 08:13:15 GMT 43.289764 7.575204 38,000 337 357 64
2021-12-07 08:13:11 GMT 43.284737 7.578212 38,000 337 357 64
2021-12-07 08:13:07 GMT 43.278126 7.582267 38,000 337 357 64
2021-12-07 08:13:04 GMT 43.273518 7.585079 38,000 337 356 0
2021-12-07 08:13:00 GMT 43.268257 7.588283 38,000 337 356 64
2021-12-07 08:12:57 GMT 43.263245 7.591297 38,000 337 356 0
2021-12-07 08:12:54 GMT 43.258804 7.594044 38,000 337 356 0
2021-12-07 08:12:48 GMT 43.250381 7.599073 38,000 337 356 0
2021-12-07 08:12:45 GMT 43.243492 7.603258 38,000 337 356 0
2021-12-07 08:12:41 GMT 43.239071 7.605940 38,000 337 356 0
2021-12-07 08:12:38 GMT 43.234589 7.608671 38,000 337 356 0
2021-12-07 08:12:34 GMT 43.228268 7.612479 38,000 337 355 0
2021-12-07 08:12:31 GMT 43.223801 7.615160 38,000 337 355 0
2021-12-07 08:12:27 GMT 43.217701 7.618888 38,000 337 355 0
2021-12-07 08:12:24 GMT 43.213326 7.621504 38,000 337 355 -64
2021-12-07 08:12:20 GMT 43.207947 7.624767 38,000 337 355 0
2021-12-07 08:12:17 GMT 43.201538 7.628664 38,000 337 355 -64
2021-12-07 08:12:14 GMT 43.198196 7.630659 38,000 337 355 0
2021-12-07 08:12:10 GMT 43.193539 7.633471 38,000 337 355 0
2021-12-07 08:12:06 GMT 43.186981 7.637478 38,000 337 355 0
2021-12-07 08:12:03 GMT 43.182137 7.640403 38,000 337 355 0
2021-12-07 08:12:00 GMT 43.177898 7.642953 38,000 337 355 0
2021-12-07 08:11:56 GMT 43.171803 7.646681 38,000 337 355 0
2021-12-07 08:11:53 GMT 43.166931 7.649614 38,000 337 355 0
2021-12-07 08:11:49 GMT 43.161896 7.652680 37,975 337 355 0
2021-12-07 08:11:46 GMT 43.156719 7.655836 38,000 337 355 -64
2021-12-07 08:11:43 GMT 43.152203 7.658582 38,000 337 355 -64
2021-12-07 08:11:40 GMT 43.147686 7.661329 38,000 337 355 -64
2021-12-07 08:11:37 GMT 43.142715 7.664305 38,000 337 355 -64
2021-12-07 08:11:33 GMT 43.137539 7.667476 38,000 337 355 0
2021-12-07 08:11:30 GMT 43.132416 7.670550 38,000 337 355 -64
2021-12-07 08:11:27 GMT 43.128571 7.672864 38,000 337 355 -64
2021-12-07 08:11:24 GMT 43.121525 7.677089 38,000 337 355 -64
2021-12-07 08:11:19 GMT 43.116257 7.680274 38,000 337 355 -64
2021-12-07 08:11:16 GMT 43.111313 7.683276 38,000 337 355 -64
2021-12-07 08:11:13 GMT 43.107742 7.685384 38,000 337 354 -64
2021-12-07 08:11:10 GMT 43.102299 7.688664 38,000 337 354 -64
2021-12-07 08:11:06 GMT 43.094894 7.693111 38,025 337 354 -64
2021-12-07 08:11:02 GMT 43.090660 7.695727 38,025 336 353 -64
2021-12-07 08:10:59 GMT 43.086273 7.698350 38,025 336 353 0
2021-12-07 08:10:55 GMT 43.079773 7.702310 38,025 337 353 64
2021-12-07 08:10:52 GMT 43.076229 7.704424 38,025 337 353 64
2021-12-07 08:10:49 GMT 43.070892 7.707676 38,025 337 353 0
2021-12-07 08:10:45 GMT 43.064163 7.711764 38,025 337 353 0
2021-12-07 08:10:42 GMT 43.060822 7.713744 38,025 337 353 0
2021-12-07 08:10:39 GMT 43.056911 7.716130 38,025 337 353 0
2021-12-07 08:10:35 GMT 43.050625 7.719923 38,025 337 352 0
2021-12-07 08:10:32 GMT 43.046158 7.722604 38,025 337 353 0
2021-12-07 08:10:29 GMT 43.041409 7.725416 38,025 337 352 0
2021-12-07 08:10:25 GMT 43.035690 7.728818 38,025 337 353 0
2021-12-07 08:10:22 GMT 43.029053 7.732842 38,025 337 353 0
2021-12-07 08:10:19 GMT 43.026745 7.734179 38,025 337 352 64
2021-12-07 08:10:16 GMT 43.021343 7.737514 38,025 337 353 0
2021-12-07 08:10:13 GMT 43.015915 7.740762 38,025 337 353 0
2021-12-07 08:10:09 GMT 43.011383 7.743509 38,025 337 353 0
2021-12-07 08:10:05 GMT 43.005283 7.747192 38,025 337 353 0
2021-12-07 08:10:02 GMT 43.000629 7.750004 38,025 337 353 0
2021-12-07 08:09:59 GMT 42.996670 7.752359 38,025 337 353 0
2021-12-07 08:09:55 GMT 42.990200 7.756282 38,025 337 352 0
2021-12-07 08:09:52 GMT 42.986103 7.758702 38,025 337 352 0
2021-12-07 08:09:48 GMT 42.980656 7.761972 38,025 337 352 0
2021-12-07 08:09:45 GMT 42.975861 7.764843 38,025 337 352 0
2021-12-07 08:09:42 GMT 42.969772 7.768484 38,025 337 352 0
2021-12-07 08:09:39 GMT 42.966476 7.770464 38,025 337 352 0
2021-12-07 08:09:36 GMT 42.961716 7.773338 38,025 337 352 0
2021-12-07 08:09:34 GMT 42.960205 7.774232 38,025 337 352 0
2021-12-07 08:09:31 GMT 42.946518 7.782408 38,025 337 352 0
2021-12-07 08:09:26 GMT 42.946518 7.782408 38,025 337 352 -64
2021-12-07 08:09:24 GMT 42.944950 7.783356 38,025 337 352 -64
2021-12-07 08:09:21 GMT 42.940521 7.785985 38,025 337 352 -64
2021-12-07 08:09:18 GMT 42.936264 7.788604 38,025 337 352 -64
2021-12-07 08:09:15 GMT 42.929356 7.792773 38,025 337 352 -64
2021-12-07 08:09:12 GMT 42.926052 7.794734 38,025 336 351 -64
2021-12-07 08:09:08 GMT 42.921211 7.797677 38,050 336 351 0
2021-12-07 08:09:04 GMT 42.915894 7.800868 38,025 336 351 0
2021-12-07 08:09:02 GMT 42.910904 7.803934 38,025 336 350 0
2021-12-07 08:08:58 GMT 42.906418 7.806680 38,025 336 350 0
2021-12-07 08:08:55 GMT 42.899780 7.810704 38,025 336 350 0
2021-12-07 08:08:52 GMT 42.895981 7.813068 38,050 336 350 0
2021-12-07 08:08:48 GMT 42.890625 7.816325 38,050 336 350 0
2021-12-07 08:08:44 GMT 42.884666 7.819977 38,025 336 350 0
2021-12-07 08:08:41 GMT 42.880989 7.822135 38,025 337 350 64
2021-12-07 08:08:38 GMT 42.875916 7.825274 38,025 337 350 64
2021-12-07 08:08:34 GMT 42.869659 7.829036 38,025 337 350 64
2021-12-07 08:08:31 GMT 42.865253 7.831617 38,025 337 350 64
2021-12-07 08:08:28 GMT 42.861298 7.834037 38,025 337 350 0
2021-12-07 08:08:24 GMT 42.855339 7.837568 38,025 337 350 0
2021-12-07 08:08:21 GMT 42.851028 7.840150 38,025 337 350 0
2021-12-07 08:08:17 GMT 42.845097 7.843650 38,025 337 350 0
2021-12-07 08:08:14 GMT 42.839905 7.846729 38,025 337 350 0
2021-12-07 08:08:11 GMT 42.835922 7.849093 38,025 337 350 0
2021-12-07 08:08:08 GMT 42.831345 7.851839 38,025 337 350 0
2021-12-07 08:08:05 GMT 42.826950 7.854394 38,025 337 350 0
2021-12-07 08:08:01 GMT 42.820751 7.858102 38,025 337 350 0
2021-12-07 08:07:55 GMT 42.812370 7.863137 38,025 337 350 0
2021-12-07 08:07:53 GMT 42.809391 7.864903 38,025 337 349 0
2021-12-07 08:07:50 GMT 42.804363 7.867872 38,025 337 347 0
2021-12-07 08:07:45 GMT 42.797241 7.872141 38,000 337 349 64
2021-12-07 08:07:43 GMT 42.794540 7.873748 38,000 337 348 64
2021-12-07 08:07:40 GMT 42.790028 7.876431 38,000 337 349 64
2021-12-07 08:07:35 GMT 42.782318 7.881067 38,000 337 349 64
2021-12-07 08:07:30 GMT 42.775406 7.885250 38,000 337 349 64
2021-12-07 08:07:25 GMT 42.767540 7.889972 38,000 337 348 0
2021-12-07 08:07:23 GMT 42.764561 7.891824 38,000 337 348 0
2021-12-07 08:07:19 GMT 42.759953 7.894571 38,000 337 348 0
2021-12-07 08:07:15 GMT 42.752735 7.898851 37,975 337 348 64
2021-12-07 08:07:12 GMT 42.749496 7.900793 37,975 337 347 64
2021-12-07 08:07:09 GMT 42.744003 7.904039 37,975 337 347 64
2021-12-07 08:07:04 GMT 42.737656 7.907793 37,975 337 347 128
2021-12-07 08:07:02 GMT 42.734711 7.909532 37,975 337 347 128
2021-12-07 08:06:56 GMT 42.725830 7.914819 37,950 337 347 128
2021-12-07 08:06:53 GMT 42.720016 7.918334 37,950 337 347 64
2021-12-07 08:06:47 GMT 42.712006 7.923123 37,950 337 348 0
2021-12-07 08:06:44 GMT 42.708298 7.925325 37,950 337 348 0
2021-12-07 08:06:42 GMT 42.704544 7.927572 37,950 337 348 0
2021-12-07 08:06:37 GMT 42.697083 7.932004 37,950 337 347 0
2021-12-07 08:06:34 GMT 42.693382 7.934237 37,950 337 347 0
2021-12-07 08:06:32 GMT 42.689621 7.936436 37,950 337 347 0
2021-12-07 08:06:29 GMT 42.685097 7.939155 37,950 337 347 64
2021-12-07 08:06:22 GMT 42.674717 7.945287 37,950 337 347 0
2021-12-07 08:06:14 GMT 42.663685 7.951866 37,950 337 346 -64
2021-12-07 08:06:11 GMT 42.659866 7.954164 37,950 337 346 -64
2021-12-07 08:06:07 GMT 42.652603 7.958509 37,950 337 345 -128
2021-12-07 08:06:04 GMT 42.648647 7.960872 37,975 337 345 -128
2021-12-07 08:06:00 GMT 42.643013 7.964258 37,975 337 344 -64
2021-12-07 08:05:54 GMT 42.634552 7.969333 37,975 337 344 -64
2021-12-07 08:05:52 GMT 42.630726 7.971667 37,975 337 343 0
2021-12-07 08:05:44 GMT 42.619263 7.978446 37,975 337 344 0
2021-12-07 08:05:41 GMT 42.614960 7.980943 37,950 337 344 0
2021-12-07 08:05:38 GMT 42.611172 7.983164 37,975 337 344 64
2021-12-07 08:05:34 GMT 42.605122 7.986677 37,950 337 344 128
2021-12-07 08:05:30 GMT 42.599670 7.989807 37,950 337 344 64
2021-12-07 08:05:24 GMT 42.590130 7.995364 37,950 337 345 64
2021-12-07 08:05:21 GMT 42.585754 7.997984 37,925 337 345 0
2021-12-07 08:05:17 GMT 42.580681 8.000921 37,950 337 345 0
2021-12-07 08:05:14 GMT 42.575466 8.003987 37,950 337 345 0
2021-12-07 08:05:10 GMT 42.570831 8.006661 37,950 337 345 -64
2021-12-07 08:05:04 GMT 42.560806 8.012654 37,950 337 347 -64
2021-12-07 08:05:01 GMT 42.555683 8.015676 37,950 337 346 0
2021-12-07 08:04:54 GMT 42.545792 8.021643 37,950 337 346 0
2021-12-07 08:04:50 GMT 42.540710 8.024701 37,950 337 346 -64
2021-12-07 08:04:44 GMT 42.531197 8.030431 37,950 337 347 -64
2021-12-07 08:04:42 GMT 42.528351 8.032129 37,975 337 347 -64
2021-12-07 08:04:39 GMT 42.525192 8.034002 37,975 337 347 -64
2021-12-07 08:04:33 GMT 42.516624 8.039118 37,975 337 347 0
2021-12-07 08:04:29 GMT 42.510590 8.042741 37,975 336 348 0
2021-12-07 08:04:23 GMT 42.501915 8.047932 37,975 337 349 0
2021-12-07 08:04:19 GMT 42.495956 8.051573 37,975 337 350 0
2021-12-07 08:04:13 GMT 42.486877 8.056974 37,975 337 351 -64
2021-12-07 08:04:10 GMT 42.480835 8.060594 37,975 337 351 -64
2021-12-07 08:04:03 GMT 42.472183 8.065713 38,000 337 351 -64
2021-12-07 08:04:01 GMT 42.468349 8.067989 37,975 337 352 -64
2021-12-07 08:03:53 GMT 42.457085 8.074632 38,000 337 352 0
2021-12-07 08:03:51 GMT 42.452988 8.077059 38,000 337 353 0
2021-12-07 08:03:43 GMT 42.442001 8.083510 38,000 337 354 0
2021-12-07 08:03:40 GMT 42.437943 8.085875 38,000 337 354 0
2021-12-07 08:03:33 GMT 42.426266 8.092644 38,000 337 354 0
2021-12-07 08:03:30 GMT 42.422401 8.094880 38,000 337 355 0
2021-12-07 08:03:23 GMT 42.411137 8.101459 38,000 337 356 -64
2021-12-07 08:03:21 GMT 42.407318 8.103694 38,000 337 356 -64
2021-12-07 08:03:13 GMT 42.396332 8.110157 38,025 337 357 -64
2021-12-07 08:03:10 GMT 42.392395 8.112467 38,000 337 357 -64
2021-12-07 08:03:03 GMT 42.381271 8.118959 38,025 337 356 0
2021-12-07 08:03:00 GMT 42.376877 8.121518 38,000 337 357 64
2021-12-07 08:02:53 GMT 42.365887 8.127967 38,000 337 358 0
2021-12-07 08:02:50 GMT 42.361084 8.130757 38,025 337 359 0
2021-12-07 08:02:43 GMT 42.351013 8.136812 38,000 337 359 128
2021-12-07 08:02:38 GMT 42.343079 8.141508 38,025 337 359 0
2021-12-07 08:02:33 GMT 42.335026 8.146235 38,000 337 359 64
2021-12-07 08:02:30 GMT 42.331146 8.148547 37,975 337 360 -64
2021-12-07 08:02:23 GMT 42.319977 8.155101 38,000 337 360 -64
2021-12-07 08:02:20 GMT 42.315426 8.157796 38,000 337 360 -64
2021-12-07 08:02:12 GMT 42.303883 8.164566 38,000 337 360 64
2021-12-07 08:02:09 GMT 42.299877 8.166930 38,000 337 360 0
2021-12-07 08:02:03 GMT 42.289078 8.173253 38,000 337 359 64
2021-12-07 08:02:00 GMT 42.284794 8.175744 38,000 337 360 64
2021-12-07 08:01:53 GMT 42.273743 8.182255 38,000 337 360 0
2021-12-07 08:01:49 GMT 42.269302 8.184877 38,000 337 360 0
2021-12-07 08:01:43 GMT 42.258911 8.190946 38,000 337 360 -64
2021-12-07 08:01:40 GMT 42.253922 8.193866 38,000 337 359 0
2021-12-07 08:01:33 GMT 42.243164 8.200233 38,000 337 358 0
2021-12-07 08:01:29 GMT 42.238174 8.203167 38,000 337 357 0
2021-12-07 08:01:22 GMT 42.227646 8.209346 38,000 337 355 0
2021-12-07 08:01:19 GMT 42.223160 8.212025 38,000 337 355 0
2021-12-07 08:01:13 GMT 42.213383 8.217710 38,000 337 353 0
2021-12-07 08:01:09 GMT 42.207504 8.221207 38,000 337 352 0
2021-12-07 08:01:02 GMT 42.198021 8.226716 38,000 337 350 0
2021-12-07 08:00:59 GMT 42.192947 8.229718 38,000 337 349 0
2021-12-07 08:00:52 GMT 42.183266 8.235403 38,000 337 347 64
2021-12-07 08:00:49 GMT 42.177979 8.238498 37,975 337 346 0
2021-12-07 08:00:42 GMT 42.168640 8.243991 37,975 337 346 0
2021-12-07 08:00:37 GMT 42.160221 8.248944 37,975 337 347 0
2021-12-07 08:00:32 GMT 42.153469 8.252840 37,975 337 347 0
2021-12-07 08:00:28 GMT 42.145462 8.257503 37,975 337 347 0
2021-12-07 08:00:22 GMT 42.138840 8.261407 37,975 337 348 0
2021-12-07 08:00:18 GMT 42.132202 8.265277 37,975 337 349 -64
2021-12-07 08:00:12 GMT 42.123631 8.270342 37,975 337 349 -64
2021-12-07 08:00:09 GMT 42.117996 8.273599 38,000 337 349 0
2021-12-07 08:00:04 GMT 42.111374 8.277512 38,000 337 349 0
2021-12-07 08:00:02 GMT 42.109085 8.278822 38,000 337 350 64
2021-12-07 07:59:58 GMT 42.103226 8.282256 38,000 337 349 64
2021-12-07 07:59:55 GMT 42.098072 8.285224 37,975 337 350 128
2021-12-07 07:59:52 GMT 42.093796 8.287749 37,975 337 350 128
2021-12-07 07:59:47 GMT 42.087112 8.291619 37,975 337 350 0
2021-12-07 07:59:42 GMT 42.079124 8.296275 37,975 337 350 128
2021-12-07 07:59:38 GMT 42.073120 8.299788 37,950 337 352 64
2021-12-07 07:59:31 GMT 42.063675 8.305227 37,950 337 352 64
2021-12-07 07:59:28 GMT 42.058411 8.308283 37,950 337 353 -64
2021-12-07 07:59:22 GMT 42.049149 8.313712 37,950 337 353 0
2021-12-07 07:59:17 GMT 42.042488 8.317609 37,950 337 353 0
2021-12-07 07:59:11 GMT 42.033417 8.322893 37,975 337 354 -64
2021-12-07 07:59:08 GMT 42.027870 8.326104 37,975 337 353 0
2021-12-07 07:59:00 GMT 42.016205 8.332943 37,975 337 354 0
2021-12-07 07:58:56 GMT 42.011078 8.335939 37,975 337 354 0
2021-12-07 07:58:52 GMT 42.004303 8.339871 37,975 337 355 0
2021-12-07 07:58:49 GMT 41.999451 8.342680 37,975 337 355 0
2021-12-07 07:58:46 GMT 41.994690 8.345490 37,975 337 355 0
2021-12-07 07:58:41 GMT 41.987961 8.349360 37,975 337 356 -64
2021-12-07 07:58:38 GMT 41.981415 8.353186 38,000 337 356 -64
2021-12-07 07:58:32 GMT 41.973907 8.357537 38,000 337 356 -64
2021-12-07 07:58:30 GMT 41.971756 8.358848 38,000 337 356 -128
2021-12-07 07:58:27 GMT 41.966583 8.361844 38,000 337 357 0
2021-12-07 07:58:24 GMT 41.962509 8.364216 38,000 337 358 -64
2021-12-07 07:58:21 GMT 41.957348 8.367175 38,000 337 357 -64
2021-12-07 07:58:17 GMT 41.941006 8.376692 38,000 337 358 -64
2021-12-07 07:58:10 GMT 41.941006 8.376692 38,000 337 359 -64
2021-12-07 07:58:05 GMT 41.932858 8.381419 38,025 337 361 -64
2021-12-07 07:58:01 GMT 41.925968 8.385379 38,025 337 359 -64
2021-12-07 07:57:57 GMT 41.920990 8.388249 38,025 337 359 0
2021-12-07 07:57:52 GMT 41.912468 8.393235 38,025 337 360 0
2021-12-07 07:57:50 GMT 41.910095 8.394641 38,025 337 360 0
2021-12-07 07:57:47 GMT 41.905441 8.397323 38,025 337 360 0
2021-12-07 07:57:42 GMT 41.897106 8.402178 38,025 337 361 -64
2021-12-07 07:57:40 GMT 41.894577 8.403605 38,025 337 361 -64
2021-12-07 07:57:36 GMT 41.887749 8.407607 38,025 337 363 0
2021-12-07 07:57:32 GMT 41.881668 8.411095 38,025 337 362 -64
2021-12-07 07:57:29 GMT 41.878811 8.412781 38,025 337 362 0
2021-12-07 07:57:26 GMT 41.874157 8.415463 38,025 337 362 0
2021-12-07 07:57:21 GMT 41.866241 8.420084 38,025 337 363 0
2021-12-07 07:57:17 GMT 41.859146 8.424142 38,025 337 364 0
2021-12-07 07:57:11 GMT 41.850510 8.429133 38,025 337 365 0
2021-12-07 07:57:07 GMT 41.843124 8.433380 38,025 337 365 -64
2021-12-07 07:57:03 GMT 41.838684 8.435939 38,050 337 367 -64
2021-12-07 07:57:00 GMT 41.831497 8.440122 38,050 337 367 -64
2021-12-07 07:56:56 GMT 41.827560 8.442369 38,050 337 367 -64
2021-12-07 07:56:51 GMT 41.819824 8.446863 38,050 337 367 -64
2021-12-07 07:56:49 GMT 41.815781 8.449189 38,050 337 367 -64
2021-12-07 07:56:46 GMT 41.811951 8.451420 38,050 337 368 -64
2021-12-07 07:56:39 GMT 41.800232 8.458224 38,050 337 368 0
2021-12-07 07:56:36 GMT 41.795700 8.460846 38,050 337 368 0
2021-12-07 07:56:30 GMT 41.787872 8.465403 38,050 337 369 0
2021-12-07 07:56:26 GMT 41.779861 8.470022 38,050 337 370 0
2021-12-07 07:56:21 GMT 41.772720 8.474142 38,050 337 370 0
2021-12-07 07:56:18 GMT 41.767822 8.477013 38,050 337 370 0
2021-12-07 07:56:15 GMT 41.763794 8.479323 38,050 337 371 0
2021-12-07 07:56:11 GMT 41.756145 8.483681 38,050 337 372 0
2021-12-07 07:56:08 GMT 41.752167 8.486002 38,050 337 372 64
2021-12-07 07:56:05 GMT 41.747906 8.488408 38,050 337 372 0
2021-12-07 07:56:01 GMT 41.739994 8.492943 38,000 337 373 64
2021-12-07 07:55:58 GMT 41.735523 8.495498 38,050 337 373 64
2021-12-07 07:55:55 GMT 41.731194 8.497989 38,025 337 373 64
2021-12-07 07:55:51 GMT 41.723515 8.502332 38,025 337 374 64
2021-12-07 07:55:46 GMT 41.715454 8.506976 38,025 337 374 64
2021-12-07 07:55:40 GMT 41.707359 8.511658 38,025 337 374 64
2021-12-07 07:55:35 GMT 41.700333 8.515682 38,025 337 374 128
2021-12-07 07:55:31 GMT 41.692696 8.520089 38,025 337 374 128
2021-12-07 07:55:28 GMT 41.687946 8.522772 38,000 337 374 64
2021-12-07 07:55:25 GMT 41.684006 8.525079 38,025 337 374 128
2021-12-07 07:55:21 GMT 41.676868 8.529159 38,000 337 374 64
2021-12-07 07:55:18 GMT 41.671188 8.532417 38,000 337 375 64
2021-12-07 07:55:15 GMT 41.667835 8.534333 37,975 337 375 0
2021-12-07 07:55:11 GMT 41.655396 8.541496 38,000 337 372 -64
2021-12-07 07:55:07 GMT 41.655396 8.541496 38,000 337 374 0
2021-12-07 07:55:04 GMT 41.650707 8.544170 38,000 337 374 0
2021-12-07 07:55:01 GMT 41.645096 8.547426 38,000 337 374 0
2021-12-07 07:54:57 GMT 41.639256 8.550749 38,000 337 374 -64
2021-12-07 07:54:54 GMT 41.635162 8.553106 38,000 337 373 -64
2021-12-07 07:54:51 GMT 41.629440 8.556352 38,000 337 373 0
2021-12-07 07:54:46 GMT 41.622078 8.560649 38,000 337 373 -128
2021-12-07 07:54:41 GMT 41.613323 8.565695 38,000 337 372 -64
2021-12-07 07:54:35 GMT 41.603874 8.571188 38,000 337 372 -64
2021-12-07 07:54:31 GMT 41.597542 8.574829 38,025 337 371 -64
2021-12-07 07:54:27 GMT 41.590668 8.578699 38,025 337 371 0
2021-12-07 07:54:24 GMT 41.587646 8.580447 38,025 337 371 -64
2021-12-07 07:54:21 GMT 41.581421 8.584005 38,025 337 370 -64
2021-12-07 07:54:19 GMT 41.578457 8.585624 38,025 337 370 0
2021-12-07 07:54:15 GMT 41.571800 8.589456 38,025 337 370 0
2021-12-07 07:54:11 GMT 41.565491 8.593056 38,025 337 370 -64
2021-12-07 07:54:08 GMT 41.562443 8.594822 38,025 337 370 -64
2021-12-07 07:54:04 GMT 41.555603 8.598737 38,025 337 370 -64
2021-12-07 07:53:59 GMT 41.546474 8.603956 38,025 337 370 0
2021-12-07 07:53:54 GMT 41.539818 8.607724 38,025 337 368 0
2021-12-07 07:53:50 GMT 41.533718 8.611173 38,025 337 368 0
2021-12-07 07:53:48 GMT 41.529995 8.613345 38,025 337 367 64
2021-12-07 07:53:44 GMT 41.524036 8.616730 38,025 337 367 64
2021-12-07 07:53:39 GMT 41.517700 8.620335 38,025 337 367 64
2021-12-07 07:53:34 GMT 41.508499 8.625641 38,025 337 368 64
2021-12-07 07:53:30 GMT 41.502411 8.629137 38,000 337 368 64
2021-12-07 07:53:26 GMT 41.494492 8.633631 38,000 337 367 0
2021-12-07 07:53:20 GMT 41.486797 8.638064 38,000 337 367 0
2021-12-07 07:53:16 GMT 41.479534 8.642216 38,000 337 366 0
2021-12-07 07:53:13 GMT 41.476089 8.644180 38,000 337 366 0
2021-12-07 07:53:10 GMT 41.471573 8.646751 38,000 337 366 0
2021-12-07 07:53:07 GMT 41.466732 8.649498 38,000 337 366 0
2021-12-07 07:53:03 GMT 41.459930 8.653419 38,000 337 366 0
2021-12-07 07:53:00 GMT 41.455627 8.655853 38,000 337 366 0
2021-12-07 07:52:57 GMT 41.450531 8.658760 38,000 337 365 64
2021-12-07 07:52:54 GMT 41.445503 8.661634 38,000 337 365 0
2021-12-07 07:52:50 GMT 41.440247 8.664655 38,000 337 365 64
2021-12-07 07:52:44 GMT 41.428932 8.671087 38,000 337 365 64
2021-12-07 07:52:40 GMT 41.424866 8.673394 38,000 337 365 0
2021-12-07 07:52:35 GMT 41.414780 8.679135 38,000 337 364 64
2021-12-07 07:52:30 GMT 41.409348 8.682258 37,975 337 364 0
2021-12-07 07:52:24 GMT 41.399792 8.687694 38,000 337 364 -64
2021-12-07 07:52:20 GMT 41.393597 8.691208 38,000 337 363 0
2021-12-07 07:52:16 GMT 41.385223 8.695923 38,000 337 362 64
2021-12-07 07:52:13 GMT 41.382706 8.697364 38,000 337 362 0
2021-12-07 07:52:09 GMT 41.377537 8.700298 37,975 337 362 64
2021-12-07 07:52:04 GMT 41.368275 8.705541 37,975 337 361 0
2021-12-07 07:52:00 GMT 41.362267 8.708975 38,000 337 361 0
2021-12-07 07:51:53 GMT 41.351212 8.715271 38,000 337 360 0
2021-12-07 07:51:49 GMT 41.346588 8.717834 38,000 337 360 0
2021-12-07 07:51:43 GMT 41.336975 8.723267 38,000 337 359 0
2021-12-07 07:51:40 GMT 41.331253 8.726501 38,000 337 359 0
2021-12-07 07:51:34 GMT 41.321136 8.732300 38,000 337 359 0
2021-12-07 07:51:30 GMT 41.316460 8.734942 38,000 337 359 -64
2021-12-07 07:51:22 GMT 41.303890 8.742121 38,000 337 357 0
2021-12-07 07:51:19 GMT 41.300587 8.743994 38,000 337 357 0
2021-12-07 07:51:13 GMT 41.290207 8.749924 38,000 337 357 64
2021-12-07 07:51:10 GMT 41.285522 8.752563 37,975 337 357 64
2021-12-07 07:51:02 GMT 41.274143 8.759100 37,975 337 357 64
2021-12-07 07:50:59 GMT 41.269489 8.761722 37,975 337 357 64
2021-12-07 07:50:57 GMT 41.266510 8.763407 37,975 337 357 64
2021-12-07 07:50:54 GMT 41.261765 8.766113 37,975 337 356 0
2021-12-07 07:50:50 GMT 41.255478 8.769712 37,975 337 356 0
2021-12-07 07:50:47 GMT 41.250824 8.772278 37,975 338 357 0
2021-12-07 07:50:43 GMT 41.243866 8.776245 37,975 337 356 -64
2021-12-07 07:50:40 GMT 41.240067 8.778381 37,975 337 356 0
2021-12-07 07:50:37 GMT 41.235809 8.780762 37,975 337 356 0
2021-12-07 07:50:33 GMT 41.229584 8.784302 37,975 337 356 0
2021-12-07 07:50:30 GMT 41.225052 8.786804 37,975 337 356 0
2021-12-07 07:50:27 GMT 41.220520 8.789368 37,975 337 356 0
2021-12-07 07:50:23 GMT 41.213020 8.793619 37,975 337 356 -64
2021-12-07 07:50:20 GMT 41.209854 8.795430 37,975 337 356 -64
2021-12-07 07:50:15 GMT 41.200500 8.800673 37,975 337 356 -64
2021-12-07 07:50:10 GMT 41.194679 8.803981 37,975 337 357 -64
2021-12-07 07:50:06 GMT 41.189419 8.806915 38,000 338 357 -64
2021-12-07 07:50:03 GMT 41.184540 8.809631 38,000 338 357 -64
2021-12-07 07:50:00 GMT 41.179085 8.812721 38,000 338 357 -64
2021-12-07 07:49:56 GMT 41.173779 8.815654 38,000 338 357 0
2021-12-07 07:49:52 GMT 41.167969 8.818970 38,000 337 357 0
2021-12-07 07:49:50 GMT 41.164143 8.821085 38,000 337 357 -64
2021-12-07 07:49:46 GMT 41.157990 8.824524 38,000 338 358 0
2021-12-07 07:49:43 GMT 41.153687 8.826965 38,000 338 358 -64
2021-12-07 07:49:40 GMT 41.148968 8.829637 38,000 338 358 -64
2021-12-07 07:49:35 GMT 41.141418 8.833740 38,000 339 359 0
2021-12-07 07:49:30 GMT 41.133045 8.837939 38,000 342 359 0
2021-12-07 07:49:23 GMT 41.122559 8.842529 38,000 345 362 -64
2021-12-07 07:49:20 GMT 41.117065 8.844604 38,000 346 362 0
2021-12-07 07:49:14 GMT 41.108837 8.847365 38,000 348 363 -64
2021-12-07 07:49:11 GMT 41.103905 8.848738 38,025 349 364 -64
2021-12-07 07:49:09 GMT 41.100597 8.849612 38,000 350 365 -64
2021-12-07 07:49:03 GMT 41.088730 8.852171 38,025 353 366 -64
2021-12-07 07:48:59 GMT 41.083515 8.853045 38,025 354 368 0
2021-12-07 07:48:52 GMT 41.070877 8.854614 38,025 356 369 0
2021-12-07 07:48:49 GMT 41.066708 8.855105 38,025 356 370 64
2021-12-07 07:48:44 GMT 41.057602 8.856140 38,025 356 371 64
2021-12-07 07:48:41 GMT 41.053299 8.856628 38,000 355 371 64
2021-12-07 07:48:39 GMT 41.049156 8.857103 38,025 355 371 0
2021-12-07 07:48:32 GMT 41.037827 8.858398 38,025 356 373 0
2021-12-07 07:48:29 GMT 41.031887 8.859100 38,025 356 373 -64
2021-12-07 07:48:21 GMT 41.018738 8.860596 38,025 356 374 0
2021-12-07 07:48:19 GMT 41.015221 8.860973 38,025 356 374 0
2021-12-07 07:48:12 GMT 41.002464 8.862284 38,025 356 375 0
2021-12-07 07:48:09 GMT 40.997158 8.862908 38,025 356 375 64
2021-12-07 07:48:02 GMT 40.985138 8.864258 38,025 356 376 64
2021-12-07 07:47:59 GMT 40.980286 8.864746 38,025 356 376 0
2021-12-07 07:47:51 GMT 40.966507 8.866333 38,025 356 376 64
2021-12-07 07:47:49 GMT 40.962936 8.866760 38,025 356 376 64
2021-12-07 07:47:42 GMT 40.950233 8.868089 38,000 356 377 128
2021-12-07 07:47:39 GMT 40.945724 8.868591 38,000 356 377 64
2021-12-07 07:47:31 GMT 40.931122 8.870178 38,000 356 378 64
2021-12-07 07:47:29 GMT 40.927460 8.870544 38,000 356 378 0
2021-12-07 07:47:22 GMT 40.915146 8.871887 38,000 355 378 0
2021-12-07 07:47:18 GMT 40.909363 8.872584 38,000 356 378 -64
2021-12-07 07:47:11 GMT 40.896698 8.873962 38,000 356 378 0
2021-12-07 07:47:08 GMT 40.892166 8.874512 38,000 356 379 0
2021-12-07 07:47:02 GMT 40.879753 8.875830 38,000 356 380 -64
2021-12-07 07:46:58 GMT 40.873444 8.876587 38,000 356 380 -64
2021-12-07 07:46:51 GMT 40.862438 8.877765 38,000 356 381 0
2021-12-07 07:46:49 GMT 40.857651 8.878296 38,000 356 381 64
2021-12-07 07:46:39 GMT 40.840511 8.880137 38,000 356 380 0
2021-12-07 07:46:37 GMT 40.838150 8.880432 38,000 356 380 -64
2021-12-07 07:46:30 GMT 40.825893 8.881760 38,000 356 379 0
2021-12-07 07:46:28 GMT 40.820866 8.882321 38,000 356 378 0
2021-12-07 07:46:19 GMT 40.805038 8.884132 38,000 355 377 0
2021-12-07 07:46:17 GMT 40.803223 8.884319 38,000 355 377 64
2021-12-07 07:46:11 GMT 40.792236 8.885567 38,000 355 377 0
2021-12-07 07:46:09 GMT 40.787907 8.886067 38,000 355 377 0
2021-12-07 07:46:07 GMT 40.785347 8.886379 38,000 355 377 0
2021-12-07 07:46:01 GMT 40.774155 8.887634 38,000 355 376 0
2021-12-07 07:45:59 GMT 40.770821 8.888064 38,000 355 375 0
2021-12-07 07:45:57 GMT 40.767704 8.888439 38,000 355 375 0
2021-12-07 07:45:50 GMT 40.756485 8.889750 38,025 355 375 -64
2021-12-07 07:45:47 GMT 40.749920 8.890561 38,025 355 376 -64
2021-12-07 07:45:41 GMT 40.739399 8.891747 38,025 355 376 -64
2021-12-07 07:45:39 GMT 40.735703 8.892151 38,025 355 377 -64
2021-12-07 07:45:37 GMT 40.732323 8.892559 38,025 355 377 0
2021-12-07 07:45:29 GMT 40.717987 8.894165 38,025 356 379 0
2021-12-07 07:45:26 GMT 40.714142 8.894592 38,000 356 379 0
2021-12-07 07:45:19 GMT 40.700993 8.896054 38,000 356 382 0
2021-12-07 07:45:17 GMT 40.696430 8.896554 38,000 356 383 -64
2021-12-07 07:45:11 GMT 40.686890 8.897552 38,000 356 385 -192
2021-12-07 07:45:09 GMT 40.683197 8.897949 38,025 356 385 0
2021-12-07 07:45:06 GMT 40.678574 8.898499 38,025 356 385 0
2021-12-07 07:45:01 GMT 40.669327 8.899475 38,050 356 386 0
2021-12-07 07:44:58 GMT 40.662827 8.900208 38,025 356 386 -64
2021-12-07 07:44:56 GMT 40.660080 8.900513 38,025 356 386 -64
2021-12-07 07:44:51 GMT 40.651508 8.901423 38,025 356 385 0
2021-12-07 07:44:48 GMT 40.647125 8.901917 38,025 356 385 64
2021-12-07 07:44:45 GMT 40.642044 8.902466 38,025 356 385 64
2021-12-07 07:44:41 GMT 40.633163 8.903442 38,025 356 385 128
2021-12-07 07:44:38 GMT 40.628094 8.903982 38,025 356 385 64
2021-12-07 07:44:35 GMT 40.623688 8.904480 38,000 356 385 64
2021-12-07 07:44:31 GMT 40.615479 8.905418 38,000 356 385 0
2021-12-07 07:44:28 GMT 40.606705 8.906433 38,000 356 385 0
2021-12-07 07:44:26 GMT 40.606705 8.906433 38,000 356 385 -64
2021-12-07 07:44:20 GMT 40.597416 8.907415 38,000 356 385 -64
2021-12-07 07:44:18 GMT 40.593597 8.907852 38,025 356 385 0
2021-12-07 07:44:16 GMT 40.588245 8.908414 38,025 356 385 0
2021-12-07 07:44:10 GMT 40.579445 8.909350 38,025 356 384 0
2021-12-07 07:44:08 GMT 40.575722 8.909787 38,000 356 384 64
2021-12-07 07:44:05 GMT 40.570229 8.910411 38,000 356 384 0
2021-12-07 07:44:00 GMT 40.562176 8.911285 38,000 356 384 64
2021-12-07 07:43:58 GMT 40.557613 8.911785 38,000 356 383 0
2021-12-07 07:43:55 GMT 40.551727 8.912476 38,000 356 383 0
2021-12-07 07:43:50 GMT 40.540108 8.913782 38,000 356 383 0
2021-12-07 07:43:48 GMT 40.540108 8.913782 38,000 356 383 0
2021-12-07 07:43:44 GMT 40.534058 8.914407 38,000 356 383 0
2021-12-07 07:43:40 GMT 40.526550 8.915283 38,000 356 382 0
2021-12-07 07:43:38 GMT 40.516022 8.916382 38,000 356 382 0
2021-12-07 07:43:34 GMT 40.516022 8.916382 38,000 356 382 0
2021-12-07 07:43:30 GMT 40.508194 8.917236 38,000 356 382 64
2021-12-07 07:43:28 GMT 40.505035 8.917603 38,000 356 382 64
2021-12-07 07:43:25 GMT 40.498444 8.918277 38,000 356 382 0
2021-12-07 07:43:20 GMT 40.490623 8.919088 38,000 356 382 0
2021-12-07 07:43:17 GMT 40.485306 8.919678 38,000 356 382 0
2021-12-07 07:43:14 GMT 40.480316 8.920166 38,000 356 382 0
2021-12-07 07:43:10 GMT 40.472763 8.920959 38,000 356 383 0
2021-12-07 07:43:07 GMT 40.467728 8.921509 38,000 356 383 -64
2021-12-07 07:43:04 GMT 40.462555 8.922058 38,000 356 383 -64
2021-12-07 07:43:00 GMT 40.455246 8.922834 38,000 356 383 -64
2021-12-07 07:42:57 GMT 40.449940 8.923395 38,000 356 383 0
2021-12-07 07:42:54 GMT 40.444061 8.924011 38,000 356 383 0
2021-12-07 07:42:50 GMT 40.437740 8.924769 38,000 356 383 -64
2021-12-07 07:42:48 GMT 40.434158 8.925143 38,000 356 384 0
2021-12-07 07:42:44 GMT 40.426380 8.926017 38,000 355 383 0
2021-12-07 07:42:40 GMT 40.419586 8.926829 38,000 355 383 64
2021-12-07 07:42:38 GMT 40.416046 8.927203 38,000 355 383 64
2021-12-07 07:42:36 GMT 40.412788 8.927578 38,000 355 383 64
2021-12-07 07:42:33 GMT 40.408180 8.928139 38,000 355 383 128
2021-12-07 07:42:30 GMT 40.402081 8.928826 37,975 355 383 64
2021-12-07 07:42:28 GMT 40.398403 8.929263 37,975 355 383 64
2021-12-07 07:42:23 GMT 40.390072 8.930262 37,975 355 383 64
2021-12-07 07:42:20 GMT 40.383865 8.931030 37,975 355 383 0
2021-12-07 07:42:17 GMT 40.377914 8.931702 37,975 355 383 0
2021-12-07 07:42:13 GMT 40.372513 8.932312 37,975 356 382 0
2021-12-07 07:42:10 GMT 40.366425 8.933044 38,000 356 381 0
2021-12-07 07:42:08 GMT 40.363495 8.933350 38,000 356 380 0
2021-12-07 07:42:03 GMT 40.354660 8.934387 38,000 355 378 0
2021-12-07 07:42:00 GMT 40.348251 8.935120 38,000 355 377 0
2021-12-07 07:41:58 GMT 40.345779 8.935364 38,000 355 376 64
2021-12-07 07:41:56 GMT 40.342869 8.935693 38,000 355 376 64
2021-12-07 07:41:52 GMT 40.335846 8.936523 38,000 355 374 -64
2021-12-07 07:41:48 GMT 40.328201 8.937439 38,000 355 372 0
2021-12-07 07:41:46 GMT 40.325130 8.937752 38,000 355 372 0
2021-12-07 07:41:43 GMT 40.319595 8.938416 38,000 356 371 0
2021-12-07 07:41:38 GMT 40.310795 8.939438 38,000 356 370 -64
2021-12-07 07:41:36 GMT 40.308334 8.939697 38,000 355 370 -64
2021-12-07 07:41:32 GMT 40.301620 8.940437 38,025 356 370 -64
2021-12-07 07:41:29 GMT 40.296524 8.940979 38,025 356 370 0
2021-12-07 07:41:26 GMT 40.291077 8.941589 38,025 355 370 -64
2021-12-07 07:41:22 GMT 40.284351 8.942434 38,025 354 370 -128
2021-12-07 07:41:17 GMT 40.276669 8.943620 38,025 352 370 -64
2021-12-07 07:41:15 GMT 40.272720 8.944397 38,025 351 369 -64
2021-12-07 07:41:12 GMT 40.267593 8.945555 38,025 350 369 0
2021-12-07 07:41:09 GMT 40.262424 8.946804 38,025 349 369 -64
2021-12-07 07:41:05 GMT 40.256561 8.948486 38,025 347 371 0
2021-12-07 07:41:02 GMT 40.250198 8.950439 38,000 346 372 0
2021-12-07 07:40:57 GMT 40.242359 8.953233 38,000 344 375 -64
2021-12-07 07:40:55 GMT 40.240082 8.954102 38,000 343 376 0
2021-12-07 07:40:52 GMT 40.234222 8.956482 38,000 342 379 -128
2021-12-07 07:40:49 GMT 40.229187 8.958679 38,025 341 380 -64
2021-12-07 07:40:47 GMT 40.225754 8.960205 38,000 340 381 0
2021-12-07 07:40:45 GMT 40.223282 8.961426 38,025 340 383 0
2021-12-07 07:40:42 GMT 40.217457 8.964282 38,050 340 384 128
2021-12-07 07:40:39 GMT 40.212570 8.966675 38,050 340 385 128
2021-12-07 07:40:37 GMT 40.209263 8.968339 38,050 340 386 128
2021-12-07 07:40:35 GMT 40.205864 8.970025 38,025 340 387 128
2021-12-07 07:40:32 GMT 40.199844 8.972961 38,025 340 388 128
2021-12-07 07:40:29 GMT 40.195450 8.975159 38,025 340 388 64
2021-12-07 07:40:25 GMT 40.189453 8.978149 38,025 340 389 64
2021-12-07 07:40:22 GMT 40.184235 8.980713 38,025 340 390 0
2021-12-07 07:40:19 GMT 40.178631 8.983570 38,025 340 390 0
2021-12-07 07:40:17 GMT 40.175537 8.985046 38,025 340 390 0
2021-12-07 07:40:15 GMT 40.172699 8.986511 38,025 339 391 0
2021-12-07 07:40:12 GMT 40.167133 8.989313 38,025 340 390 0
2021-12-07 07:40:09 GMT 40.162060 8.991810 38,025 340 390 0
2021-12-07 07:40:07 GMT 40.158051 8.993835 38,000 340 390 0
2021-12-07 07:40:05 GMT 40.155403 8.995181 38,000 340 390 -64
2021-12-07 07:40:00 GMT 40.147766 8.998989 38,025 339 389 -64
2021-12-07 07:39:57 GMT 40.141064 9.002360 38,000 339 389 -64
2021-12-07 07:39:54 GMT 40.137909 9.003906 38,000 340 388 -64
2021-12-07 07:39:49 GMT 40.128250 9.008789 38,000 340 388 -64
2021-12-07 07:39:46 GMT 40.123901 9.010925 38,000 340 388 -64
2021-12-07 07:39:44 GMT 40.120674 9.012534 38,000 339 387 -64
2021-12-07 07:39:39 GMT 40.111038 9.017341 38,000 340 386 0
2021-12-07 07:39:36 GMT 40.107193 9.019287 38,000 339 385 0
2021-12-07 07:39:34 GMT 40.103897 9.020935 38,000 339 385 0
2021-12-07 07:39:29 GMT 40.094376 9.025696 38,000 339 384 64
2021-12-07 07:39:26 GMT 40.090942 9.027405 38,000 339 381 64
2021-12-07 07:39:24 GMT 40.086784 9.029513 38,000 339 382 0
2021-12-07 07:39:19 GMT 40.077942 9.033997 38,000 339 381 0
2021-12-07 07:39:16 GMT 40.074417 9.035767 37,975 340 381 0
2021-12-07 07:39:14 GMT 40.071075 9.037415 38,000 339 381 64
2021-12-07 07:39:08 GMT 40.061096 9.042419 38,000 340 380 64
2021-12-07 07:39:06 GMT 40.057617 9.044128 38,000 340 380 0
2021-12-07 07:39:04 GMT 40.054291 9.045743 38,000 340 379 64
2021-12-07 07:38:57 GMT 40.043839 9.050903 38,000 340 379 0
2021-12-07 07:38:55 GMT 40.040649 9.052485 38,000 340 380 0
2021-12-07 07:38:53 GMT 40.036739 9.054420 38,000 340 381 0
2021-12-07 07:38:48 GMT 40.027988 9.058727 38,000 340 381 0
2021-12-07 07:38:46 GMT 40.024590 9.060412 38,000 340 381 0
2021-12-07 07:38:43 GMT 40.019516 9.062909 38,000 340 381 0
2021-12-07 07:38:37 GMT 40.010811 9.067216 38,000 340 382 -64
2021-12-07 07:38:34 GMT 40.004013 9.070557 38,000 340 382 -64
2021-12-07 07:38:28 GMT 39.994995 9.075012 38,000 340 383 0
2021-12-07 07:38:26 GMT 39.991013 9.077026 38,025 340 383 0
2021-12-07 07:38:23 GMT 39.985905 9.079514 38,000 340 383 0
2021-12-07 07:38:18 GMT 39.978195 9.083374 38,000 340 383 0
2021-12-07 07:38:16 GMT 39.974396 9.085266 38,000 340 383 0
2021-12-07 07:38:12 GMT 39.968170 9.088379 38,000 340 383 0
2021-12-07 07:38:08 GMT 39.961418 9.091748 38,000 340 383 0
2021-12-07 07:38:06 GMT 39.957138 9.093872 38,000 340 382 0
2021-12-07 07:38:04 GMT 39.953751 9.095520 38,000 340 382 0
2021-12-07 07:37:58 GMT 39.944641 9.100037 37,975 340 380 0
2021-12-07 07:37:56 GMT 39.940563 9.102110 37,975 340 380 64
2021-12-07 07:37:53 GMT 39.936768 9.103943 37,975 340 377 64
2021-12-07 07:37:46 GMT 39.924362 9.110107 37,975 340 377 64
2021-12-07 07:37:41 GMT 39.916718 9.113935 37,975 340 376 128
2021-12-07 07:37:36 GMT 39.907700 9.118414 37,975 340 374 128
2021-12-07 07:37:32 GMT 39.903320 9.120605 37,975 339 373 192
2021-12-07 07:37:28 GMT 39.895294 9.124563 37,950 340 373 192
2021-12-07 07:37:25 GMT 39.891998 9.126176 37,950 340 372 192
2021-12-07 07:37:21 GMT 39.884327 9.130005 37,975 340 368 0
2021-12-07 07:37:17 GMT 39.878788 9.132751 37,950 340 370 0
2021-12-07 07:37:15 GMT 39.875473 9.134356 37,950 340 369 0
2021-12-07 07:37:13 GMT 39.871628 9.136266 37,950 340 369 0
2021-12-07 07:37:07 GMT 39.863194 9.140442 37,950 340 367 -128
2021-12-07 07:37:04 GMT 39.855793 9.144043 37,975 340 367 -128
2021-12-07 07:36:57 GMT 39.843292 9.150178 37,975 340 366 -192
2021-12-07 07:36:55 GMT 39.843292 9.150178 37,975 340 366 -192
2021-12-07 07:36:53 GMT 39.840179 9.151671 38,000 340 364 -128
2021-12-07 07:36:47 GMT 39.830475 9.156448 38,000 340 365 -192
2021-12-07 07:36:45 GMT 39.827682 9.157821 38,000 340 364 -128
2021-12-07 07:36:41 GMT 39.821342 9.160889 38,000 340 364 -128
2021-12-07 07:36:37 GMT 39.815048 9.163971 38,000 340 364 -128
2021-12-07 07:36:35 GMT 39.811844 9.165583 38,000 340 363 -64
2021-12-07 07:36:31 GMT 39.804337 9.169345 38,000 339 362 0
2021-12-07 07:36:27 GMT 39.798935 9.172032 38,000 339 362 0
2021-12-07 07:36:24 GMT 39.794994 9.174011 38,000 339 362 0
2021-12-07 07:36:22 GMT 39.790619 9.176208 38,000 339 362 0
2021-12-07 07:36:17 GMT 39.783417 9.179853 38,000 339 363 64
2021-12-07 07:36:15 GMT 39.780422 9.181396 38,000 339 364 64
2021-12-07 07:36:12 GMT 39.776093 9.183555 38,000 340 372 0
2021-12-07 07:36:07 GMT 39.767155 9.187988 38,000 340 367 64
2021-12-07 07:36:03 GMT 39.760071 9.191496 37,975 340 372 0
2021-12-07 07:35:57 GMT 39.751049 9.195923 37,975 340 370 64
2021-12-07 07:35:55 GMT 39.747883 9.197510 37,975 340 372 0
2021-12-07 07:35:51 GMT 39.741943 9.200393 37,975 340 368 0
2021-12-07 07:35:47 GMT 39.735500 9.203552 38,000 340 373 0
2021-12-07 07:35:44 GMT 39.731312 9.205627 38,000 340 373 0
2021-12-07 07:35:40 GMT 39.724606 9.208923 38,000 340 373 64
2021-12-07 07:35:37 GMT 39.719162 9.211609 38,000 340 373 0
2021-12-07 07:35:34 GMT 39.714737 9.213806 38,000 340 373 64
2021-12-07 07:35:32 GMT 39.702988 9.219559 37,975 339 367 -64
2021-12-07 07:35:27 GMT 39.702988 9.219559 38,000 340 373 64
2021-12-07 07:35:24 GMT 39.699005 9.221530 37,975 340 373 0
2021-12-07 07:35:21 GMT 39.693466 9.224276 38,000 339 367 -64
2021-12-07 07:35:15 GMT 39.683594 9.229126 38,000 340 371 -64
2021-12-07 07:35:11 GMT 39.676052 9.232910 38,000 339 370 -64
2021-12-07 07:35:06 GMT 39.670235 9.235779 38,025 339 369 -64
2021-12-07 07:35:04 GMT 39.667068 9.237305 38,025 340 368 0
2021-12-07 07:35:01 GMT 39.661530 9.240112 38,025 340 369 0
2021-12-07 07:34:56 GMT 39.654034 9.243835 38,025 339 367 -64
2021-12-07 07:34:53 GMT 39.649239 9.246216 38,025 339 367 -64
2021-12-07 07:34:49 GMT 39.642563 9.249533 38,025 340 368 -64
2021-12-07 07:34:46 GMT 39.638168 9.251682 38,025 340 368 -64
2021-12-07 07:34:43 GMT 39.633411 9.254028 38,025 340 368 0
2021-12-07 07:34:39 GMT 39.627640 9.256877 38,025 340 369 0
2021-12-07 07:34:36 GMT 39.621368 9.259982 38,025 340 370 0
2021-12-07 07:34:33 GMT 39.617340 9.262012 38,025 340 371 0
2021-12-07 07:34:30 GMT 39.611996 9.264587 38,025 340 372 0
2021-12-07 07:34:26 GMT 39.605301 9.267863 38,025 340 374 0
2021-12-07 07:34:23 GMT 39.600769 9.270132 38,025 340 375 0
2021-12-07 07:34:16 GMT 39.589046 9.275757 38,000 340 380 0
2021-12-07 07:34:12 GMT 39.583183 9.278625 38,000 340 381 -128
2021-12-07 07:34:09 GMT 39.578156 9.281006 38,000 340 382 -128
2021-12-07 07:34:06 GMT 39.572708 9.283630 38,000 340 385 -64
2021-12-07 07:34:03 GMT 39.568451 9.285656 38,025 340 386 0
2021-12-07 07:34:00 GMT 39.563232 9.288164 38,025 340 387 128
2021-12-07 07:33:56 GMT 39.555817 9.291747 38,025 340 387 128
2021-12-07 07:33:53 GMT 39.551758 9.293701 38,000 340 387 128
2021-12-07 07:33:50 GMT 39.546936 9.296046 38,000 340 387 128
2021-12-07 07:33:45 GMT 39.538677 9.300049 38,000 340 389 64
2021-12-07 07:33:43 GMT 39.535309 9.301718 38,000 340 389 64
2021-12-07 07:33:39 GMT 39.528488 9.305062 38,000 339 389 0
2021-12-07 07:33:35 GMT 39.521713 9.308405 38,000 339 389 0
2021-12-07 07:33:33 GMT 39.518379 9.310120 38,000 339 389 0
2021-12-07 07:33:29 GMT 39.511368 9.313540 38,000 340 385 0
2021-12-07 07:33:25 GMT 39.504509 9.316956 38,000 339 387 0
2021-12-07 07:33:23 GMT 39.501251 9.318556 38,000 339 387 0
2021-12-07 07:33:18 GMT 39.487930 9.325124 38,000 340 383 0
2021-12-07 07:33:15 GMT 39.487930 9.325124 38,000 340 386 0
2021-12-07 07:33:13 GMT 39.484444 9.326843 38,000 340 386 0
2021-12-07 07:33:09 GMT 39.477676 9.330139 38,000 340 383 0
2021-12-07 07:33:03 GMT 39.468105 9.334839 38,000 340 383 0
2021-12-07 07:32:59 GMT 39.460968 9.338319 38,000 340 382 0
2021-12-07 07:32:55 GMT 39.454327 9.341553 38,000 340 382 64
2021-12-07 07:32:53 GMT 39.450851 9.343275 38,000 340 382 64
2021-12-07 07:32:49 GMT 39.445541 9.345902 38,000 340 382 64
2021-12-07 07:32:45 GMT 39.437893 9.349609 38,000 340 381 64
2021-12-07 07:32:42 GMT 39.433594 9.351754 38,000 340 382 0
2021-12-07 07:32:39 GMT 39.428741 9.354082 38,000 340 381 0
2021-12-07 07:32:35 GMT 39.421326 9.357724 38,000 340 381 64
2021-12-07 07:32:32 GMT 39.417114 9.359754 38,000 340 382 0
2021-12-07 07:32:30 GMT 39.412674 9.361904 38,000 340 382 0
2021-12-07 07:32:25 GMT 39.404327 9.366028 38,000 340 382 0
2021-12-07 07:32:23 GMT 39.400326 9.368042 38,000 340 382 -64
2021-12-07 07:32:19 GMT 39.393860 9.371218 38,000 339 381 -64
2021-12-07 07:32:15 GMT 39.388184 9.374025 38,000 339 381 -64
2021-12-07 07:32:12 GMT 39.383698 9.376234 38,025 339 381 -64
2021-12-07 07:32:09 GMT 39.378864 9.378662 38,025 340 380 0
2021-12-07 07:32:05 GMT 39.371464 9.382324 38,025 340 379 0
2021-12-07 07:32:02 GMT 39.366531 9.384772 38,025 340 379 0
2021-12-07 07:31:59 GMT 39.362339 9.386780 38,000 340 379 0
2021-12-07 07:31:55 GMT 39.354702 9.390503 38,000 340 380 0
2021-12-07 07:31:51 GMT 39.349594 9.392952 38,000 340 380 0
2021-12-07 07:31:48 GMT 39.344463 9.395447 38,000 340 380 0
2021-12-07 07:31:45 GMT 39.338470 9.398266 38,000 340 381 64
2021-12-07 07:31:41 GMT 39.332916 9.400940 38,000 340 383 64
2021-12-07 07:31:38 GMT 39.328171 9.403222 37,975 340 385 192
2021-12-07 07:31:35 GMT 39.321560 9.406372 37,975 340 386 256
2021-12-07 07:31:32 GMT 39.316269 9.408894 37,950 340 388 256
2021-12-07 07:31:28 GMT 39.311035 9.411377 37,950 340 388 192
2021-12-07 07:31:25 GMT 39.304596 9.414447 37,950 340 389 64
2021-12-07 07:31:21 GMT 39.298874 9.417194 37,950 340 389 0
2021-12-07 07:31:15 GMT 39.287430 9.422687 37,950 340 389 0
2021-12-07 07:31:12 GMT 39.283386 9.424683 37,950 340 389 0
2021-12-07 07:31:10 GMT 39.280930 9.425852 37,950 340 389 0
2021-12-07 07:31:07 GMT 39.274681 9.428833 37,950 340 388 0
2021-12-07 07:31:02 GMT 39.263832 9.434082 37,950 340 388 0
2021-12-07 07:30:57 GMT 39.258133 9.436838 37,975 340 388 -128
2021-12-07 07:30:54 GMT 39.254150 9.438782 37,950 340 388 -192
2021-12-07 07:30:52 GMT 39.250286 9.440674 37,975 340 387 -256
2021-12-07 07:30:50 GMT 39.247604 9.441973 37,975 340 387 -256
2021-12-07 07:30:44 GMT 39.236618 9.447287 38,025 340 386 -192
2021-12-07 07:30:41 GMT 39.229660 9.450690 38,000 340 385 -192
2021-12-07 07:30:34 GMT 39.219704 9.455505 38,025 340 384 -128
2021-12-07 07:30:32 GMT 39.215652 9.457437 38,025 340 384 -128
2021-12-07 07:30:30 GMT 39.213230 9.458618 38,025 340 384 -128
2021-12-07 07:30:23 GMT 39.201599 9.464304 38,050 340 384 -256
2021-12-07 07:30:20 GMT 39.196335 9.466797 38,050 340 383 -128
2021-12-07 07:30:12 GMT 39.182461 9.473511 38,050 340 382 -64
2021-12-07 07:30:09 GMT 39.178921 9.475220 38,050 340 382 0
2021-12-07 07:30:04 GMT 39.169052 9.480007 38,050 340 382 128
2021-12-07 07:30:01 GMT 39.165375 9.481812 38,050 340 382 128
2021-12-07 07:29:59 GMT 39.161957 9.483470 38,025 340 382 64
2021-12-07 07:29:53 GMT 39.151642 9.488464 38,025 340 383 64
2021-12-07 07:29:50 GMT 39.145523 9.491531 38,025 340 383 128
2021-12-07 07:29:43 GMT 39.134674 9.496845 38,025 340 383 64
2021-12-07 07:29:39 GMT 39.129158 9.499573 38,025 340 384 128
2021-12-07 07:29:34 GMT 39.119339 9.504069 38,025 342 386 64
2021-12-07 07:29:29 GMT 39.111561 9.507385 38,025 343 387 0
2021-12-07 07:29:24 GMT 39.102577 9.510925 38,050 344 388 -64
2021-12-07 07:29:19 GMT 39.094574 9.513921 38,050 345 388 -64
2021-12-07 07:29:14 GMT 39.084515 9.517395 38,050 346 388 64
2021-12-07 07:29:08 GMT 39.076080 9.520191 38,050 346 388 128
2021-12-07 07:29:03 GMT 39.067383 9.523071 38,025 346 388 64
2021-12-07 07:28:59 GMT 39.059189 9.525818 38,025 346 388 64
2021-12-07 07:28:53 GMT 39.049831 9.528992 38,025 346 388 64
2021-12-07 07:28:49 GMT 39.040756 9.531982 38,000 346 388 0
2021-12-07 07:28:43 GMT 39.032051 9.534912 38,000 346 387 0
2021-12-07 07:28:38 GMT 39.022934 9.537924 38,000 346 387 0
2021-12-07 07:28:33 GMT 39.014648 9.540730 38,000 346 387 0
2021-12-07 07:28:28 GMT 39.005997 9.543596 38,000 346 386 0
2021-12-07 07:28:23 GMT 38.997070 9.546582 38,000 346 385 0
2021-12-07 07:28:17 GMT 38.987171 9.549927 38,000 346 384 0
2021-12-07 07:28:13 GMT 38.980049 9.552307 38,000 346 383 0
2021-12-07 07:28:10 GMT 38.974869 9.554105 38,000 346 382 0
2021-12-07 07:28:07 GMT 38.970463 9.555603 38,000 346 383 0
2021-12-07 07:28:02 GMT 38.961197 9.558716 38,000 346 382 0
2021-12-07 07:27:58 GMT 38.953003 9.561523 38,000 346 382 0
2021-12-07 07:27:52 GMT 38.944839 9.564255 38,000 346 382 -64
2021-12-07 07:27:47 GMT 38.935406 9.567444 38,025 346 382 -64
2021-12-07 07:27:43 GMT 38.927811 9.569987 38,025 346 383 0
2021-12-07 07:27:36 GMT 38.917511 9.573391 38,025 346 383 0
2021-12-07 07:27:33 GMT 38.910828 9.575562 38,000 346 384 0
2021-12-07 07:27:26 GMT 38.900307 9.578979 38,000 346 386 64
2021-12-07 07:27:23 GMT 38.893791 9.581116 38,000 346 387 0
2021-12-07 07:27:17 GMT 38.882996 9.584556 38,000 346 388 0
2021-12-07 07:27:13 GMT 38.875992 9.586825 38,000 346 388 0
2021-12-07 07:27:10 GMT 38.871445 9.588318 38,000 346 388 0
2021-12-07 07:27:07 GMT 38.864834 9.590454 38,000 346 389 0
2021-12-07 07:27:03 GMT 38.858131 9.592651 38,000 346 388 0
2021-12-07 07:27:00 GMT 38.854385 9.593871 38,000 346 388 -64
2021-12-07 07:26:56 GMT 38.847378 9.596191 38,000 346 387 0
2021-12-07 07:26:53 GMT 38.840881 9.598289 38,000 346 386 0
2021-12-07 07:26:50 GMT 38.836948 9.599609 38,000 346 386 0
2021-12-07 07:26:46 GMT 38.829361 9.602112 38,000 346 385 0
2021-12-07 07:26:41 GMT 38.822098 9.604492 38,000 346 384 0
2021-12-07 07:26:36 GMT 38.812271 9.607723 38,000 346 382 64
2021-12-07 07:26:32 GMT 38.805016 9.610107 38,000 346 382 64
2021-12-07 07:26:28 GMT 38.799660 9.611877 37,950 346 374 640
2021-12-07 07:26:25 GMT 38.794693 9.613515 37,975 346 379 64
2021-12-07 07:26:22 GMT 38.789188 9.615295 37,975 346 379 128
2021-12-07 07:26:15 GMT 38.776978 9.619247 37,950 346 378 256
2021-12-07 07:26:12 GMT 38.771942 9.620919 37,900 346 377 512
2021-12-07 07:26:09 GMT 38.766747 9.622620 37,900 346 374 640
2021-12-07 07:26:06 GMT 38.759674 9.624878 37,900 346 377 512
2021-12-07 07:26:02 GMT 38.754547 9.626591 37,875 346 377 576
2021-12-07 07:25:59 GMT 38.749664 9.628174 37,825 346 376 576
2021-12-07 07:25:55 GMT 38.743240 9.630188 37,775 346 376 576
2021-12-07 07:25:52 GMT 38.737839 9.631958 37,775 346 376 576
2021-12-07 07:25:49 GMT 38.732483 9.633696 37,725 346 375 640
2021-12-07 07:25:45 GMT 38.725967 9.635803 37,700 346 375 576
2021-12-07 07:25:42 GMT 38.720856 9.637458 37,650 346 375 640
2021-12-07 07:25:38 GMT 38.714890 9.639343 37,625 346 375 640
2021-12-07 07:25:35 GMT 38.708862 9.641339 37,575 346 374 640
2021-12-07 07:25:32 GMT 38.703857 9.642944 37,550 346 374 576
2021-12-07 07:25:27 GMT 38.696735 9.645203 37,525 346 374 640
2021-12-07 07:25:22 GMT 38.686867 9.648438 37,450 346 374 640
2021-12-07 07:25:15 GMT 38.674713 9.652325 37,350 346 374 704
2021-12-07 07:25:12 GMT 38.669640 9.653931 37,325 346 374 704
2021-12-07 07:25:08 GMT 38.663776 9.655823 37,300 346 374 640
2021-12-07 07:25:02 GMT 38.653427 9.659132 37,225 347 373 640
2021-12-07 07:24:57 GMT 38.645691 9.661580 37,175 347 373 576
2021-12-07 07:24:54 GMT 38.639755 9.663513 37,150 346 374 512
2021-12-07 07:24:51 GMT 38.635666 9.664804 37,125 346 374 512
2021-12-07 07:24:46 GMT 38.627277 9.667419 37,075 346 374 576
2021-12-07 07:24:42 GMT 38.619736 9.669879 37,025 346 373 576
2021-12-07 07:24:34 GMT 38.606277 9.674178 36,950 346 373 512
2021-12-07 07:24:31 GMT 38.602020 9.675552 36,950 346 373 512
2021-12-07 07:24:24 GMT 38.589153 9.679626 36,875 346 372 512
2021-12-07 07:24:21 GMT 38.585754 9.680725 36,850 346 372 576
2021-12-07 07:24:13 GMT 38.572067 9.685181 36,775 346 372 512
2021-12-07 07:24:10 GMT 38.567871 9.686538 36,750 346 371 512
2021-12-07 07:24:05 GMT 38.558029 9.689703 36,700 346 371 448
2021-12-07 07:24:01 GMT 38.552189 9.691589 36,675 346 370 448
2021-12-07 07:23:51 GMT 38.535370 9.697106 36,625 346 368 384
2021-12-07 07:23:41 GMT 38.518341 9.702659 36,550 346 366 384
2021-12-07 07:23:31 GMT 38.502319 9.707914 36,500 346 363 64
2021-12-07 07:23:21 GMT 38.485340 9.713440 36,500 346 359 -64
2021-12-07 07:23:11 GMT 38.469315 9.718661 36,500 346 355 192
2021-12-07 07:23:01 GMT 38.453979 9.723617 36,400 346 353 1280
2021-12-07 07:22:51 GMT 38.437546 9.728931 36,100 346 357 2048
2021-12-07 07:22:41 GMT 38.421192 9.734192 35,775 346 361 1856
2021-12-07 07:22:30 GMT 38.404678 9.739497 35,475 346 364 1536
2021-12-07 07:22:20 GMT 38.388336 9.744756 35,225 346 365 1472
2021-12-07 07:22:10 GMT 38.371658 9.750068 35,000 346 367 1280
2021-12-07 07:22:00 GMT 38.355789 9.755158 34,825 346 367 896
2021-12-07 07:21:50 GMT 38.338531 9.760651 34,650 346 367 1024
2021-12-07 07:21:39 GMT 38.320312 9.766487 34,450 346 368 1024
2021-12-07 07:21:30 GMT 38.305847 9.771170 34,300 346 368 1216
2021-12-07 07:21:19 GMT 38.287262 9.777131 34,075 346 369 1216
2021-12-07 07:21:09 GMT 38.271561 9.782156 33,875 346 369 1088
2021-12-07 07:21:00 GMT 38.255447 9.787357 33,700 346 368 1024
2021-12-07 07:20:49 GMT 38.238148 9.792938 33,525 346 368 960
2021-12-07 07:20:40 GMT 38.221573 9.798285 33,375 346 367 896
2021-12-07 07:20:29 GMT 38.205048 9.803662 33,225 346 366 960
2021-12-07 07:20:19 GMT 38.187881 9.809213 33,025 346 367 1536
2021-12-07 07:20:09 GMT 38.171310 9.814589 32,775 346 368 1280
2021-12-07 07:19:58 GMT 38.154400 9.820046 32,550 346 369 1472
2021-12-07 07:19:49 GMT 38.137894 9.825284 32,300 346 370 1664
2021-12-07 07:19:40 GMT 38.122604 9.830192 32,050 346 372 1280
2021-12-07 07:19:38 GMT 38.120682 9.830835 32,025 346 372 1216
2021-12-07 07:19:28 GMT 38.103287 9.836406 31,825 346 372 1024
2021-12-07 07:19:20 GMT 38.089828 9.840711 31,675 346 371 1088
2021-12-07 07:19:18 GMT 38.086853 9.841660 31,650 346 371 1152
2021-12-07 07:19:10 GMT 38.072937 9.846146 31,500 346 371 1152
2021-12-07 07:19:07 GMT 38.069397 9.847273 31,450 346 371 1152
2021-12-07 07:18:57 GMT 38.052292 9.852749 31,275 346 371 1216
2021-12-07 07:18:48 GMT 38.035320 9.858199 31,025 346 371 1408
2021-12-07 07:18:37 GMT 38.018326 9.863619 30,800 346 372 1472
2021-12-07 07:18:29 GMT 38.005829 9.867651 30,600 346 373 1472
2021-12-07 07:18:27 GMT 38.001389 9.869054 30,550 346 373 1472
2021-12-07 07:18:19 GMT 37.988434 9.873203 30,375 346 374 1344
2021-12-07 07:18:17 GMT 37.984634 9.874430 30,300 346 374 1408
2021-12-07 07:18:07 GMT 37.967697 9.879865 30,075 346 374 1216
2021-12-07 07:17:58 GMT 37.953690 9.884306 29,925 346 374 1152
2021-12-07 07:17:56 GMT 37.950222 9.885426 29,875 346 374 1152
2021-12-07 07:17:48 GMT 37.937210 9.889565 29,750 346 372 768
2021-12-07 07:17:46 GMT 37.933914 9.890617 29,725 346 372 768
2021-12-07 07:17:36 GMT 37.916378 9.896234 29,575 346 369 1024
2021-12-07 07:17:28 GMT 37.903484 9.900413 29,450 346 368 896
2021-12-07 07:17:26 GMT 37.899536 9.901720 29,425 346 367 896
2021-12-07 07:17:18 GMT 37.886631 9.905847 29,300 346 365 896
2021-12-07 07:17:15 GMT 37.882629 9.907160 29,275 346 365 896
2021-12-07 07:17:08 GMT 37.870422 9.911129 29,150 346 363 1024
2021-12-07 07:17:05 GMT 37.866009 9.912534 29,125 346 363 1088
2021-12-07 07:17:01 GMT 37.859631 9.914624 29,025 346 362 1216
2021-12-07 07:16:58 GMT 37.854092 9.916415 28,975 346 362 1344
2021-12-07 07:16:56 GMT 37.849205 9.918027 28,900 346 361 1408
2021-12-07 07:16:53 GMT 37.846737 9.918803 28,850 346 361 1536
2021-12-07 07:16:47 GMT 37.836262 9.922266 28,700 346 362 1600
2021-12-07 07:16:43 GMT 37.829727 9.924394 28,575 346 362 1536
2021-12-07 07:16:38 GMT 37.821598 9.927043 28,450 346 362 1408
2021-12-07 07:16:31 GMT 37.805466 9.932225 28,250 346 361 1280
2021-12-07 07:16:27 GMT 37.803814 9.932775 28,225 346 361 1280
2021-12-07 07:16:25 GMT 37.800419 9.933850 28,175 346 360 1344
2021-12-07 07:16:21 GMT 37.794525 9.935790 28,100 345 360 1536
2021-12-07 07:16:18 GMT 37.788872 9.937671 28,000 343 359 1536
2021-12-07 07:16:14 GMT 37.783905 9.939588 27,925 341 359 1536
2021-12-07 07:16:11 GMT 37.779003 9.941791 27,825 338 358 1536
2021-12-07 07:16:08 GMT 37.773056 9.944964 27,725 334 356 1408
2021-12-07 07:16:04 GMT 37.768623 9.947762 27,675 331 356 1280
2021-12-07 07:15:57 GMT 37.758335 9.955763 27,525 324 354 1088
2021-12-07 07:15:53 GMT 37.749161 9.964950 27,400 317 352 960
2021-12-07 07:15:46 GMT 37.745590 9.969216 27,350 315 352 1024
2021-12-07 07:15:44 GMT 37.741810 9.974034 27,275 313 353 1088
2021-12-07 07:15:37 GMT 37.734833 9.984293 27,150 308 352 1280
2021-12-07 07:15:34 GMT 37.731400 9.990079 27,075 306 353 1472
2021-12-07 07:15:27 GMT 37.725266 10.001123 26,800 305 353 1472
2021-12-07 07:15:24 GMT 37.721970 10.007084 26,825 305 353 1472
2021-12-07 07:15:17 GMT 37.715698 10.018596 26,675 305 352 1408
2021-12-07 07:15:13 GMT 37.712265 10.024791 26,575 305 352 1344
2021-12-07 07:15:05 GMT 37.704666 10.038640 26,400 305 350 1152
2021-12-07 07:15:02 GMT 37.701820 10.043833 26,350 305 350 1152
2021-12-07 07:14:56 GMT 37.697117 10.052431 26,250 305 347 1216
2021-12-07 07:14:53 GMT 37.693672 10.058640 26,175 305 347 1280
2021-12-07 07:14:47 GMT 37.688042 10.068850 26,050 305 346 1344
2021-12-07 07:14:43 GMT 37.684269 10.075717 25,950 305 345 1472
2021-12-07 07:14:37 GMT 37.679150 10.085031 25,800 305 345 1664
2021-12-07 07:14:32 GMT 37.675007 10.092555 25,675 305 345 1856
2021-12-07 07:14:27 GMT 37.669876 10.101870 25,500 305 345 1856
2021-12-07 07:14:20 GMT 37.661407 10.117239 25,225 305 346 1536
2021-12-07 07:14:17 GMT 37.660435 10.119005 25,175 305 346 1600
2021-12-07 07:14:12 GMT 37.656525 10.126111 25,075 305 346 1472
2021-12-07 07:14:07 GMT 37.651474 10.135238 24,950 305 344 1280
2021-12-07 07:14:02 GMT 37.646942 10.143420 24,825 305 344 1216
2021-12-07 07:13:56 GMT 37.641628 10.152979 24,725 305 342 1024
2021-12-07 07:13:51 GMT 37.637650 10.160191 24,650 305 340 960
2021-12-07 07:13:46 GMT 37.632477 10.169483 24,550 305 337 1152
2021-12-07 07:13:42 GMT 37.628918 10.175907 24,475 305 336 1280
2021-12-07 07:13:36 GMT 37.623459 10.185729 24,325 305 335 1792
2021-12-07 07:13:30 GMT 37.618195 10.195312 23,975 305 334 2112
2021-12-07 07:13:25 GMT 37.614719 10.201582 24,000 305 334 2112
2021-12-07 07:13:22 GMT 37.610413 10.209454 23,825 306 335 1984
2021-12-07 07:13:15 GMT 37.605743 10.217577 23,675 308 333 1600
2021-12-07 07:13:11 GMT 37.600941 10.225107 23,550 314 331 1216
2021-12-07 07:13:04 GMT 37.589722 10.237646 23,300 329 328 2112
2021-12-07 07:13:00 GMT 37.589165 10.238064 23,300 329 328 2048
2021-12-07 07:12:55 GMT 37.583130 10.242881 23,125 334 330 2432
2021-12-07 07:12:49 GMT 37.573975 10.248374 22,550 345 337 3264
2021-12-07 07:12:46 GMT 37.569424 10.250602 22,675 343 335 3136
2021-12-07 07:12:40 GMT 37.561184 10.253767 22,375 348 340 3200
2021-12-07 07:12:32 GMT 37.548431 10.256731 21,975 353 347 2880
2021-12-07 07:12:30 GMT 37.545170 10.257290 21,875 353 348 2624
2021-12-07 07:12:24 GMT 37.531494 10.259653 21,575 353 348 1920
2021-12-07 07:12:19 GMT 37.527328 10.260412 21,475 352 348 1856
2021-12-07 07:12:16 GMT 37.522522 10.261289 21,400 352 346 1728
2021-12-07 07:12:11 GMT 37.510803 10.263393 21,175 352 344 1728
2021-12-07 07:12:03 GMT 37.502335 10.264970 21,025 352 344 1856
2021-12-07 07:11:56 GMT 37.490379 10.267261 20,800 352 343 1792
2021-12-07 07:11:46 GMT 37.474876 10.270306 20,475 352 341 1728
2021-12-07 07:11:33 GMT 37.449875 10.275314 20,075 351 336 1920
2021-12-07 07:11:25 GMT 37.442184 10.276833 19,900 351 335 2304
2021-12-07 07:11:18 GMT 37.430420 10.279288 19,575 351 336 2560
2021-12-07 07:11:15 GMT 37.427299 10.279919 19,500 351 336 2368
2021-12-07 07:11:09 GMT 37.417709 10.282009 19,275 351 335 2112
2021-12-07 07:11:05 GMT 37.411705 10.283263 19,125 351 334 2112
2021-12-07 07:10:56 GMT 37.397552 10.286308 18,800 351 333 2112
2021-12-07 07:10:51 GMT 37.386986 10.288517 18,575 351 332 1664
2021-12-07 07:10:46 GMT 37.382126 10.289514 18,500 351 330 1600
2021-12-07 07:10:41 GMT 37.370556 10.291980 18,275 351 327 1664
2021-12-07 07:10:29 GMT 37.355934 10.295085 17,600 351 324 2176
2021-12-07 07:10:23 GMT 37.350037 10.296352 17,800 351 325 2432
2021-12-07 07:10:12 GMT 37.327606 10.301202 17,300 351 322 1728
2021-12-07 07:10:04 GMT 37.320976 10.302668 17,150 350 320 1792
2021-12-07 07:09:55 GMT 37.307831 10.305819 16,825 349 317 2368
2021-12-07 07:09:44 GMT 37.292439 10.309594 16,425 349 316 2240
2021-12-07 07:09:33 GMT 37.275867 10.313714 16,000 349 313 2240
2021-12-07 07:09:25 GMT 37.264023 10.316630 15,675 350 311 2624
2021-12-07 07:09:17 GMT 37.248779 10.320194 15,175 352 313 2816
2021-12-07 07:09:13 GMT 37.248074 10.320342 15,150 351 312 2880
2021-12-07 07:09:05 GMT 37.235554 10.322551 14,750 357 313 2432
2021-12-07 07:08:54 GMT 37.220032 10.322824 14,300 5 314 2880
2021-12-07 07:08:44 GMT 37.205154 10.320819 13,775 6 316 3072
2021-12-07 07:08:34 GMT 37.190815 10.318730 13,275 6 315 3200
2021-12-07 07:08:29 GMT 37.179565 10.317156 12,875 6 316 3136
2021-12-07 07:08:23 GMT 37.175674 10.316571 12,725 6 315 3008
2021-12-07 07:08:18 GMT 37.162811 10.314818 12,350 6 313 2176
2021-12-07 07:08:14 GMT 37.161530 10.314643 12,325 6 313 2112
2021-12-07 07:08:03 GMT 37.145893 10.312341 12,000 6 305 1600
2021-12-07 07:07:54 GMT 37.132736 10.310377 11,775 6 294 1280
2021-12-07 07:07:44 GMT 37.119450 10.308400 11,550 7 282 1344
2021-12-07 07:07:31 GMT 37.104507 10.306071 11,275 7 269 1408
2021-12-07 07:07:22 GMT 37.092777 10.304280 11,050 6 255 1600
2021-12-07 07:07:11 GMT 37.080395 10.302429 10,725 6 246 1920
2021-12-07 07:07:02 GMT 37.070431 10.301116 10,375 6 240 2944
2021-12-07 07:06:53 GMT 37.059910 10.299623 9,850 6 239 3776
2021-12-07 07:06:42 GMT 37.047623 10.297951 9,125 6 243 3968
2021-12-07 07:06:32 GMT 37.036865 10.296399 8,525 6 245 3392
2021-12-07 07:06:22 GMT 37.025299 10.294715 8,025 6 241 2496

Making use of Plane Finder data

You are free to use the raw flight data, aircraft information and images provided in this report for your own purposes provided the data is correctly attributed to Plane Finder. We ask that you please credit Plane Finder and link to planefinder.net in close proximity to the content.

Optionally one of the following logos (no smaller then 150x24px) can be used and must link to planefinder.net

Embedding the Plane Finder map

You are welcome to embed the Plane Finder playback map on your website to offer visitors a more interactive experience. We suggest using the following HTML code:

<iframe src="//planefinder.net/data/report/TU788-TS-IMW-7700-squawk-2021-12-07/map" width="800" height="600" seamless="seamless"></iframe>

Where our data comes from

Plane Finder has a global network of data feeds and antenna radars that receive data broadcast directly from aircraft. The primary technologies used are ADS-B and MLAT. We also show feeds from the FAA and a FLARM glider feed.

Click here to find out more about the Plane Finder network.

How we collect our data